<?xml version='1.0' encoding='UTF-8'?>
<gpx version="1.1" creator="https://www.komoot.de" xmlns="http://www.topografix.com/GPX/1/1" xmlns:xsi="http://www.w3.org/2001/XMLSchema-instance" xsi:schemaLocation="http://www.topografix.com/GPX/1/1 http://www.topografix.com/GPX/1/1/gpx.xsd">
  <metadata>
    <name>50_480KuernbergRiburg</name>
    <author>
      <link href="https://www.komoot.de">
        <text>komoot</text>
        <type>text/html</type>
      </link>
    </author>
  </metadata>
  <trk>
    <name>50_480KuernbergRiburg</name>
    <trkseg>
      <trkpt lat="47.541521" lon="7.870517">
        <ele>341.222740</ele>
        <time>2021-11-09T20:51:16.003Z</time>
      </trkpt>
      <trkpt lat="47.541550" lon="7.870601">
        <ele>341.222740</ele>
        <time>2021-11-09T20:51:17.458Z</time>
      </trkpt>
      <trkpt lat="47.541576" lon="7.870664">
        <ele>341.222740</ele>
        <time>2021-11-09T20:51:18.609Z</time>
      </trkpt>
      <trkpt lat="47.541796" lon="7.871042">
        <ele>341.222740</ele>
        <time>2021-11-09T20:51:25.976Z</time>
      </trkpt>
      <trkpt lat="47.541953" lon="7.871286">
        <ele>341.222740</ele>
        <time>2021-11-09T20:51:30.813Z</time>
      </trkpt>
      <trkpt lat="47.542039" lon="7.871556">
        <ele>341.222740</ele>
        <time>2021-11-09T20:51:35.417Z</time>
      </trkpt>
      <trkpt lat="47.542067" lon="7.871664">
        <ele>341.460230</ele>
        <time>2021-11-09T20:51:37.007Z</time>
      </trkpt>
      <trkpt lat="47.542091" lon="7.871721">
        <ele>341.644927</ele>
        <time>2021-11-09T20:51:37.611Z</time>
      </trkpt>
      <trkpt lat="47.542218" lon="7.871866">
        <ele>342.297968</ele>
        <time>2021-11-09T20:51:42.978Z</time>
      </trkpt>
      <trkpt lat="47.542394" lon="7.872341">
        <ele>343.787681</ele>
        <time>2021-11-09T20:51:53.220Z</time>
      </trkpt>
      <trkpt lat="47.542436" lon="7.872494">
        <ele>344.241775</ele>
        <time>2021-11-09T20:51:56.547Z</time>
      </trkpt>
      <trkpt lat="47.542537" lon="7.872430">
        <ele>344.689178</ele>
        <time>2021-11-09T20:51:58.583Z</time>
      </trkpt>
      <trkpt lat="47.542714" lon="7.872334">
        <ele>345.456856</ele>
        <time>2021-11-09T20:52:05.696Z</time>
      </trkpt>
      <trkpt lat="47.542814" lon="7.872280">
        <ele>345.890349</ele>
        <time>2021-11-09T20:52:08.573Z</time>
      </trkpt>
      <trkpt lat="47.542919" lon="7.872226">
        <ele>346.343027</ele>
        <time>2021-11-09T20:52:12.413Z</time>
      </trkpt>
      <trkpt lat="47.543013" lon="7.872182">
        <ele>346.744525</ele>
        <time>2021-11-09T20:52:16.043Z</time>
      </trkpt>
      <trkpt lat="47.543233" lon="7.872082">
        <ele>347.681766</ele>
        <time>2021-11-09T20:52:23.141Z</time>
      </trkpt>
      <trkpt lat="47.543251" lon="7.872152">
        <ele>347.887704</ele>
        <time>2021-11-09T20:52:26.556Z</time>
      </trkpt>
      <trkpt lat="47.543332" lon="7.872237">
        <ele>348.291981</ele>
        <time>2021-11-09T20:52:29.966Z</time>
      </trkpt>
      <trkpt lat="47.544390" lon="7.872423">
        <ele>355.053855</ele>
        <time>2021-11-09T20:53:11.597Z</time>
      </trkpt>
      <trkpt lat="47.544883" lon="7.872555">
        <ele>358.304935</ele>
        <time>2021-11-09T20:53:33.940Z</time>
      </trkpt>
      <trkpt lat="47.545131" lon="7.872664">
        <ele>359.983626</ele>
        <time>2021-11-09T20:53:44.944Z</time>
      </trkpt>
      <trkpt lat="47.545375" lon="7.872836">
        <ele>361.730511</ele>
        <time>2021-11-09T20:53:55.885Z</time>
      </trkpt>
      <trkpt lat="47.545478" lon="7.872968">
        <ele>362.610440</ele>
        <time>2021-11-09T20:54:02.692Z</time>
      </trkpt>
      <trkpt lat="47.545515" lon="7.873015">
        <ele>362.925343</ele>
        <time>2021-11-09T20:54:04.649Z</time>
      </trkpt>
      <trkpt lat="47.545746" lon="7.873302">
        <ele>364.873211</ele>
        <time>2021-11-09T20:54:17.849Z</time>
      </trkpt>
      <trkpt lat="47.545934" lon="7.873549">
        <ele>366.496727</ele>
        <time>2021-11-09T20:54:27.949Z</time>
      </trkpt>
      <trkpt lat="47.546077" lon="7.873763">
        <ele>367.809991</ele>
        <time>2021-11-09T20:54:37.145Z</time>
      </trkpt>
      <trkpt lat="47.546135" lon="7.873859">
        <ele>368.371875</ele>
        <time>2021-11-09T20:54:40.384Z</time>
      </trkpt>
      <trkpt lat="47.546309" lon="7.874154">
        <ele>370.080394</ele>
        <time>2021-11-09T20:54:51.499Z</time>
      </trkpt>
      <trkpt lat="47.547126" lon="7.875801">
        <ele>375.783581</ele>
        <time>2021-11-09T20:55:37.260Z</time>
      </trkpt>
      <trkpt lat="47.547574" lon="7.876801">
        <ele>378.113391</ele>
        <time>2021-11-09T20:55:56.256Z</time>
      </trkpt>
      <trkpt lat="47.547992" lon="7.877974">
        <ele>377.110823</ele>
        <time>2021-11-09T20:56:09.056Z</time>
      </trkpt>
      <trkpt lat="47.548234" lon="7.878638">
        <ele>376.540463</ele>
        <time>2021-11-09T20:56:14.368Z</time>
      </trkpt>
      <trkpt lat="47.548422" lon="7.878959">
        <ele>376.184587</ele>
        <time>2021-11-09T20:56:17.211Z</time>
      </trkpt>
      <trkpt lat="47.548718" lon="7.879258">
        <ele>374.698639</ele>
        <time>2021-11-09T20:56:20.750Z</time>
      </trkpt>
      <trkpt lat="47.549140" lon="7.879391">
        <ele>372.909118</ele>
        <time>2021-11-09T20:56:24.936Z</time>
      </trkpt>
      <trkpt lat="47.549318" lon="7.879398">
        <ele>372.170556</ele>
        <time>2021-11-09T20:56:26.563Z</time>
      </trkpt>
      <trkpt lat="47.549327" lon="7.879547">
        <ele>371.751755</ele>
        <time>2021-11-09T20:56:27.550Z</time>
      </trkpt>
      <trkpt lat="47.549726" lon="7.880786">
        <ele>368.039707</ele>
        <time>2021-11-09T20:56:36.548Z</time>
      </trkpt>
      <trkpt lat="47.549927" lon="7.881490">
        <ele>366.224946</ele>
        <time>2021-11-09T20:56:41.575Z</time>
      </trkpt>
      <trkpt lat="47.550170" lon="7.882858">
        <ele>362.866583</ele>
        <time>2021-11-09T20:56:51.526Z</time>
      </trkpt>
      <trkpt lat="47.550234" lon="7.883221">
        <ele>361.847636</ele>
        <time>2021-11-09T20:56:54.004Z</time>
      </trkpt>
      <trkpt lat="47.550332" lon="7.884727">
        <ele>357.273929</ele>
        <time>2021-11-09T20:57:03.831Z</time>
      </trkpt>
      <trkpt lat="47.550391" lon="7.885109">
        <ele>356.089306</ele>
        <time>2021-11-09T20:57:06.349Z</time>
      </trkpt>
      <trkpt lat="47.550548" lon="7.885799">
        <ele>353.745941</ele>
        <time>2021-11-09T20:57:10.938Z</time>
      </trkpt>
      <trkpt lat="47.550677" lon="7.886476">
        <ele>351.015965</ele>
        <time>2021-11-09T20:57:15.368Z</time>
      </trkpt>
      <trkpt lat="47.550758" lon="7.887295">
        <ele>347.803677</ele>
        <time>2021-11-09T20:57:20.511Z</time>
      </trkpt>
      <trkpt lat="47.550789" lon="7.887816">
        <ele>345.773960</ele>
        <time>2021-11-09T20:57:23.742Z</time>
      </trkpt>
      <trkpt lat="47.550831" lon="7.888611">
        <ele>342.562310</ele>
        <time>2021-11-09T20:57:28.698Z</time>
      </trkpt>
      <trkpt lat="47.550833" lon="7.889069">
        <ele>340.632854</ele>
        <time>2021-11-09T20:57:31.508Z</time>
      </trkpt>
      <trkpt lat="47.550915" lon="7.890600">
        <ele>334.162943</ele>
        <time>2021-11-09T20:57:40.901Z</time>
      </trkpt>
      <trkpt lat="47.550904" lon="7.891725">
        <ele>330.674070</ele>
        <time>2021-11-09T20:57:47.905Z</time>
      </trkpt>
      <trkpt lat="47.550892" lon="7.893176">
        <ele>326.811607</ele>
        <time>2021-11-09T20:57:57.517Z</time>
      </trkpt>
      <trkpt lat="47.550908" lon="7.894308">
        <ele>325.120282</ele>
        <time>2021-11-09T20:58:06.722Z</time>
      </trkpt>
      <trkpt lat="47.550878" lon="7.895158">
        <ele>324.407302</ele>
        <time>2021-11-09T20:58:13.907Z</time>
      </trkpt>
      <trkpt lat="47.550838" lon="7.895509">
        <ele>324.109123</ele>
        <time>2021-11-09T20:58:17.071Z</time>
      </trkpt>
      <trkpt lat="47.550660" lon="7.896255">
        <ele>323.384238</ele>
        <time>2021-11-09T20:58:23.560Z</time>
      </trkpt>
      <trkpt lat="47.550639" lon="7.896345">
        <ele>323.203295</ele>
        <time>2021-11-09T20:58:24.747Z</time>
      </trkpt>
      <trkpt lat="47.550648" lon="7.896481">
        <ele>322.943638</ele>
        <time>2021-11-09T20:58:25.702Z</time>
      </trkpt>
      <trkpt lat="47.550819" lon="7.898109">
        <ele>319.812990</ele>
        <time>2021-11-09T20:58:37.450Z</time>
      </trkpt>
      <trkpt lat="47.550801" lon="7.900244">
        <ele>314.385401</ele>
        <time>2021-11-09T20:58:51.287Z</time>
      </trkpt>
      <trkpt lat="47.550769" lon="7.901362">
        <ele>311.170083</ele>
        <time>2021-11-09T20:58:58.559Z</time>
      </trkpt>
      <trkpt lat="47.550757" lon="7.901591">
        <ele>310.546192</ele>
        <time>2021-11-09T20:59:00.695Z</time>
      </trkpt>
      <trkpt lat="47.550688" lon="7.902451">
        <ele>308.397583</ele>
        <time>2021-11-09T20:59:09.129Z</time>
      </trkpt>
      <trkpt lat="47.550498" lon="7.903445">
        <ele>305.834559</ele>
        <time>2021-11-09T20:59:19.380Z</time>
      </trkpt>
      <trkpt lat="47.550302" lon="7.904164">
        <ele>303.897867</ele>
        <time>2021-11-09T20:59:26.639Z</time>
      </trkpt>
      <trkpt lat="47.550025" lon="7.904774">
        <ele>301.980510</ele>
        <time>2021-11-09T20:59:33.530Z</time>
      </trkpt>
      <trkpt lat="47.549868" lon="7.905010">
        <ele>301.116333</ele>
        <time>2021-11-09T20:59:36.647Z</time>
      </trkpt>
      <trkpt lat="47.549867" lon="7.905155">
        <ele>300.738164</ele>
        <time>2021-11-09T20:59:38.036Z</time>
      </trkpt>
      <trkpt lat="47.550067" lon="7.905245">
        <ele>299.930529</ele>
        <time>2021-11-09T20:59:40.947Z</time>
      </trkpt>
      <trkpt lat="47.550283" lon="7.905413">
        <ele>298.987919</ele>
        <time>2021-11-09T20:59:44.380Z</time>
      </trkpt>
      <trkpt lat="47.550497" lon="7.905558">
        <ele>298.078683</ele>
        <time>2021-11-09T20:59:47.734Z</time>
      </trkpt>
      <trkpt lat="47.550300" lon="7.906187">
        <ele>296.669713</ele>
        <time>2021-11-09T20:59:52.368Z</time>
      </trkpt>
      <trkpt lat="47.549539" lon="7.908625">
        <ele>292.888591</ele>
        <time>2021-11-09T21:00:12.395Z</time>
      </trkpt>
      <trkpt lat="47.549520" lon="7.908678">
        <ele>292.838616</ele>
        <time>2021-11-09T21:00:12.908Z</time>
      </trkpt>
      <trkpt lat="47.549301" lon="7.909402">
        <ele>292.177929</ele>
        <time>2021-11-09T21:00:19.469Z</time>
      </trkpt>
      <trkpt lat="47.549195" lon="7.909756">
        <ele>291.855428</ele>
        <time>2021-11-09T21:00:22.683Z</time>
      </trkpt>
      <trkpt lat="47.549102" lon="7.910058">
        <ele>291.578997</ele>
        <time>2021-11-09T21:00:25.403Z</time>
      </trkpt>
      <trkpt lat="47.549012" lon="7.910340">
        <ele>291.319232</ele>
        <time>2021-11-09T21:00:27.932Z</time>
      </trkpt>
      <trkpt lat="47.548412" lon="7.912168">
        <ele>289.816496</ele>
        <time>2021-11-09T21:00:44.265Z</time>
      </trkpt>
      <trkpt lat="47.548027" lon="7.913334">
        <ele>289.032100</ele>
        <time>2021-11-09T21:00:55.026Z</time>
      </trkpt>
      <trkpt lat="47.547994" lon="7.913433">
        <ele>289.012931</ele>
        <time>2021-11-09T21:00:55.946Z</time>
      </trkpt>
      <trkpt lat="47.547423" lon="7.915080">
        <ele>288.691488</ele>
        <time>2021-11-09T21:01:13.435Z</time>
      </trkpt>
      <trkpt lat="47.547113" lon="7.915971">
        <ele>288.818186</ele>
        <time>2021-11-09T21:01:24.073Z</time>
      </trkpt>
      <trkpt lat="47.547091" lon="7.916039">
        <ele>288.845015</ele>
        <time>2021-11-09T21:01:25.123Z</time>
      </trkpt>
      <trkpt lat="47.547032" lon="7.916218">
        <ele>288.915891</ele>
        <time>2021-11-09T21:01:27.393Z</time>
      </trkpt>
      <trkpt lat="47.546821" lon="7.916867">
        <ele>289.172195</ele>
        <time>2021-11-09T21:01:35.808Z</time>
      </trkpt>
      <trkpt lat="47.546262" lon="7.919081">
        <ele>289.829921</ele>
        <time>2021-11-09T21:02:03.470Z</time>
      </trkpt>
      <trkpt lat="47.546128" lon="7.919617">
        <ele>289.950268</ele>
        <time>2021-11-09T21:02:08.898Z</time>
      </trkpt>
      <trkpt lat="47.545973" lon="7.920313">
        <ele>290.104582</ele>
        <time>2021-11-09T21:02:16.317Z</time>
      </trkpt>
      <trkpt lat="47.545913" lon="7.920765">
        <ele>290.431705</ele>
        <time>2021-11-09T21:02:21.075Z</time>
      </trkpt>
      <trkpt lat="47.545881" lon="7.921096">
        <ele>290.714338</ele>
        <time>2021-11-09T21:02:25.042Z</time>
      </trkpt>
      <trkpt lat="47.545810" lon="7.921755">
        <ele>291.278409</ele>
        <time>2021-11-09T21:02:33.652Z</time>
      </trkpt>
      <trkpt lat="47.545778" lon="7.921947">
        <ele>291.445572</ele>
        <time>2021-11-09T21:02:36.605Z</time>
      </trkpt>
      <trkpt lat="47.545714" lon="7.922249">
        <ele>291.713123</ele>
        <time>2021-11-09T21:02:40.459Z</time>
      </trkpt>
      <trkpt lat="47.545699" lon="7.922325">
        <ele>291.780052</ele>
        <time>2021-11-09T21:02:41.656Z</time>
      </trkpt>
      <trkpt lat="47.545690" lon="7.922369">
        <ele>291.818913</ele>
        <time>2021-11-09T21:02:42.728Z</time>
      </trkpt>
      <trkpt lat="47.545641" lon="7.922610">
        <ele>292.031660</ele>
        <time>2021-11-09T21:02:46.083Z</time>
      </trkpt>
      <trkpt lat="47.545587" lon="7.922895">
        <ele>292.281868</ele>
        <time>2021-11-09T21:02:50.915Z</time>
      </trkpt>
      <trkpt lat="47.545553" lon="7.923142">
        <ele>292.720698</ele>
        <time>2021-11-09T21:02:54.526Z</time>
      </trkpt>
      <trkpt lat="47.545536" lon="7.923407">
        <ele>293.378340</ele>
        <time>2021-11-09T21:02:59.402Z</time>
      </trkpt>
      <trkpt lat="47.545521" lon="7.923709">
        <ele>294.126459</ele>
        <time>2021-11-09T21:03:04.568Z</time>
      </trkpt>
      <trkpt lat="47.545481" lon="7.924396">
        <ele>295.830021</ele>
        <time>2021-11-09T21:03:19.172Z</time>
      </trkpt>
      <trkpt lat="47.545466" lon="7.924880">
        <ele>297.027022</ele>
        <time>2021-11-09T21:03:30.478Z</time>
      </trkpt>
      <trkpt lat="47.545446" lon="7.925350">
        <ele>298.190480</ele>
        <time>2021-11-09T21:03:40.853Z</time>
      </trkpt>
      <trkpt lat="47.545417" lon="7.925848">
        <ele>299.235607</ele>
        <time>2021-11-09T21:03:51.332Z</time>
      </trkpt>
      <trkpt lat="47.545409" lon="7.926773">
        <ele>300.587830</ele>
        <time>2021-11-09T21:04:08.533Z</time>
      </trkpt>
      <trkpt lat="47.545407" lon="7.927001">
        <ele>300.921136</ele>
        <time>2021-11-09T21:04:12.342Z</time>
      </trkpt>
      <trkpt lat="47.545406" lon="7.927306">
        <ele>301.366973</ele>
        <time>2021-11-09T21:04:16.946Z</time>
      </trkpt>
      <trkpt lat="47.545421" lon="7.927686">
        <ele>301.923384</ele>
        <time>2021-11-09T21:04:22.482Z</time>
      </trkpt>
      <trkpt lat="47.545475" lon="7.928419">
        <ele>302.756627</ele>
        <time>2021-11-09T21:04:31.800Z</time>
      </trkpt>
      <trkpt lat="47.545563" lon="7.929641">
        <ele>301.534761</ele>
        <time>2021-11-09T21:04:41.679Z</time>
      </trkpt>
      <trkpt lat="47.545661" lon="7.930955">
        <ele>300.220371</ele>
        <time>2021-11-09T21:04:51.075Z</time>
      </trkpt>
      <trkpt lat="47.545696" lon="7.931497">
        <ele>299.788106</ele>
        <time>2021-11-09T21:04:55.043Z</time>
      </trkpt>
      <trkpt lat="47.545721" lon="7.931992">
        <ele>299.396671</ele>
        <time>2021-11-09T21:04:58.836Z</time>
      </trkpt>
      <trkpt lat="47.545724" lon="7.932758">
        <ele>298.792613</ele>
        <time>2021-11-09T21:05:05.046Z</time>
      </trkpt>
      <trkpt lat="47.545702" lon="7.933290">
        <ele>298.372304</ele>
        <time>2021-11-09T21:05:09.689Z</time>
      </trkpt>
      <trkpt lat="47.545674" lon="7.933625">
        <ele>298.106114</ele>
        <time>2021-11-09T21:05:12.889Z</time>
      </trkpt>
      <trkpt lat="47.545457" lon="7.935110">
        <ele>299.106051</ele>
        <time>2021-11-09T21:05:31.024Z</time>
      </trkpt>
      <trkpt lat="47.545074" lon="7.936484">
        <ele>300.265387</ele>
        <time>2021-11-09T21:05:52.551Z</time>
      </trkpt>
      <trkpt lat="47.544903" lon="7.936917">
        <ele>300.860478</ele>
        <time>2021-11-09T21:05:59.868Z</time>
      </trkpt>
      <trkpt lat="47.544705" lon="7.937395">
        <ele>301.525755</ele>
        <time>2021-11-09T21:06:08.052Z</time>
      </trkpt>
      <trkpt lat="47.544472" lon="7.937932">
        <ele>302.283021</ele>
        <time>2021-11-09T21:06:17.439Z</time>
      </trkpt>
      <trkpt lat="47.543826" lon="7.939433">
        <ele>304.331204</ele>
        <time>2021-11-09T21:06:44.290Z</time>
      </trkpt>
      <trkpt lat="47.543614" lon="7.940103">
        <ele>305.168348</ele>
        <time>2021-11-09T21:06:55.248Z</time>
      </trkpt>
      <trkpt lat="47.543435" lon="7.940670">
        <ele>305.876508</ele>
        <time>2021-11-09T21:07:04.248Z</time>
      </trkpt>
      <trkpt lat="47.543161" lon="7.942213">
        <ele>306.501586</ele>
        <time>2021-11-09T21:07:25.114Z</time>
      </trkpt>
      <trkpt lat="47.543007" lon="7.943867">
        <ele>306.324736</ele>
        <time>2021-11-09T21:07:40.685Z</time>
      </trkpt>
      <trkpt lat="47.542913" lon="7.945267">
        <ele>304.594392</ele>
        <time>2021-11-09T21:07:51.445Z</time>
      </trkpt>
      <trkpt lat="47.542872" lon="7.945781">
        <ele>303.957828</ele>
        <time>2021-11-09T21:07:55.041Z</time>
      </trkpt>
      <trkpt lat="47.542875" lon="7.946089">
        <ele>303.570232</ele>
        <time>2021-11-09T21:07:57.132Z</time>
      </trkpt>
      <trkpt lat="47.542902" lon="7.946514">
        <ele>302.903393</ele>
        <time>2021-11-09T21:08:00.011Z</time>
      </trkpt>
      <trkpt lat="47.542943" lon="7.946806">
        <ele>302.437488</ele>
        <time>2021-11-09T21:08:02.058Z</time>
      </trkpt>
      <trkpt lat="47.542974" lon="7.946965">
        <ele>302.178957</ele>
        <time>2021-11-09T21:08:03.268Z</time>
      </trkpt>
      <trkpt lat="47.542979" lon="7.946989">
        <ele>302.139721</ele>
        <time>2021-11-09T21:08:03.424Z</time>
      </trkpt>
      <trkpt lat="47.543007" lon="7.947104">
        <ele>301.948748</ele>
        <time>2021-11-09T21:08:04.272Z</time>
      </trkpt>
      <trkpt lat="47.543087" lon="7.947317">
        <ele>301.567979</ele>
        <time>2021-11-09T21:08:06.015Z</time>
      </trkpt>
      <trkpt lat="47.543191" lon="7.947615">
        <ele>301.043933</ele>
        <time>2021-11-09T21:08:08.456Z</time>
      </trkpt>
      <trkpt lat="47.543242" lon="7.947745">
        <ele>300.809053</ele>
        <time>2021-11-09T21:08:09.586Z</time>
      </trkpt>
      <trkpt lat="47.543273" lon="7.947816">
        <ele>300.676964</ele>
        <time>2021-11-09T21:08:10.213Z</time>
      </trkpt>
      <trkpt lat="47.543358" lon="7.947967">
        <ele>300.369831</ele>
        <time>2021-11-09T21:08:11.656Z</time>
      </trkpt>
      <trkpt lat="47.543455" lon="7.948127">
        <ele>300.033890</ele>
        <time>2021-11-09T21:08:13.323Z</time>
      </trkpt>
      <trkpt lat="47.543532" lon="7.948214">
        <ele>299.809789</ele>
        <time>2021-11-09T21:08:14.403Z</time>
      </trkpt>
      <trkpt lat="47.543579" lon="7.948287">
        <ele>299.652203</ele>
        <time>2021-11-09T21:08:15.167Z</time>
      </trkpt>
      <trkpt lat="47.543760" lon="7.948548">
        <ele>299.410910</ele>
        <time>2021-11-09T21:08:18.056Z</time>
      </trkpt>
      <trkpt lat="47.543864" lon="7.948694">
        <ele>299.377739</ele>
        <time>2021-11-09T21:08:19.728Z</time>
      </trkpt>
      <trkpt lat="47.544239" lon="7.949202">
        <ele>299.260096</ele>
        <time>2021-11-09T21:08:27.090Z</time>
      </trkpt>
      <trkpt lat="47.544521" lon="7.949558">
        <ele>299.174321</ele>
        <time>2021-11-09T21:08:33.263Z</time>
      </trkpt>
      <trkpt lat="47.544901" lon="7.950044">
        <ele>299.058097</ele>
        <time>2021-11-09T21:08:42.063Z</time>
      </trkpt>
      <trkpt lat="47.545166" lon="7.950366">
        <ele>298.549482</ele>
        <time>2021-11-09T21:08:47.304Z</time>
      </trkpt>
      <trkpt lat="47.545434" lon="7.950668">
        <ele>297.850759</ele>
        <time>2021-11-09T21:08:51.544Z</time>
      </trkpt>
      <trkpt lat="47.545542" lon="7.950842">
        <ele>297.519662</ele>
        <time>2021-11-09T21:08:53.323Z</time>
      </trkpt>
      <trkpt lat="47.545667" lon="7.950979">
        <ele>297.197009</ele>
        <time>2021-11-09T21:08:55.093Z</time>
      </trkpt>
      <trkpt lat="47.545737" lon="7.951055">
        <ele>297.016921</ele>
        <time>2021-11-09T21:08:56.023Z</time>
      </trkpt>
      <trkpt lat="47.545759" lon="7.950982">
        <ele>296.904942</ele>
        <time>2021-11-09T21:08:56.589Z</time>
      </trkpt>
      <trkpt lat="47.545852" lon="7.950808">
        <ele>296.594069</ele>
        <time>2021-11-09T21:08:58.162Z</time>
      </trkpt>
      <trkpt lat="47.545858" lon="7.950769">
        <ele>296.538042</ele>
        <time>2021-11-09T21:08:58.441Z</time>
      </trkpt>
      <trkpt lat="47.545875" lon="7.950668">
        <ele>296.392240</ele>
        <time>2021-11-09T21:08:59.184Z</time>
      </trkpt>
      <trkpt lat="47.545948" lon="7.950297">
        <ele>295.850957</ele>
        <time>2021-11-09T21:09:01.784Z</time>
      </trkpt>
      <trkpt lat="47.545949" lon="7.950185">
        <ele>295.694067</ele>
        <time>2021-11-09T21:09:02.543Z</time>
      </trkpt>
      <trkpt lat="47.546159" lon="7.949303">
        <ele>293.738159</ele>
        <time>2021-11-09T21:09:08.566Z</time>
      </trkpt>
      <trkpt lat="47.546572" lon="7.947545">
        <ele>289.292916</ele>
        <time>2021-11-09T21:09:21.038Z</time>
      </trkpt>
      <trkpt lat="47.546664" lon="7.947227">
        <ele>288.797768</ele>
        <time>2021-11-09T21:09:23.560Z</time>
      </trkpt>
      <trkpt lat="47.546749" lon="7.946929">
        <ele>288.569232</ele>
        <time>2021-11-09T21:09:25.951Z</time>
      </trkpt>
      <trkpt lat="47.546772" lon="7.946847">
        <ele>288.506503</ele>
        <time>2021-11-09T21:09:26.621Z</time>
      </trkpt>
      <trkpt lat="47.546815" lon="7.946690">
        <ele>288.386814</ele>
        <time>2021-11-09T21:09:27.908Z</time>
      </trkpt>
      <trkpt lat="47.546959" lon="7.946071">
        <ele>287.924302</ele>
        <time>2021-11-09T21:09:33.216Z</time>
      </trkpt>
      <trkpt lat="47.546975" lon="7.945998">
        <ele>287.870083</ele>
        <time>2021-11-09T21:09:33.972Z</time>
      </trkpt>
      <trkpt lat="47.547022" lon="7.945790">
        <ele>287.715134</ele>
        <time>2021-11-09T21:09:36.052Z</time>
      </trkpt>
      <trkpt lat="47.547075" lon="7.945550">
        <ele>287.536753</ele>
        <time>2021-11-09T21:09:38.381Z</time>
      </trkpt>
      <trkpt lat="47.547150" lon="7.945242">
        <ele>287.305453</ele>
        <time>2021-11-09T21:09:42.177Z</time>
      </trkpt>
      <trkpt lat="47.547161" lon="7.945196">
        <ele>287.270979</ele>
        <time>2021-11-09T21:09:42.655Z</time>
      </trkpt>
      <trkpt lat="47.547282" lon="7.944699">
        <ele>286.989120</ele>
        <time>2021-11-09T21:09:48.303Z</time>
      </trkpt>
      <trkpt lat="47.547318" lon="7.944515">
        <ele>286.932697</ele>
        <time>2021-11-09T21:09:50.005Z</time>
      </trkpt>
      <trkpt lat="47.547344" lon="7.944382">
        <ele>286.891915</ele>
        <time>2021-11-09T21:09:51.376Z</time>
      </trkpt>
      <trkpt lat="47.547354" lon="7.944331">
        <ele>286.876273</ele>
        <time>2021-11-09T21:09:51.894Z</time>
      </trkpt>
      <trkpt lat="47.547734" lon="7.942722">
        <ele>286.374212</ele>
        <time>2021-11-09T21:10:06.871Z</time>
      </trkpt>
      <trkpt lat="47.547790" lon="7.942490">
        <ele>286.301645</ele>
        <time>2021-11-09T21:10:08.906Z</time>
      </trkpt>
      <trkpt lat="47.548087" lon="7.941446">
        <ele>285.667656</ele>
        <time>2021-11-09T21:10:18.953Z</time>
      </trkpt>
      <trkpt lat="47.548484" lon="7.940313">
        <ele>284.917373</ele>
        <time>2021-11-09T21:10:29.275Z</time>
      </trkpt>
      <trkpt lat="47.548550" lon="7.940126">
        <ele>284.793348</ele>
        <time>2021-11-09T21:10:31.024Z</time>
      </trkpt>
      <trkpt lat="47.548587" lon="7.940118">
        <ele>284.760789</ele>
        <time>2021-11-09T21:10:31.514Z</time>
      </trkpt>
      <trkpt lat="47.548632" lon="7.940087">
        <ele>284.717576</ele>
        <time>2021-11-09T21:10:32.153Z</time>
      </trkpt>
      <trkpt lat="47.548653" lon="7.940052">
        <ele>284.693435</ele>
        <time>2021-11-09T21:10:32.556Z</time>
      </trkpt>
      <trkpt lat="47.548676" lon="7.939951">
        <ele>284.646610</ele>
        <time>2021-11-09T21:10:33.433Z</time>
      </trkpt>
      <trkpt lat="47.548673" lon="7.939890">
        <ele>284.619742</ele>
        <time>2021-11-09T21:10:33.963Z</time>
      </trkpt>
      <trkpt lat="47.548643" lon="7.939810">
        <ele>284.579540</ele>
        <time>2021-11-09T21:10:34.735Z</time>
      </trkpt>
      <trkpt lat="47.548614" lon="7.939778">
        <ele>284.556006</ele>
        <time>2021-11-09T21:10:35.171Z</time>
      </trkpt>
      <trkpt lat="47.548563" lon="7.939753">
        <ele>284.521044</ele>
        <time>2021-11-09T21:10:35.842Z</time>
      </trkpt>
      <trkpt lat="47.548509" lon="7.939765">
        <ele>284.485505</ele>
        <time>2021-11-09T21:10:36.558Z</time>
      </trkpt>
      <trkpt lat="47.548379" lon="7.939679">
        <ele>284.392846</ele>
        <time>2021-11-09T21:10:38.345Z</time>
      </trkpt>
      <trkpt lat="47.548230" lon="7.939581">
        <ele>284.286745</ele>
        <time>2021-11-09T21:10:40.387Z</time>
      </trkpt>
      <trkpt lat="47.548150" lon="7.939478">
        <ele>284.217765</ele>
        <time>2021-11-09T21:10:41.784Z</time>
      </trkpt>
      <trkpt lat="47.548129" lon="7.939460">
        <ele>284.201975</ele>
        <time>2021-11-09T21:10:42.080Z</time>
      </trkpt>
      <trkpt lat="47.548085" lon="7.939422">
        <ele>284.168828</ele>
        <time>2021-11-09T21:10:42.720Z</time>
      </trkpt>
      <trkpt lat="47.547474" lon="7.938844">
        <ele>283.697018</ele>
        <time>2021-11-09T21:10:52.360Z</time>
      </trkpt>
      <trkpt lat="47.547174" lon="7.938475">
        <ele>283.533644</ele>
        <time>2021-11-09T21:10:57.423Z</time>
      </trkpt>
      <trkpt lat="47.547115" lon="7.938377">
        <ele>283.534170</ele>
        <time>2021-11-09T21:10:58.601Z</time>
      </trkpt>
      <trkpt lat="47.547044" lon="7.938237">
        <ele>283.534872</ele>
        <time>2021-11-09T21:11:00.290Z</time>
      </trkpt>
      <trkpt lat="47.546969" lon="7.938023">
        <ele>283.535839</ele>
        <time>2021-11-09T21:11:02.693Z</time>
      </trkpt>
      <trkpt lat="47.546915" lon="7.937800">
        <ele>283.536788</ele>
        <time>2021-11-09T21:11:05.074Z</time>
      </trkpt>
      <trkpt lat="47.546890" lon="7.937602">
        <ele>283.537596</ele>
        <time>2021-11-09T21:11:07.261Z</time>
      </trkpt>
      <trkpt lat="47.546895" lon="7.937196">
        <ele>283.539223</ele>
        <time>2021-11-09T21:11:11.346Z</time>
      </trkpt>
      <trkpt lat="47.547020" lon="7.936617">
        <ele>283.541660</ele>
        <time>2021-11-09T21:11:17.663Z</time>
      </trkpt>
      <trkpt lat="47.547523" lon="7.935115">
        <ele>283.914734</ele>
        <time>2021-11-09T21:11:35.755Z</time>
      </trkpt>
      <trkpt lat="47.547539" lon="7.935068">
        <ele>283.930807</ele>
        <time>2021-11-09T21:11:36.321Z</time>
      </trkpt>
      <trkpt lat="47.547663" lon="7.934665">
        <ele>284.066042</ele>
        <time>2021-11-09T21:11:41.274Z</time>
      </trkpt>
      <trkpt lat="47.547956" lon="7.933604">
        <ele>284.451437</ele>
        <time>2021-11-09T21:11:54.624Z</time>
      </trkpt>
      <trkpt lat="47.548144" lon="7.932614">
        <ele>284.953968</ele>
        <time>2021-11-09T21:12:07.549Z</time>
      </trkpt>
      <trkpt lat="47.548252" lon="7.930989">
        <ele>285.782174</ele>
        <time>2021-11-09T21:12:27.048Z</time>
      </trkpt>
      <trkpt lat="47.548241" lon="7.930335">
        <ele>286.206585</ele>
        <time>2021-11-09T21:12:34.247Z</time>
      </trkpt>
      <trkpt lat="47.548236" lon="7.930144">
        <ele>286.330588</ele>
        <time>2021-11-09T21:12:36.226Z</time>
      </trkpt>
      <trkpt lat="47.548226" lon="7.929841">
        <ele>286.527393</ele>
        <time>2021-11-09T21:12:40.193Z</time>
      </trkpt>
      <trkpt lat="47.548192" lon="7.928866">
        <ele>287.160763</ele>
        <time>2021-11-09T21:12:52.848Z</time>
      </trkpt>
      <trkpt lat="47.548186" lon="7.928343">
        <ele>287.619706</ele>
        <time>2021-11-09T21:13:00.352Z</time>
      </trkpt>
      <trkpt lat="47.548228" lon="7.928033">
        <ele>288.043718</ele>
        <time>2021-11-09T21:13:04.359Z</time>
      </trkpt>
      <trkpt lat="47.548275" lon="7.927880">
        <ele>288.269146</ele>
        <time>2021-11-09T21:13:06.745Z</time>
      </trkpt>
      <trkpt lat="47.548298" lon="7.927820">
        <ele>288.361679</ele>
        <time>2021-11-09T21:13:08.483Z</time>
      </trkpt>
      <trkpt lat="47.548516" lon="7.927542">
        <ele>288.933150</ele>
        <time>2021-11-09T21:13:14.239Z</time>
      </trkpt>
      <trkpt lat="47.548534" lon="7.927518">
        <ele>288.981262</ele>
        <time>2021-11-09T21:13:14.875Z</time>
      </trkpt>
      <trkpt lat="47.548777" lon="7.927430">
        <ele>289.478269</ele>
        <time>2021-11-09T21:13:20.813Z</time>
      </trkpt>
      <trkpt lat="47.548912" lon="7.927437">
        <ele>289.746651</ele>
        <time>2021-11-09T21:13:24.504Z</time>
      </trkpt>
      <trkpt lat="47.549059" lon="7.927444">
        <ele>290.038862</ele>
        <time>2021-11-09T21:13:28.120Z</time>
      </trkpt>
      <trkpt lat="47.549697" lon="7.927581">
        <ele>291.174999</ele>
        <time>2021-11-09T21:13:43.764Z</time>
      </trkpt>
      <trkpt lat="47.550041" lon="7.927651">
        <ele>291.586144</ele>
        <time>2021-11-09T21:13:51.340Z</time>
      </trkpt>
      <trkpt lat="47.550381" lon="7.927709">
        <ele>291.991389</ele>
        <time>2021-11-09T21:13:58.486Z</time>
      </trkpt>
      <trkpt lat="47.550481" lon="7.927724">
        <ele>292.110402</ele>
        <time>2021-11-09T21:14:00.425Z</time>
      </trkpt>
      <trkpt lat="47.550669" lon="7.927757">
        <ele>292.334565</ele>
        <time>2021-11-09T21:14:03.644Z</time>
      </trkpt>
      <trkpt lat="47.551076" lon="7.927850">
        <ele>292.822180</ele>
        <time>2021-11-09T21:14:10.623Z</time>
      </trkpt>
      <trkpt lat="47.551163" lon="7.927871">
        <ele>292.926553</ele>
        <time>2021-11-09T21:14:12.016Z</time>
      </trkpt>
      <trkpt lat="47.551192" lon="7.927575">
        <ele>293.111788</ele>
        <time>2021-11-09T21:14:15.377Z</time>
      </trkpt>
      <trkpt lat="47.551183" lon="7.927256">
        <ele>293.182152</ele>
        <time>2021-11-09T21:14:18.892Z</time>
      </trkpt>
      <trkpt lat="47.551209" lon="7.927048">
        <ele>293.228772</ele>
        <time>2021-11-09T21:14:21.160Z</time>
      </trkpt>
      <trkpt lat="47.551236" lon="7.926890">
        <ele>293.264691</ele>
        <time>2021-11-09T21:14:23.029Z</time>
      </trkpt>
      <trkpt lat="47.551262" lon="7.926787">
        <ele>293.288926</ele>
        <time>2021-11-09T21:14:24.129Z</time>
      </trkpt>
      <trkpt lat="47.551300" lon="7.926708">
        <ele>293.310306</ele>
        <time>2021-11-09T21:14:25.134Z</time>
      </trkpt>
      <trkpt lat="47.551345" lon="7.926636">
        <ele>293.331932</ele>
        <time>2021-11-09T21:14:26.145Z</time>
      </trkpt>
      <trkpt lat="47.551423" lon="7.926561">
        <ele>293.362295</ele>
        <time>2021-11-09T21:14:27.767Z</time>
      </trkpt>
      <trkpt lat="47.551676" lon="7.926477">
        <ele>293.446955</ele>
        <time>2021-11-09T21:14:31.701Z</time>
      </trkpt>
      <trkpt lat="47.551788" lon="7.926512">
        <ele>293.484331</ele>
        <time>2021-11-09T21:14:33.704Z</time>
      </trkpt>
      <trkpt lat="47.552250" lon="7.926787">
        <ele>293.646907</ele>
        <time>2021-11-09T21:14:41.459Z</time>
      </trkpt>
      <trkpt lat="47.552388" lon="7.926860">
        <ele>293.692249</ele>
        <time>2021-11-09T21:14:43.887Z</time>
      </trkpt>
      <trkpt lat="47.552729" lon="7.927061">
        <ele>293.793489</ele>
        <time>2021-11-09T21:14:49.921Z</time>
      </trkpt>
      <trkpt lat="47.552928" lon="7.927209">
        <ele>293.854913</ele>
        <time>2021-11-09T21:14:53.574Z</time>
      </trkpt>
      <trkpt lat="47.553166" lon="7.927389">
        <ele>293.928627</ele>
        <time>2021-11-09T21:14:58.156Z</time>
      </trkpt>
      <trkpt lat="47.553221" lon="7.927438">
        <ele>293.946331</ele>
        <time>2021-11-09T21:14:59.111Z</time>
      </trkpt>
      <trkpt lat="47.553257" lon="7.927322">
        <ele>293.970102</ele>
        <time>2021-11-09T21:15:00.559Z</time>
      </trkpt>
      <trkpt lat="47.553294" lon="7.927186">
        <ele>293.997402</ele>
        <time>2021-11-09T21:15:02.197Z</time>
      </trkpt>
      <trkpt lat="47.553381" lon="7.926895">
        <ele>294.056659</ele>
        <time>2021-11-09T21:15:05.530Z</time>
      </trkpt>
      <trkpt lat="47.553408" lon="7.926803">
        <ele>294.075337</ele>
        <time>2021-11-09T21:15:06.645Z</time>
      </trkpt>
      <trkpt lat="47.553539" lon="7.926451">
        <ele>294.150176</ele>
        <time>2021-11-09T21:15:10.772Z</time>
      </trkpt>
      <trkpt lat="47.553834" lon="7.925632">
        <ele>294.127804</ele>
        <time>2021-11-09T21:15:19.912Z</time>
      </trkpt>
      <trkpt lat="47.554226" lon="7.924713">
        <ele>294.063639</ele>
        <time>2021-11-09T21:15:30.430Z</time>
      </trkpt>
      <trkpt lat="47.554705" lon="7.923835">
        <ele>293.977172</ele>
        <time>2021-11-09T21:15:41.255Z</time>
      </trkpt>
      <trkpt lat="47.555272" lon="7.922934">
        <ele>293.834096</ele>
        <time>2021-11-09T21:15:52.862Z</time>
      </trkpt>
      <trkpt lat="47.556542" lon="7.921551">
        <ele>293.639378</ele>
        <time>2021-11-09T21:16:15.575Z</time>
      </trkpt>
      <trkpt lat="47.557147" lon="7.921064">
        <ele>293.583369</ele>
        <time>2021-11-09T21:16:25.739Z</time>
      </trkpt>
      <trkpt lat="47.558098" lon="7.920440">
        <ele>293.295637</ele>
        <time>2021-11-09T21:16:40.928Z</time>
      </trkpt>
      <trkpt lat="47.561244" lon="7.918902">
        <ele>291.309824</ele>
        <time>2021-11-09T21:17:24.370Z</time>
      </trkpt>
      <trkpt lat="47.561405" lon="7.918835">
        <ele>291.103624</ele>
        <time>2021-11-09T21:17:26.281Z</time>
      </trkpt>
      <trkpt lat="47.561792" lon="7.918633">
        <ele>290.597699</ele>
        <time>2021-11-09T21:17:30.967Z</time>
      </trkpt>
      <trkpt lat="47.562098" lon="7.918473">
        <ele>290.197587</ele>
        <time>2021-11-09T21:17:34.701Z</time>
      </trkpt>
      <trkpt lat="47.562192" lon="7.918413">
        <ele>290.071386</ele>
        <time>2021-11-09T21:17:35.858Z</time>
      </trkpt>
      <trkpt lat="47.562330" lon="7.918325">
        <ele>289.886141</ele>
        <time>2021-11-09T21:17:37.613Z</time>
      </trkpt>
      <trkpt lat="47.562491" lon="7.918206">
        <ele>289.676387</ele>
        <time>2021-11-09T21:17:39.651Z</time>
      </trkpt>
      <trkpt lat="47.562766" lon="7.918001">
        <ele>289.448962</ele>
        <time>2021-11-09T21:17:43.235Z</time>
      </trkpt>
      <trkpt lat="47.562783" lon="7.917983">
        <ele>289.433526</ele>
        <time>2021-11-09T21:17:43.454Z</time>
      </trkpt>
      <trkpt lat="47.563304" lon="7.917434">
        <ele>288.961228</ele>
        <time>2021-11-09T21:17:51.198Z</time>
      </trkpt>
      <trkpt lat="47.563485" lon="7.917258">
        <ele>288.801290</ele>
        <time>2021-11-09T21:17:54.052Z</time>
      </trkpt>
      <trkpt lat="47.564482" lon="7.916219">
        <ele>288.477035</ele>
        <time>2021-11-09T21:18:12.433Z</time>
      </trkpt>
      <trkpt lat="47.564500" lon="7.916200">
        <ele>288.480948</ele>
        <time>2021-11-09T21:18:12.788Z</time>
      </trkpt>
      <trkpt lat="47.564526" lon="7.916174">
        <ele>288.486503</ele>
        <time>2021-11-09T21:18:13.275Z</time>
      </trkpt>
      <trkpt lat="47.564899" lon="7.915798">
        <ele>288.566389</ele>
        <time>2021-11-09T21:18:20.467Z</time>
      </trkpt>
      <trkpt lat="47.565627" lon="7.915066">
        <ele>288.669047</ele>
        <time>2021-11-09T21:18:34.360Z</time>
      </trkpt>
      <trkpt lat="47.565672" lon="7.915025">
        <ele>288.665334</ele>
        <time>2021-11-09T21:18:35.197Z</time>
      </trkpt>
      <trkpt lat="47.565748" lon="7.914949">
        <ele>288.658890</ele>
        <time>2021-11-09T21:18:36.653Z</time>
      </trkpt>
      <trkpt lat="47.565830" lon="7.914880">
        <ele>288.652263</ele>
        <time>2021-11-09T21:18:38.159Z</time>
      </trkpt>
      <trkpt lat="47.565995" lon="7.914739">
        <ele>288.638876</ele>
        <time>2021-11-09T21:18:41.085Z</time>
      </trkpt>
      <trkpt lat="47.566025" lon="7.914720">
        <ele>288.636583</ele>
        <time>2021-11-09T21:18:41.514Z</time>
      </trkpt>
      <trkpt lat="47.566096" lon="7.914676">
        <ele>288.631174</ele>
        <time>2021-11-09T21:18:42.696Z</time>
      </trkpt>
      <trkpt lat="47.566250" lon="7.914580">
        <ele>288.619431</ele>
        <time>2021-11-09T21:18:45.216Z</time>
      </trkpt>
      <trkpt lat="47.566474" lon="7.914468">
        <ele>288.602815</ele>
        <time>2021-11-09T21:18:48.527Z</time>
      </trkpt>
      <trkpt lat="47.566489" lon="7.914461">
        <ele>288.601710</ele>
        <time>2021-11-09T21:18:48.767Z</time>
      </trkpt>
      <trkpt lat="47.566534" lon="7.914439">
        <ele>288.598380</ele>
        <time>2021-11-09T21:18:49.443Z</time>
      </trkpt>
      <trkpt lat="47.566601" lon="7.914411">
        <ele>288.593487</ele>
        <time>2021-11-09T21:18:50.458Z</time>
      </trkpt>
      <trkpt lat="47.566984" lon="7.914229">
        <ele>288.565217</ele>
        <time>2021-11-09T21:18:55.992Z</time>
      </trkpt>
      <trkpt lat="47.567335" lon="7.914048">
        <ele>288.433072</ele>
        <time>2021-11-09T21:19:00.923Z</time>
      </trkpt>
      <trkpt lat="47.567374" lon="7.914028">
        <ele>288.413663</ele>
        <time>2021-11-09T21:19:01.402Z</time>
      </trkpt>
      <trkpt lat="47.568301" lon="7.913554">
        <ele>287.952454</ele>
        <time>2021-11-09T21:19:14.404Z</time>
      </trkpt>
      <trkpt lat="47.568566" lon="7.913414">
        <ele>287.820137</ele>
        <time>2021-11-09T21:19:18.110Z</time>
      </trkpt>
      <trkpt lat="47.569155" lon="7.913298">
        <ele>287.706313</ele>
        <time>2021-11-09T21:19:26.150Z</time>
      </trkpt>
      <trkpt lat="47.569682" lon="7.913220">
        <ele>287.698356</ele>
        <time>2021-11-09T21:19:33.720Z</time>
      </trkpt>
      <trkpt lat="47.571638" lon="7.913041">
        <ele>287.698652</ele>
        <time>2021-11-09T21:20:04.297Z</time>
      </trkpt>
      <trkpt lat="47.571807" lon="7.913030">
        <ele>287.700882</ele>
        <time>2021-11-09T21:20:06.948Z</time>
      </trkpt>
      <trkpt lat="47.571801" lon="7.912878">
        <ele>287.702236</ele>
        <time>2021-11-09T21:20:08.466Z</time>
      </trkpt>
      <trkpt lat="47.571815" lon="7.912822">
        <ele>287.702767</ele>
        <time>2021-11-09T21:20:09.054Z</time>
      </trkpt>
      <trkpt lat="47.571842" lon="7.912780">
        <ele>287.703282</ele>
        <time>2021-11-09T21:20:09.535Z</time>
      </trkpt>
      <trkpt lat="47.572195" lon="7.912650">
        <ele>287.708076</ele>
        <time>2021-11-09T21:20:14.704Z</time>
      </trkpt>
      <trkpt lat="47.572843" lon="7.912399">
        <ele>287.314592</ele>
        <time>2021-11-09T21:20:23.757Z</time>
      </trkpt>
      <trkpt lat="47.572921" lon="7.912369">
        <ele>287.265050</ele>
        <time>2021-11-09T21:20:24.713Z</time>
      </trkpt>
      <trkpt lat="47.573759" lon="7.912034">
        <ele>286.731452</ele>
        <time>2021-11-09T21:20:35.715Z</time>
      </trkpt>
      <trkpt lat="47.573998" lon="7.911915">
        <ele>286.578317</ele>
        <time>2021-11-09T21:20:38.832Z</time>
      </trkpt>
      <trkpt lat="47.574566" lon="7.911447">
        <ele>286.207229</ele>
        <time>2021-11-09T21:20:47.156Z</time>
      </trkpt>
      <trkpt lat="47.574901" lon="7.911251">
        <ele>286.001570</ele>
        <time>2021-11-09T21:20:51.842Z</time>
      </trkpt>
      <trkpt lat="47.575508" lon="7.910912">
        <ele>285.631166</ele>
        <time>2021-11-09T21:21:00.470Z</time>
      </trkpt>
      <trkpt lat="47.575539" lon="7.910898">
        <ele>285.612661</ele>
        <time>2021-11-09T21:21:00.981Z</time>
      </trkpt>
      <trkpt lat="47.575854" lon="7.910743">
        <ele>285.571081</ele>
        <time>2021-11-09T21:21:05.486Z</time>
      </trkpt>
      <trkpt lat="47.576932" lon="7.910134">
        <ele>285.551588</ele>
        <time>2021-11-09T21:21:22.472Z</time>
      </trkpt>
      <trkpt lat="47.577424" lon="7.909886">
        <ele>285.617478</ele>
        <time>2021-11-09T21:21:30.627Z</time>
      </trkpt>
      <trkpt lat="47.577771" lon="7.909710">
        <ele>285.804623</ele>
        <time>2021-11-09T21:21:36.719Z</time>
      </trkpt>
      <trkpt lat="47.578895" lon="7.909087">
        <ele>286.416957</ele>
        <time>2021-11-09T21:21:57.409Z</time>
      </trkpt>
      <trkpt lat="47.579056" lon="7.908962">
        <ele>286.458427</ele>
        <time>2021-11-09T21:22:00.874Z</time>
      </trkpt>
      <trkpt lat="47.579708" lon="7.908314">
        <ele>286.419107</ele>
        <time>2021-11-09T21:22:13.787Z</time>
      </trkpt>
      <trkpt lat="47.580105" lon="7.908168">
        <ele>286.398617</ele>
        <time>2021-11-09T21:22:19.536Z</time>
      </trkpt>
      <trkpt lat="47.580194" lon="7.908192">
        <ele>286.394086</ele>
        <time>2021-11-09T21:22:20.701Z</time>
      </trkpt>
      <trkpt lat="47.580422" lon="7.908273">
        <ele>286.382342</ele>
        <time>2021-11-09T21:22:23.830Z</time>
      </trkpt>
      <trkpt lat="47.580470" lon="7.908164">
        <ele>286.377943</ele>
        <time>2021-11-09T21:22:24.819Z</time>
      </trkpt>
      <trkpt lat="47.580552" lon="7.908081">
        <ele>286.372969</ele>
        <time>2021-11-09T21:22:26.186Z</time>
      </trkpt>
      <trkpt lat="47.581568" lon="7.907612">
        <ele>285.242308</ele>
        <time>2021-11-09T21:22:39.044Z</time>
      </trkpt>
      <trkpt lat="47.581793" lon="7.907472">
        <ele>284.982771</ele>
        <time>2021-11-09T21:22:41.816Z</time>
      </trkpt>
      <trkpt lat="47.582248" lon="7.907090">
        <ele>284.472622</ele>
        <time>2021-11-09T21:22:48.029Z</time>
      </trkpt>
      <trkpt lat="47.582657" lon="7.906618">
        <ele>284.684470</ele>
        <time>2021-11-09T21:22:54.662Z</time>
      </trkpt>
      <trkpt lat="47.582951" lon="7.906415">
        <ele>284.817030</ele>
        <time>2021-11-09T21:22:59.590Z</time>
      </trkpt>
      <trkpt lat="47.583077" lon="7.906399">
        <ele>284.868718</ele>
        <time>2021-11-09T21:23:01.469Z</time>
      </trkpt>
      <trkpt lat="47.583245" lon="7.906443">
        <ele>284.938448</ele>
        <time>2021-11-09T21:23:04.883Z</time>
      </trkpt>
      <trkpt lat="47.583451" lon="7.906619">
        <ele>285.035626</ele>
        <time>2021-11-09T21:23:09.424Z</time>
      </trkpt>
      <trkpt lat="47.583711" lon="7.906911">
        <ele>285.168945</ele>
        <time>2021-11-09T21:23:16.166Z</time>
      </trkpt>
      <trkpt lat="47.583887" lon="7.907113">
        <ele>285.593630</ele>
        <time>2021-11-09T21:23:21.149Z</time>
      </trkpt>
      <trkpt lat="47.584719" lon="7.908091">
        <ele>288.258672</ele>
        <time>2021-11-09T21:23:46.771Z</time>
      </trkpt>
      <trkpt lat="47.585084" lon="7.908692">
        <ele>289.627818</ele>
        <time>2021-11-09T21:24:01.458Z</time>
      </trkpt>
      <trkpt lat="47.585149" lon="7.908804">
        <ele>289.978783</ele>
        <time>2021-11-09T21:24:04.413Z</time>
      </trkpt>
      <trkpt lat="47.585222" lon="7.908901">
        <ele>290.372135</ele>
        <time>2021-11-09T21:24:07.575Z</time>
      </trkpt>
      <trkpt lat="47.585337" lon="7.909031">
        <ele>290.952421</ele>
        <time>2021-11-09T21:24:11.754Z</time>
      </trkpt>
      <trkpt lat="47.585078" lon="7.909509">
        <ele>292.611866</ele>
        <time>2021-11-09T21:24:23.793Z</time>
      </trkpt>
      <trkpt lat="47.585045" lon="7.909674">
        <ele>293.077657</ele>
        <time>2021-11-09T21:24:27.205Z</time>
      </trkpt>
      <trkpt lat="47.585051" lon="7.909751">
        <ele>293.287443</ele>
        <time>2021-11-09T21:24:29.062Z</time>
      </trkpt>
      <trkpt lat="47.585066" lon="7.909809">
        <ele>293.455564</ele>
        <time>2021-11-09T21:24:30.342Z</time>
      </trkpt>
      <trkpt lat="47.585093" lon="7.909869">
        <ele>293.650777</ele>
        <time>2021-11-09T21:24:31.674Z</time>
      </trkpt>
      <trkpt lat="47.585157" lon="7.909965">
        <ele>294.016098</ele>
        <time>2021-11-09T21:24:34.051Z</time>
      </trkpt>
      <trkpt lat="47.585271" lon="7.910136">
        <ele>294.666824</ele>
        <time>2021-11-09T21:24:39.022Z</time>
      </trkpt>
      <trkpt lat="47.585430" lon="7.910346">
        <ele>295.521277</ele>
        <time>2021-11-09T21:24:45.944Z</time>
      </trkpt>
      <trkpt lat="47.585610" lon="7.910640">
        <ele>296.595905</ele>
        <time>2021-11-09T21:24:55.573Z</time>
      </trkpt>
      <trkpt lat="47.586028" lon="7.911561">
        <ele>299.544759</ele>
        <time>2021-11-09T21:25:21.653Z</time>
      </trkpt>
      <trkpt lat="47.586263" lon="7.911881">
        <ele>300.798478</ele>
        <time>2021-11-09T21:25:31.909Z</time>
      </trkpt>
      <trkpt lat="47.586433" lon="7.912047">
        <ele>301.598303</ele>
        <time>2021-11-09T21:25:38.487Z</time>
      </trkpt>
      <trkpt lat="47.586622" lon="7.912140">
        <ele>302.380757</ele>
        <time>2021-11-09T21:25:44.209Z</time>
      </trkpt>
      <trkpt lat="47.586917" lon="7.912301">
        <ele>303.615914</ele>
        <time>2021-11-09T21:25:52.066Z</time>
      </trkpt>
      <trkpt lat="47.587725" lon="7.912508">
        <ele>304.792656</ele>
        <time>2021-11-09T21:26:10.760Z</time>
      </trkpt>
      <trkpt lat="47.587897" lon="7.912517">
        <ele>304.982557</ele>
        <time>2021-11-09T21:26:14.317Z</time>
      </trkpt>
      <trkpt lat="47.588907" lon="7.912607">
        <ele>306.013431</ele>
        <time>2021-11-09T21:26:29.774Z</time>
      </trkpt>
      <trkpt lat="47.589326" lon="7.912720">
        <ele>306.149071</ele>
        <time>2021-11-09T21:26:36.113Z</time>
      </trkpt>
      <trkpt lat="47.589873" lon="7.912855">
        <ele>306.325685</ele>
        <time>2021-11-09T21:26:44.613Z</time>
      </trkpt>
      <trkpt lat="47.590231" lon="7.912830">
        <ele>306.439833</ele>
        <time>2021-11-09T21:26:50.337Z</time>
      </trkpt>
      <trkpt lat="47.590570" lon="7.912784">
        <ele>306.548255</ele>
        <time>2021-11-09T21:26:56.458Z</time>
      </trkpt>
      <trkpt lat="47.591044" lon="7.912710">
        <ele>307.074073</ele>
        <time>2021-11-09T21:27:05.531Z</time>
      </trkpt>
      <trkpt lat="47.591348" lon="7.912662">
        <ele>307.416712</ele>
        <time>2021-11-09T21:27:11.612Z</time>
      </trkpt>
      <trkpt lat="47.591443" lon="7.912678">
        <ele>307.523870</ele>
        <time>2021-11-09T21:27:13.191Z</time>
      </trkpt>
      <trkpt lat="47.591605" lon="7.912829">
        <ele>307.738328</ele>
        <time>2021-11-09T21:27:17.435Z</time>
      </trkpt>
      <trkpt lat="47.591714" lon="7.913064">
        <ele>307.953908</ele>
        <time>2021-11-09T21:27:20.741Z</time>
      </trkpt>
      <trkpt lat="47.591721" lon="7.913096">
        <ele>307.979336</ele>
        <time>2021-11-09T21:27:21.127Z</time>
      </trkpt>
      <trkpt lat="47.591746" lon="7.913330">
        <ele>308.158412</ele>
        <time>2021-11-09T21:27:24.852Z</time>
      </trkpt>
      <trkpt lat="47.591809" lon="7.913704">
        <ele>308.449786</ele>
        <time>2021-11-09T21:27:29.070Z</time>
      </trkpt>
      <trkpt lat="47.591858" lon="7.913783">
        <ele>308.530912</ele>
        <time>2021-11-09T21:27:30.982Z</time>
      </trkpt>
      <trkpt lat="47.591953" lon="7.913843">
        <ele>308.695838</ele>
        <time>2021-11-09T21:27:32.979Z</time>
      </trkpt>
      <trkpt lat="47.592496" lon="7.914014">
        <ele>309.704411</ele>
        <time>2021-11-09T21:27:43.934Z</time>
      </trkpt>
      <trkpt lat="47.592589" lon="7.914035">
        <ele>309.875330</ele>
        <time>2021-11-09T21:27:46.955Z</time>
      </trkpt>
      <trkpt lat="47.592672" lon="7.914009">
        <ele>310.029459</ele>
        <time>2021-11-09T21:27:48.617Z</time>
      </trkpt>
      <trkpt lat="47.592807" lon="7.913929">
        <ele>310.293601</ele>
        <time>2021-11-09T21:27:51.080Z</time>
      </trkpt>
      <trkpt lat="47.593189" lon="7.913725">
        <ele>311.031290</ele>
        <time>2021-11-09T21:28:00.523Z</time>
      </trkpt>
      <trkpt lat="47.593511" lon="7.913649">
        <ele>311.623692</ele>
        <time>2021-11-09T21:28:08.457Z</time>
      </trkpt>
      <trkpt lat="47.593654" lon="7.913672">
        <ele>311.896321</ele>
        <time>2021-11-09T21:28:12.201Z</time>
      </trkpt>
      <trkpt lat="47.594163" lon="7.913924">
        <ele>313.092916</ele>
        <time>2021-11-09T21:28:25.356Z</time>
      </trkpt>
      <trkpt lat="47.594719" lon="7.914022">
        <ele>314.341451</ele>
        <time>2021-11-09T21:28:39.199Z</time>
      </trkpt>
      <trkpt lat="47.594871" lon="7.914141">
        <ele>314.724730</ele>
        <time>2021-11-09T21:28:43.176Z</time>
      </trkpt>
      <trkpt lat="47.595031" lon="7.914316">
        <ele>315.168061</ele>
        <time>2021-11-09T21:28:48.050Z</time>
      </trkpt>
      <trkpt lat="47.595292" lon="7.914664">
        <ele>315.905939</ele>
        <time>2021-11-09T21:28:55.677Z</time>
      </trkpt>
      <trkpt lat="47.595476" lon="7.914889">
        <ele>316.210087</ele>
        <time>2021-11-09T21:29:00.763Z</time>
      </trkpt>
      <trkpt lat="47.595688" lon="7.915084">
        <ele>316.528239</ele>
        <time>2021-11-09T21:29:06.196Z</time>
      </trkpt>
      <trkpt lat="47.595861" lon="7.915155">
        <ele>316.757159</ele>
        <time>2021-11-09T21:29:09.716Z</time>
      </trkpt>
      <trkpt lat="47.595909" lon="7.915188">
        <ele>316.824633</ele>
        <time>2021-11-09T21:29:10.799Z</time>
      </trkpt>
      <trkpt lat="47.595949" lon="7.915202">
        <ele>316.877046</ele>
        <time>2021-11-09T21:29:11.731Z</time>
      </trkpt>
      <trkpt lat="47.596117" lon="7.915243">
        <ele>317.094179</ele>
        <time>2021-11-09T21:29:15.326Z</time>
      </trkpt>
      <trkpt lat="47.596349" lon="7.915301">
        <ele>317.394223</ele>
        <time>2021-11-09T21:29:19.757Z</time>
      </trkpt>
      <trkpt lat="47.596736" lon="7.915598">
        <ele>317.949940</ele>
        <time>2021-11-09T21:29:27.595Z</time>
      </trkpt>
      <trkpt lat="47.596850" lon="7.915674">
        <ele>318.109340</ele>
        <time>2021-11-09T21:29:29.584Z</time>
      </trkpt>
      <trkpt lat="47.597083" lon="7.915733">
        <ele>318.367115</ele>
        <time>2021-11-09T21:29:33.716Z</time>
      </trkpt>
      <trkpt lat="47.597656" lon="7.915778">
        <ele>318.980910</ele>
        <time>2021-11-09T21:29:43.890Z</time>
      </trkpt>
      <trkpt lat="47.599120" lon="7.915596">
        <ele>320.464196</ele>
        <time>2021-11-09T21:30:13.861Z</time>
      </trkpt>
      <trkpt lat="47.599374" lon="7.915625">
        <ele>320.687480</ele>
        <time>2021-11-09T21:30:18.573Z</time>
      </trkpt>
      <trkpt lat="47.599906" lon="7.915798">
        <ele>321.164844</ele>
        <time>2021-11-09T21:30:28.399Z</time>
      </trkpt>
      <trkpt lat="47.600078" lon="7.915859">
        <ele>321.319849</ele>
        <time>2021-11-09T21:30:31.463Z</time>
      </trkpt>
      <trkpt lat="47.600344" lon="7.915900">
        <ele>321.554248</ele>
        <time>2021-11-09T21:30:35.954Z</time>
      </trkpt>
      <trkpt lat="47.600545" lon="7.915898">
        <ele>321.680727</ele>
        <time>2021-11-09T21:30:39.419Z</time>
      </trkpt>
      <trkpt lat="47.600689" lon="7.915853">
        <ele>321.738522</ele>
        <time>2021-11-09T21:30:41.748Z</time>
      </trkpt>
      <trkpt lat="47.601054" lon="7.915633">
        <ele>321.893254</ele>
        <time>2021-11-09T21:30:48.165Z</time>
      </trkpt>
      <trkpt lat="47.601546" lon="7.915285">
        <ele>322.107327</ele>
        <time>2021-11-09T21:30:56.570Z</time>
      </trkpt>
      <trkpt lat="47.602131" lon="7.915025">
        <ele>322.348012</ele>
        <time>2021-11-09T21:31:06.254Z</time>
      </trkpt>
      <trkpt lat="47.602754" lon="7.914823">
        <ele>323.116111</ele>
        <time>2021-11-09T21:31:18.074Z</time>
      </trkpt>
      <trkpt lat="47.603302" lon="7.914722">
        <ele>323.781230</ele>
        <time>2021-11-09T21:31:29.211Z</time>
      </trkpt>
      <trkpt lat="47.603466" lon="7.914620">
        <ele>323.995426</ele>
        <time>2021-11-09T21:31:33.126Z</time>
      </trkpt>
      <trkpt lat="47.603615" lon="7.914449">
        <ele>324.222346</ele>
        <time>2021-11-09T21:31:37.076Z</time>
      </trkpt>
      <trkpt lat="47.603884" lon="7.914671">
        <ele>324.611623</ele>
        <time>2021-11-09T21:31:43.787Z</time>
      </trkpt>
      <trkpt lat="47.604062" lon="7.914772">
        <ele>324.894254</ele>
        <time>2021-11-09T21:31:47.987Z</time>
      </trkpt>
      <trkpt lat="47.604393" lon="7.914885">
        <ele>325.397960</ele>
        <time>2021-11-09T21:31:54.995Z</time>
      </trkpt>
      <trkpt lat="47.604722" lon="7.914915">
        <ele>325.886784</ele>
        <time>2021-11-09T21:32:01.629Z</time>
      </trkpt>
      <trkpt lat="47.605105" lon="7.914869">
        <ele>326.456628</ele>
        <time>2021-11-09T21:32:09.529Z</time>
      </trkpt>
      <trkpt lat="47.605408" lon="7.914750">
        <ele>326.921461</ele>
        <time>2021-11-09T21:32:16.194Z</time>
      </trkpt>
      <trkpt lat="47.605648" lon="7.914613">
        <ele>327.276083</ele>
        <time>2021-11-09T21:32:21.561Z</time>
      </trkpt>
      <trkpt lat="47.605929" lon="7.914457">
        <ele>327.623744</ele>
        <time>2021-11-09T21:32:27.477Z</time>
      </trkpt>
      <trkpt lat="47.606200" lon="7.914255">
        <ele>327.975181</ele>
        <time>2021-11-09T21:32:33.298Z</time>
      </trkpt>
      <trkpt lat="47.606450" lon="7.914067">
        <ele>328.299966</ele>
        <time>2021-11-09T21:32:38.590Z</time>
      </trkpt>
      <trkpt lat="47.606558" lon="7.913988">
        <ele>328.439499</ele>
        <time>2021-11-09T21:32:40.827Z</time>
      </trkpt>
      <trkpt lat="47.606706" lon="7.913869">
        <ele>328.634568</ele>
        <time>2021-11-09T21:32:43.999Z</time>
      </trkpt>
      <trkpt lat="47.606938" lon="7.913697">
        <ele>328.935102</ele>
        <time>2021-11-09T21:32:48.863Z</time>
      </trkpt>
      <trkpt lat="47.607292" lon="7.913435">
        <ele>329.419326</ele>
        <time>2021-11-09T21:32:56.498Z</time>
      </trkpt>
      <trkpt lat="47.607663" lon="7.913198">
        <ele>329.981103</ele>
        <time>2021-11-09T21:33:04.741Z</time>
      </trkpt>
      <trkpt lat="47.607983" lon="7.913042">
        <ele>330.449556</ele>
        <time>2021-11-09T21:33:11.867Z</time>
      </trkpt>
      <trkpt lat="47.608679" lon="7.912703">
        <ele>331.468350</ele>
        <time>2021-11-09T21:33:26.896Z</time>
      </trkpt>
      <trkpt lat="47.609914" lon="7.912278">
        <ele>333.102975</ele>
        <time>2021-11-09T21:33:52.789Z</time>
      </trkpt>
      <trkpt lat="47.610416" lon="7.911983">
        <ele>333.788045</ele>
        <time>2021-11-09T21:34:03.995Z</time>
      </trkpt>
      <trkpt lat="47.611260" lon="7.911383">
        <ele>334.147022</ele>
        <time>2021-11-09T21:34:20.638Z</time>
      </trkpt>
      <trkpt lat="47.612029" lon="7.910940">
        <ele>334.258706</ele>
        <time>2021-11-09T21:34:32.114Z</time>
      </trkpt>
      <trkpt lat="47.612005" lon="7.910790">
        <ele>334.272777</ele>
        <time>2021-11-09T21:34:33.410Z</time>
      </trkpt>
      <trkpt lat="47.611994" lon="7.910676">
        <ele>334.283287</ele>
        <time>2021-11-09T21:34:34.479Z</time>
      </trkpt>
      <trkpt lat="47.611988" lon="7.910610">
        <ele>334.289366</ele>
        <time>2021-11-09T21:34:34.993Z</time>
      </trkpt>
      <trkpt lat="47.611981" lon="7.910534">
        <ele>334.254568</ele>
        <time>2021-11-09T21:34:35.631Z</time>
      </trkpt>
      <trkpt lat="47.611986" lon="7.910466">
        <ele>334.206476</ele>
        <time>2021-11-09T21:34:36.391Z</time>
      </trkpt>
      <trkpt lat="47.612020" lon="7.910364">
        <ele>334.126477</ele>
        <time>2021-11-09T21:34:37.410Z</time>
      </trkpt>
      <trkpt lat="47.612082" lon="7.910269">
        <ele>334.033515</ele>
        <time>2021-11-09T21:34:38.565Z</time>
      </trkpt>
      <trkpt lat="47.612131" lon="7.910214">
        <ele>333.969432</ele>
        <time>2021-11-09T21:34:39.353Z</time>
      </trkpt>
      <trkpt lat="47.612216" lon="7.910134">
        <ele>333.864448</ele>
        <time>2021-11-09T21:34:40.590Z</time>
      </trkpt>
      <trkpt lat="47.612897" lon="7.909812">
        <ele>333.119032</ele>
        <time>2021-11-09T21:34:49.532Z</time>
      </trkpt>
      <trkpt lat="47.613280" lon="7.909624">
        <ele>332.698304</ele>
        <time>2021-11-09T21:34:54.121Z</time>
      </trkpt>
      <trkpt lat="47.613360" lon="7.909602">
        <ele>332.613451</ele>
        <time>2021-11-09T21:34:55.056Z</time>
      </trkpt>
      <trkpt lat="47.613934" lon="7.909339">
        <ele>332.119081</ele>
        <time>2021-11-09T21:35:01.891Z</time>
      </trkpt>
      <trkpt lat="47.614063" lon="7.909285">
        <ele>332.022371</ele>
        <time>2021-11-09T21:35:03.506Z</time>
      </trkpt>
      <trkpt lat="47.614412" lon="7.909095">
        <ele>331.754142</ele>
        <time>2021-11-09T21:35:08.030Z</time>
      </trkpt>
      <trkpt lat="47.614784" lon="7.908839">
        <ele>331.458265</ele>
        <time>2021-11-09T21:35:13.239Z</time>
      </trkpt>
      <trkpt lat="47.614876" lon="7.908760">
        <ele>331.381567</ele>
        <time>2021-11-09T21:35:15.128Z</time>
      </trkpt>
      <trkpt lat="47.615085" lon="7.908567">
        <ele>331.203940</ele>
        <time>2021-11-09T21:35:18.649Z</time>
      </trkpt>
      <trkpt lat="47.615246" lon="7.908385">
        <ele>331.242949</ele>
        <time>2021-11-09T21:35:22.371Z</time>
      </trkpt>
      <trkpt lat="47.615374" lon="7.908222">
        <ele>331.495758</ele>
        <time>2021-11-09T21:35:24.568Z</time>
      </trkpt>
      <trkpt lat="47.615460" lon="7.908111">
        <ele>331.666594</ele>
        <time>2021-11-09T21:35:26.815Z</time>
      </trkpt>
      <trkpt lat="47.615669" lon="7.907870">
        <ele>332.063303</ele>
        <time>2021-11-09T21:35:31.245Z</time>
      </trkpt>
      <trkpt lat="47.615821" lon="7.907747">
        <ele>332.322781</ele>
        <time>2021-11-09T21:35:35.234Z</time>
      </trkpt>
      <trkpt lat="47.615946" lon="7.907692">
        <ele>332.518176</ele>
        <time>2021-11-09T21:35:37.261Z</time>
      </trkpt>
      <trkpt lat="47.616009" lon="7.907686">
        <ele>332.612784</ele>
        <time>2021-11-09T21:35:38.527Z</time>
      </trkpt>
      <trkpt lat="47.616028" lon="7.907466">
        <ele>332.836848</ele>
        <time>2021-11-09T21:35:43.242Z</time>
      </trkpt>
      <trkpt lat="47.616300" lon="7.907066">
        <ele>333.410822</ele>
        <time>2021-11-09T21:35:54.463Z</time>
      </trkpt>
      <trkpt lat="47.616299" lon="7.907061">
        <ele>333.416091</ele>
        <time>2021-11-09T21:35:54.622Z</time>
      </trkpt>
      <trkpt lat="47.616264" lon="7.906797">
        <ele>333.687896</ele>
        <time>2021-11-09T21:35:59.828Z</time>
      </trkpt>
      <trkpt lat="47.615998" lon="7.906103">
        <ele>334.909340</ele>
        <time>2021-11-09T21:36:17.414Z</time>
      </trkpt>
      <trkpt lat="47.615921" lon="7.905895">
        <ele>335.295166</ele>
        <time>2021-11-09T21:36:21.879Z</time>
      </trkpt>
      <trkpt lat="47.615868" lon="7.905596">
        <ele>335.797835</ele>
        <time>2021-11-09T21:36:29.034Z</time>
      </trkpt>
      <trkpt lat="47.615863" lon="7.905569">
        <ele>335.843360</ele>
        <time>2021-11-09T21:36:29.573Z</time>
      </trkpt>
      <trkpt lat="47.615837" lon="7.905247">
        <ele>336.370641</ele>
        <time>2021-11-09T21:36:35.918Z</time>
      </trkpt>
      <trkpt lat="47.615830" lon="7.904995">
        <ele>336.780715</ele>
        <time>2021-11-09T21:36:40.985Z</time>
      </trkpt>
      <trkpt lat="47.615823" lon="7.904763">
        <ele>337.158300</ele>
        <time>2021-11-09T21:36:45.479Z</time>
      </trkpt>
      <trkpt lat="47.615838" lon="7.903983">
        <ele>338.331207</ele>
        <time>2021-11-09T21:37:00.400Z</time>
      </trkpt>
      <trkpt lat="47.615894" lon="7.903663">
        <ele>338.681626</ele>
        <time>2021-11-09T21:37:06.199Z</time>
      </trkpt>
      <trkpt lat="47.615971" lon="7.903390">
        <ele>338.995293</ele>
        <time>2021-11-09T21:37:11.337Z</time>
      </trkpt>
      <trkpt lat="47.616102" lon="7.903098">
        <ele>339.367067</ele>
        <time>2021-11-09T21:37:17.736Z</time>
      </trkpt>
      <trkpt lat="47.616384" lon="7.902765">
        <ele>339.933797</ele>
        <time>2021-11-09T21:37:27.250Z</time>
      </trkpt>
      <trkpt lat="47.616593" lon="7.902555">
        <ele>340.330705</ele>
        <time>2021-11-09T21:37:33.464Z</time>
      </trkpt>
      <trkpt lat="47.616785" lon="7.902357">
        <ele>340.698376</ele>
        <time>2021-11-09T21:37:39.690Z</time>
      </trkpt>
      <trkpt lat="47.616907" lon="7.902260">
        <ele>340.916018</ele>
        <time>2021-11-09T21:37:43.426Z</time>
      </trkpt>
      <trkpt lat="47.617017" lon="7.902172">
        <ele>341.109906</ele>
        <time>2021-11-09T21:37:46.790Z</time>
      </trkpt>
      <trkpt lat="47.617152" lon="7.902073">
        <ele>341.342021</ele>
        <time>2021-11-09T21:37:50.786Z</time>
      </trkpt>
      <trkpt lat="47.617289" lon="7.902010">
        <ele>341.563096</ele>
        <time>2021-11-09T21:37:54.737Z</time>
      </trkpt>
      <trkpt lat="47.617757" lon="7.901936">
        <ele>342.288524</ele>
        <time>2021-11-09T21:38:06.415Z</time>
      </trkpt>
      <trkpt lat="47.618007" lon="7.901707">
        <ele>342.741392</ele>
        <time>2021-11-09T21:38:13.981Z</time>
      </trkpt>
      <trkpt lat="47.618101" lon="7.901636">
        <ele>342.903975</ele>
        <time>2021-11-09T21:38:16.670Z</time>
      </trkpt>
      <trkpt lat="47.618288" lon="7.901533">
        <ele>343.211429</ele>
        <time>2021-11-09T21:38:22.094Z</time>
      </trkpt>
      <trkpt lat="47.619328" lon="7.901344">
        <ele>344.912361</ele>
        <time>2021-11-09T21:38:51.014Z</time>
      </trkpt>
      <trkpt lat="47.619614" lon="7.901292">
        <ele>345.392022</ele>
        <time>2021-11-09T21:38:59.106Z</time>
      </trkpt>
      <trkpt lat="47.619888" lon="7.901390">
        <ele>345.861212</ele>
        <time>2021-11-09T21:39:06.356Z</time>
      </trkpt>
      <trkpt lat="47.619949" lon="7.901437">
        <ele>345.975636</ele>
        <time>2021-11-09T21:39:08.292Z</time>
      </trkpt>
      <trkpt lat="47.620059" lon="7.901525">
        <ele>346.183677</ele>
        <time>2021-11-09T21:39:11.331Z</time>
      </trkpt>
      <trkpt lat="47.620410" lon="7.901520">
        <ele>346.766774</ele>
        <time>2021-11-09T21:39:20.419Z</time>
      </trkpt>
      <trkpt lat="47.620624" lon="7.901458">
        <ele>347.109076</ele>
        <time>2021-11-09T21:39:26.307Z</time>
      </trkpt>
      <trkpt lat="47.620672" lon="7.901435">
        <ele>347.188264</ele>
        <time>2021-11-09T21:39:27.630Z</time>
      </trkpt>
      <trkpt lat="47.620725" lon="7.901411">
        <ele>347.275257</ele>
        <time>2021-11-09T21:39:28.950Z</time>
      </trkpt>
      <trkpt lat="47.620803" lon="7.901381">
        <ele>347.401756</ele>
        <time>2021-11-09T21:39:31.070Z</time>
      </trkpt>
      <trkpt lat="47.620892" lon="7.901347">
        <ele>347.546034</ele>
        <time>2021-11-09T21:39:33.558Z</time>
      </trkpt>
      <trkpt lat="47.621491" lon="7.901218">
        <ele>348.496252</ele>
        <time>2021-11-09T21:39:49.625Z</time>
      </trkpt>
      <trkpt lat="47.621543" lon="7.901222">
        <ele>348.577996</ele>
        <time>2021-11-09T21:39:51.103Z</time>
      </trkpt>
      <trkpt lat="47.621641" lon="7.901251">
        <ele>348.734875</ele>
        <time>2021-11-09T21:39:53.805Z</time>
      </trkpt>
      <trkpt lat="47.621963" lon="7.901334">
        <ele>349.247952</ele>
        <time>2021-11-09T21:40:02.458Z</time>
      </trkpt>
      <trkpt lat="47.622044" lon="7.901325">
        <ele>349.375469</ele>
        <time>2021-11-09T21:40:04.705Z</time>
      </trkpt>
      <trkpt lat="47.622167" lon="7.901296">
        <ele>349.571009</ele>
        <time>2021-11-09T21:40:07.874Z</time>
      </trkpt>
      <trkpt lat="47.622355" lon="7.901252">
        <ele>349.876211</ele>
        <time>2021-11-09T21:40:13.128Z</time>
      </trkpt>
      <trkpt lat="47.622681" lon="7.901162">
        <ele>350.407954</ele>
        <time>2021-11-09T21:40:21.788Z</time>
      </trkpt>
      <trkpt lat="47.622944" lon="7.901144">
        <ele>350.830146</ele>
        <time>2021-11-09T21:40:28.704Z</time>
      </trkpt>
      <trkpt lat="47.623473" lon="7.901122">
        <ele>351.678777</ele>
        <time>2021-11-09T21:40:42.635Z</time>
      </trkpt>
      <trkpt lat="47.624511" lon="7.901144">
        <ele>353.593113</ele>
        <time>2021-11-09T21:41:10.794Z</time>
      </trkpt>
      <trkpt lat="47.624673" lon="7.901197">
        <ele>353.933825</ele>
        <time>2021-11-09T21:41:15.441Z</time>
      </trkpt>
      <trkpt lat="47.625157" lon="7.901492">
        <ele>355.008478</ele>
        <time>2021-11-09T21:41:30.517Z</time>
      </trkpt>
      <trkpt lat="47.625257" lon="7.901546">
        <ele>355.227039</ele>
        <time>2021-11-09T21:41:32.843Z</time>
      </trkpt>
      <trkpt lat="47.625293" lon="7.901611">
        <ele>355.343496</ele>
        <time>2021-11-09T21:41:34.050Z</time>
      </trkpt>
      <trkpt lat="47.625369" lon="7.901592">
        <ele>355.501787</ele>
        <time>2021-11-09T21:41:36.480Z</time>
      </trkpt>
      <trkpt lat="47.626663" lon="7.902101">
        <ele>358.312336</ele>
        <time>2021-11-09T21:42:08.770Z</time>
      </trkpt>
      <trkpt lat="47.627225" lon="7.902298">
        <ele>359.532817</ele>
        <time>2021-11-09T21:42:22.463Z</time>
      </trkpt>
      <trkpt lat="47.627453" lon="7.902345">
        <ele>359.963221</ele>
        <time>2021-11-09T21:42:27.297Z</time>
      </trkpt>
      <trkpt lat="47.627636" lon="7.902374">
        <ele>360.038170</ele>
        <time>2021-11-09T21:42:31.168Z</time>
      </trkpt>
      <trkpt lat="47.627939" lon="7.902419">
        <ele>360.162182</ele>
        <time>2021-11-09T21:42:36.976Z</time>
      </trkpt>
      <trkpt lat="47.628499" lon="7.902416">
        <ele>360.390240</ele>
        <time>2021-11-09T21:42:45.423Z</time>
      </trkpt>
      <trkpt lat="47.628663" lon="7.902374">
        <ele>360.458016</ele>
        <time>2021-11-09T21:42:48.016Z</time>
      </trkpt>
      <trkpt lat="47.628980" lon="7.902307">
        <ele>360.588415</ele>
        <time>2021-11-09T21:42:54.062Z</time>
      </trkpt>
      <trkpt lat="47.629098" lon="7.902279">
        <ele>360.637080</ele>
        <time>2021-11-09T21:42:55.660Z</time>
      </trkpt>
      <trkpt lat="47.629184" lon="7.902266">
        <ele>360.672285</ele>
        <time>2021-11-09T21:42:56.747Z</time>
      </trkpt>
      <trkpt lat="47.629238" lon="7.902282">
        <ele>360.677015</ele>
        <time>2021-11-09T21:42:57.502Z</time>
      </trkpt>
      <trkpt lat="47.629377" lon="7.902419">
        <ele>360.647937</ele>
        <time>2021-11-09T21:43:00.073Z</time>
      </trkpt>
      <trkpt lat="47.629454" lon="7.902531">
        <ele>360.629148</ele>
        <time>2021-11-09T21:43:01.534Z</time>
      </trkpt>
      <trkpt lat="47.629497" lon="7.902595">
        <ele>360.618535</ele>
        <time>2021-11-09T21:43:02.311Z</time>
      </trkpt>
      <trkpt lat="47.629807" lon="7.902833">
        <ele>360.557714</ele>
        <time>2021-11-09T21:43:07.690Z</time>
      </trkpt>
      <trkpt lat="47.629964" lon="7.902776">
        <ele>360.529549</ele>
        <time>2021-11-09T21:43:10.551Z</time>
      </trkpt>
      <trkpt lat="47.630128" lon="7.902518">
        <ele>360.487899</ele>
        <time>2021-11-09T21:43:13.698Z</time>
      </trkpt>
      <trkpt lat="47.630286" lon="7.902472">
        <ele>360.459842</ele>
        <time>2021-11-09T21:43:16.299Z</time>
      </trkpt>
      <trkpt lat="47.630354" lon="7.902516">
        <ele>360.446915</ele>
        <time>2021-11-09T21:43:17.403Z</time>
      </trkpt>
      <trkpt lat="47.630425" lon="7.902631">
        <ele>360.428600</ele>
        <time>2021-11-09T21:43:18.551Z</time>
      </trkpt>
      <trkpt lat="47.630643" lon="7.902358">
        <ele>360.378892</ele>
        <time>2021-11-09T21:43:22.318Z</time>
      </trkpt>
      <trkpt lat="47.631232" lon="7.901830">
        <ele>360.185630</ele>
        <time>2021-11-09T21:43:32.452Z</time>
      </trkpt>
      <trkpt lat="47.631256" lon="7.901808">
        <ele>360.177434</ele>
        <time>2021-11-09T21:43:32.710Z</time>
      </trkpt>
      <trkpt lat="47.632600" lon="7.900774">
        <ele>359.960200</ele>
        <time>2021-11-09T21:43:54.028Z</time>
      </trkpt>
      <trkpt lat="47.632720" lon="7.900711">
        <ele>359.998941</ele>
        <time>2021-11-09T21:43:55.638Z</time>
      </trkpt>
      <trkpt lat="47.632986" lon="7.900573">
        <ele>360.084704</ele>
        <time>2021-11-09T21:43:59.648Z</time>
      </trkpt>
      <trkpt lat="47.633103" lon="7.900526">
        <ele>360.121596</ele>
        <time>2021-11-09T21:44:01.111Z</time>
      </trkpt>
      <trkpt lat="47.633136" lon="7.900472">
        <ele>360.136547</ele>
        <time>2021-11-09T21:44:01.670Z</time>
      </trkpt>
      <trkpt lat="47.633178" lon="7.900379">
        <ele>360.159508</ele>
        <time>2021-11-09T21:44:02.617Z</time>
      </trkpt>
      <trkpt lat="47.633226" lon="7.900424">
        <ele>360.176788</ele>
        <time>2021-11-09T21:44:04.161Z</time>
      </trkpt>
      <trkpt lat="47.633282" lon="7.900614">
        <ele>360.219321</ele>
        <time>2021-11-09T21:44:06.119Z</time>
      </trkpt>
      <trkpt lat="47.633342" lon="7.900593">
        <ele>360.238083</ele>
        <time>2021-11-09T21:44:07.298Z</time>
      </trkpt>
      <trkpt lat="47.633921" lon="7.900563">
        <ele>360.642006</ele>
        <time>2021-11-09T21:44:21.526Z</time>
      </trkpt>
      <trkpt lat="47.633917" lon="7.900261">
        <ele>361.385725</ele>
        <time>2021-11-09T21:44:26.761Z</time>
      </trkpt>
      <trkpt lat="47.633945" lon="7.900020">
        <ele>361.987862</ele>
        <time>2021-11-09T21:44:33.137Z</time>
      </trkpt>
      <trkpt lat="47.634007" lon="7.899717">
        <ele>362.767535</ele>
        <time>2021-11-09T21:44:39.190Z</time>
      </trkpt>
      <trkpt lat="47.634071" lon="7.899581">
        <ele>363.175959</ele>
        <time>2021-11-09T21:44:44.047Z</time>
      </trkpt>
      <trkpt lat="47.634413" lon="7.899025">
        <ele>365.029482</ele>
        <time>2021-11-09T21:45:01.502Z</time>
      </trkpt>
      <trkpt lat="47.634521" lon="7.898897">
        <ele>365.534496</ele>
        <time>2021-11-09T21:45:07.571Z</time>
      </trkpt>
      <trkpt lat="47.634660" lon="7.898725">
        <ele>366.195770</ele>
        <time>2021-11-09T21:45:14.234Z</time>
      </trkpt>
      <trkpt lat="47.634709" lon="7.898683">
        <ele>366.402525</ele>
        <time>2021-11-09T21:45:16.145Z</time>
      </trkpt>
      <trkpt lat="47.634851" lon="7.898560">
        <ele>367.031092</ele>
        <time>2021-11-09T21:45:23.901Z</time>
      </trkpt>
      <trkpt lat="47.635439" lon="7.898291">
        <ele>370.939386</ele>
        <time>2021-11-09T21:45:49.893Z</time>
      </trkpt>
      <trkpt lat="47.635572" lon="7.898264">
        <ele>371.792042</ele>
        <time>2021-11-09T21:45:56.436Z</time>
      </trkpt>
      <trkpt lat="47.635798" lon="7.898256">
        <ele>373.227955</ele>
        <time>2021-11-09T21:46:06.679Z</time>
      </trkpt>
      <trkpt lat="47.636998" lon="7.898270">
        <ele>380.607466</ele>
        <time>2021-11-09T21:47:04.967Z</time>
      </trkpt>
      <trkpt lat="47.637346" lon="7.898225">
        <ele>382.607214</ele>
        <time>2021-11-09T21:47:20.592Z</time>
      </trkpt>
      <trkpt lat="47.637397" lon="7.898245">
        <ele>382.909195</ele>
        <time>2021-11-09T21:47:23.534Z</time>
      </trkpt>
      <trkpt lat="47.637967" lon="7.898221">
        <ele>386.173593</ele>
        <time>2021-11-09T21:47:43.551Z</time>
      </trkpt>
      <trkpt lat="47.638114" lon="7.898263">
        <ele>387.030579</ele>
        <time>2021-11-09T21:47:49.531Z</time>
      </trkpt>
      <trkpt lat="47.638328" lon="7.898434">
        <ele>388.421954</ele>
        <time>2021-11-09T21:47:57.170Z</time>
      </trkpt>
      <trkpt lat="47.638614" lon="7.898515">
        <ele>389.316696</ele>
        <time>2021-11-09T21:48:07.232Z</time>
      </trkpt>
      <trkpt lat="47.639302" lon="7.898244">
        <ele>391.147331</ele>
        <time>2021-11-09T21:48:26.444Z</time>
      </trkpt>
      <trkpt lat="47.639542" lon="7.898268">
        <ele>391.765955</ele>
        <time>2021-11-09T21:48:31.610Z</time>
      </trkpt>
      <trkpt lat="47.639738" lon="7.898399">
        <ele>392.318778</ele>
        <time>2021-11-09T21:48:35.853Z</time>
      </trkpt>
      <trkpt lat="47.640140" lon="7.898843">
        <ele>393.548503</ele>
        <time>2021-11-09T21:48:44.721Z</time>
      </trkpt>
      <trkpt lat="47.640440" lon="7.899355">
        <ele>394.489028</ele>
        <time>2021-11-09T21:48:54.454Z</time>
      </trkpt>
      <trkpt lat="47.640608" lon="7.899969">
        <ele>395.407616</ele>
        <time>2021-11-09T21:49:04.057Z</time>
      </trkpt>
      <trkpt lat="47.640708" lon="7.900137">
        <ele>395.718343</ele>
        <time>2021-11-09T21:49:08.789Z</time>
      </trkpt>
      <trkpt lat="47.640929" lon="7.900272">
        <ele>396.210000</ele>
        <time>2021-11-09T21:49:13.429Z</time>
      </trkpt>
      <trkpt lat="47.641277" lon="7.900285">
        <ele>396.926151</ele>
        <time>2021-11-09T21:49:22.243Z</time>
      </trkpt>
      <trkpt lat="47.641318" lon="7.900134">
        <ele>397.192332</ele>
        <time>2021-11-09T21:49:26.587Z</time>
      </trkpt>
      <trkpt lat="47.641786" lon="7.899428">
        <ele>398.965601</ele>
        <time>2021-11-09T21:49:44.060Z</time>
      </trkpt>
      <trkpt lat="47.642084" lon="7.899209">
        <ele>399.849253</ele>
        <time>2021-11-09T21:49:52.931Z</time>
      </trkpt>
      <trkpt lat="47.642242" lon="7.899161">
        <ele>400.277822</ele>
        <time>2021-11-09T21:49:58.137Z</time>
      </trkpt>
      <trkpt lat="47.642610" lon="7.899205">
        <ele>401.258899</ele>
        <time>2021-11-09T21:50:08.176Z</time>
      </trkpt>
      <trkpt lat="47.643203" lon="7.899152">
        <ele>401.788183</ele>
        <time>2021-11-09T21:50:19.554Z</time>
      </trkpt>
      <trkpt lat="47.644179" lon="7.899348">
        <ele>401.777250</ele>
        <time>2021-11-09T21:50:33.232Z</time>
      </trkpt>
      <trkpt lat="47.644712" lon="7.899668">
        <ele>401.758231</ele>
        <time>2021-11-09T21:50:39.945Z</time>
      </trkpt>
      <trkpt lat="47.645260" lon="7.899829">
        <ele>401.706325</ele>
        <time>2021-11-09T21:50:46.620Z</time>
      </trkpt>
      <trkpt lat="47.645746" lon="7.900096">
        <ele>401.658173</ele>
        <time>2021-11-09T21:50:54.057Z</time>
      </trkpt>
      <trkpt lat="47.645932" lon="7.900091">
        <ele>401.640887</ele>
        <time>2021-11-09T21:50:56.474Z</time>
      </trkpt>
      <trkpt lat="47.646188" lon="7.900059">
        <ele>401.617016</ele>
        <time>2021-11-09T21:51:01.099Z</time>
      </trkpt>
      <trkpt lat="47.646820" lon="7.899789">
        <ele>403.175833</ele>
        <time>2021-11-09T21:51:16.898Z</time>
      </trkpt>
      <trkpt lat="47.647173" lon="7.899512">
        <ele>404.351691</ele>
        <time>2021-11-09T21:51:27.742Z</time>
      </trkpt>
      <trkpt lat="47.647258" lon="7.899353">
        <ele>404.754385</ele>
        <time>2021-11-09T21:51:31.296Z</time>
      </trkpt>
      <trkpt lat="47.647312" lon="7.898850">
        <ele>405.764893</ele>
        <time>2021-11-09T21:51:42.859Z</time>
      </trkpt>
      <trkpt lat="47.647362" lon="7.898569">
        <ele>406.341494</ele>
        <time>2021-11-09T21:51:49.127Z</time>
      </trkpt>
      <trkpt lat="47.647493" lon="7.898374">
        <ele>406.887836</ele>
        <time>2021-11-09T21:51:54.398Z</time>
      </trkpt>
      <trkpt lat="47.648220" lon="7.897956">
        <ele>407.893668</ele>
        <time>2021-11-09T21:52:14.660Z</time>
      </trkpt>
      <trkpt lat="47.648379" lon="7.897871">
        <ele>408.109935</ele>
        <time>2021-11-09T21:52:19.117Z</time>
      </trkpt>
      <trkpt lat="47.648924" lon="7.897475">
        <ele>408.886451</ele>
        <time>2021-11-09T21:52:29.623Z</time>
      </trkpt>
      <trkpt lat="47.649310" lon="7.897390">
        <ele>408.875982</ele>
        <time>2021-11-09T21:52:33.779Z</time>
      </trkpt>
      <trkpt lat="47.650323" lon="7.897381">
        <ele>406.538235</ele>
        <time>2021-11-09T21:52:44.345Z</time>
      </trkpt>
      <trkpt lat="47.650387" lon="7.897334">
        <ele>406.373457</ele>
        <time>2021-11-09T21:52:44.986Z</time>
      </trkpt>
      <trkpt lat="47.650543" lon="7.897274">
        <ele>406.001567</ele>
        <time>2021-11-09T21:52:46.852Z</time>
      </trkpt>
      <trkpt lat="47.650706" lon="7.897156">
        <ele>405.583065</ele>
        <time>2021-11-09T21:52:48.723Z</time>
      </trkpt>
      <trkpt lat="47.651383" lon="7.897117">
        <ele>404.614640</ele>
        <time>2021-11-09T21:52:56.565Z</time>
      </trkpt>
      <trkpt lat="47.651465" lon="7.897134">
        <ele>404.533570</ele>
        <time>2021-11-09T21:52:57.353Z</time>
      </trkpt>
      <trkpt lat="47.652153" lon="7.897594">
        <ele>403.794732</ele>
        <time>2021-11-09T21:53:06.914Z</time>
      </trkpt>
      <trkpt lat="47.652925" lon="7.897994">
        <ele>403.394653</ele>
        <time>2021-11-09T21:53:18.562Z</time>
      </trkpt>
      <trkpt lat="47.653340" lon="7.898105">
        <ele>403.536831</ele>
        <time>2021-11-09T21:53:25.243Z</time>
      </trkpt>
      <trkpt lat="47.653349" lon="7.897933">
        <ele>403.576014</ele>
        <time>2021-11-09T21:53:27.419Z</time>
      </trkpt>
      <trkpt lat="47.653356" lon="7.897817">
        <ele>403.602466</ele>
        <time>2021-11-09T21:53:28.990Z</time>
      </trkpt>
      <trkpt lat="47.653455" lon="7.897893">
        <ele>403.640044</ele>
        <time>2021-11-09T21:53:30.850Z</time>
      </trkpt>
      <trkpt lat="47.653625" lon="7.897881">
        <ele>403.697428</ele>
        <time>2021-11-09T21:53:33.520Z</time>
      </trkpt>
      <trkpt lat="47.653737" lon="7.897880">
        <ele>403.735191</ele>
        <time>2021-11-09T21:53:35.187Z</time>
      </trkpt>
      <trkpt lat="47.654085" lon="7.897876">
        <ele>403.852530</ele>
        <time>2021-11-09T21:53:41.240Z</time>
      </trkpt>
      <trkpt lat="47.654516" lon="7.897893">
        <ele>404.870677</ele>
        <time>2021-11-09T21:53:49.699Z</time>
      </trkpt>
      <trkpt lat="47.654620" lon="7.897827">
        <ele>405.243655</ele>
        <time>2021-11-09T21:53:52.505Z</time>
      </trkpt>
      <trkpt lat="47.654671" lon="7.897693">
        <ele>405.585536</ele>
        <time>2021-11-09T21:53:54.446Z</time>
      </trkpt>
      <trkpt lat="47.654759" lon="7.897508">
        <ele>406.088611</ele>
        <time>2021-11-09T21:53:57.943Z</time>
      </trkpt>
      <trkpt lat="47.654830" lon="7.897410">
        <ele>406.408308</ele>
        <time>2021-11-09T21:54:00.887Z</time>
      </trkpt>
      <trkpt lat="47.654896" lon="7.897368">
        <ele>406.645106</ele>
        <time>2021-11-09T21:54:02.849Z</time>
      </trkpt>
      <trkpt lat="47.655127" lon="7.897245">
        <ele>407.454382</ele>
        <time>2021-11-09T21:54:10.050Z</time>
      </trkpt>
      <trkpt lat="47.655258" lon="7.897190">
        <ele>407.903318</ele>
        <time>2021-11-09T21:54:14.249Z</time>
      </trkpt>
      <trkpt lat="47.655534" lon="7.897054">
        <ele>408.862298</ele>
        <time>2021-11-09T21:54:23.731Z</time>
      </trkpt>
      <trkpt lat="47.655905" lon="7.896871">
        <ele>410.351893</ele>
        <time>2021-11-09T21:54:38.114Z</time>
      </trkpt>
      <trkpt lat="47.655962" lon="7.896840">
        <ele>410.676788</ele>
        <time>2021-11-09T21:54:40.118Z</time>
      </trkpt>
      <trkpt lat="47.656232" lon="7.896661">
        <ele>412.259391</ele>
        <time>2021-11-09T21:54:51.428Z</time>
      </trkpt>
      <trkpt lat="47.656445" lon="7.896601">
        <ele>413.419726</ele>
        <time>2021-11-09T21:54:59.825Z</time>
      </trkpt>
      <trkpt lat="47.657005" lon="7.896393">
        <ele>416.509275</ele>
        <time>2021-11-09T21:55:21.014Z</time>
      </trkpt>
      <trkpt lat="47.657119" lon="7.896295">
        <ele>417.214316</ele>
        <time>2021-11-09T21:55:25.880Z</time>
      </trkpt>
      <trkpt lat="47.657095" lon="7.896162">
        <ele>417.710687</ele>
        <time>2021-11-09T21:55:29.342Z</time>
      </trkpt>
      <trkpt lat="47.656988" lon="7.895614">
        <ele>419.699798</ele>
        <time>2021-11-09T21:55:42.636Z</time>
      </trkpt>
      <trkpt lat="47.656932" lon="7.895390">
        <ele>420.373625</ele>
        <time>2021-11-09T21:55:48.118Z</time>
      </trkpt>
      <trkpt lat="47.656866" lon="7.895110">
        <ele>421.210230</ele>
        <time>2021-11-09T21:55:55.074Z</time>
      </trkpt>
      <trkpt lat="47.656839" lon="7.894762">
        <ele>422.198142</ele>
        <time>2021-11-09T21:56:02.867Z</time>
      </trkpt>
      <trkpt lat="47.656877" lon="7.894582">
        <ele>422.730123</ele>
        <time>2021-11-09T21:56:07.195Z</time>
      </trkpt>
      <trkpt lat="47.656927" lon="7.894431">
        <ele>423.204645</ele>
        <time>2021-11-09T21:56:10.812Z</time>
      </trkpt>
      <trkpt lat="47.657148" lon="7.894189">
        <ele>424.354417</ele>
        <time>2021-11-09T21:56:19.976Z</time>
      </trkpt>
      <trkpt lat="47.657491" lon="7.893932">
        <ele>425.963057</ele>
        <time>2021-11-09T21:56:30.899Z</time>
      </trkpt>
      <trkpt lat="47.657533" lon="7.893819">
        <ele>426.327032</ele>
        <time>2021-11-09T21:56:33.491Z</time>
      </trkpt>
      <trkpt lat="47.657550" lon="7.893664">
        <ele>426.769911</ele>
        <time>2021-11-09T21:56:36.315Z</time>
      </trkpt>
      <trkpt lat="47.657559" lon="7.893566">
        <ele>427.016753</ele>
        <time>2021-11-09T21:56:38.104Z</time>
      </trkpt>
      <trkpt lat="47.657571" lon="7.893434">
        <ele>427.197175</ele>
        <time>2021-11-09T21:56:40.523Z</time>
      </trkpt>
      <trkpt lat="47.657604" lon="7.893004">
        <ele>427.783401</ele>
        <time>2021-11-09T21:56:47.760Z</time>
      </trkpt>
      <trkpt lat="47.657644" lon="7.892775">
        <ele>428.103853</ele>
        <time>2021-11-09T21:56:52.638Z</time>
      </trkpt>
      <trkpt lat="47.657736" lon="7.892412">
        <ele>428.629211</ele>
        <time>2021-11-09T21:56:58.363Z</time>
      </trkpt>
      <trkpt lat="47.658293" lon="7.891024">
        <ele>430.859972</ele>
        <time>2021-11-09T21:57:21.164Z</time>
      </trkpt>
      <trkpt lat="47.658300" lon="7.890903">
        <ele>431.057043</ele>
        <time>2021-11-09T21:57:23.248Z</time>
      </trkpt>
      <trkpt lat="47.658251" lon="7.890812">
        <ele>431.246097</ele>
        <time>2021-11-09T21:57:24.089Z</time>
      </trkpt>
      <trkpt lat="47.658088" lon="7.890776">
        <ele>431.643117</ele>
        <time>2021-11-09T21:57:26.855Z</time>
      </trkpt>
      <trkpt lat="47.657839" lon="7.891019">
        <ele>432.361001</ele>
        <time>2021-11-09T21:57:31.794Z</time>
      </trkpt>
      <trkpt lat="47.657633" lon="7.891130">
        <ele>432.888971</ele>
        <time>2021-11-09T21:57:37.195Z</time>
      </trkpt>
      <trkpt lat="47.657029" lon="7.890974">
        <ele>434.365981</ele>
        <time>2021-11-09T21:57:54.100Z</time>
      </trkpt>
      <trkpt lat="47.656836" lon="7.890840">
        <ele>434.879289</ele>
        <time>2021-11-09T21:58:00.998Z</time>
      </trkpt>
      <trkpt lat="47.656640" lon="7.890553">
        <ele>436.334720</ele>
        <time>2021-11-09T21:58:09.778Z</time>
      </trkpt>
      <trkpt lat="47.656545" lon="7.890327">
        <ele>437.333069</ele>
        <time>2021-11-09T21:58:15.747Z</time>
      </trkpt>
      <trkpt lat="47.656490" lon="7.890096">
        <ele>438.251254</ele>
        <time>2021-11-09T21:58:21.869Z</time>
      </trkpt>
      <trkpt lat="47.656493" lon="7.889916">
        <ele>438.926026</ele>
        <time>2021-11-09T21:58:26.911Z</time>
      </trkpt>
      <trkpt lat="47.656527" lon="7.889732">
        <ele>439.641059</ele>
        <time>2021-11-09T21:58:31.227Z</time>
      </trkpt>
      <trkpt lat="47.656616" lon="7.889559">
        <ele>440.456860</ele>
        <time>2021-11-09T21:58:37.431Z</time>
      </trkpt>
      <trkpt lat="47.656792" lon="7.889429">
        <ele>441.550576</ele>
        <time>2021-11-09T21:58:44.831Z</time>
      </trkpt>
      <trkpt lat="47.656956" lon="7.889255">
        <ele>442.672081</ele>
        <time>2021-11-09T21:58:53.344Z</time>
      </trkpt>
      <trkpt lat="47.657030" lon="7.888971">
        <ele>443.813246</ele>
        <time>2021-11-09T21:59:01.290Z</time>
      </trkpt>
      <trkpt lat="47.657082" lon="7.888666">
        <ele>444.981406</ele>
        <time>2021-11-09T21:59:10.984Z</time>
      </trkpt>
      <trkpt lat="47.657194" lon="7.888421">
        <ele>445.837237</ele>
        <time>2021-11-09T21:59:18.266Z</time>
      </trkpt>
      <trkpt lat="47.657269" lon="7.888213">
        <ele>446.519156</ele>
        <time>2021-11-09T21:59:25.431Z</time>
      </trkpt>
      <trkpt lat="47.657294" lon="7.888043">
        <ele>447.022092</ele>
        <time>2021-11-09T21:59:28.993Z</time>
      </trkpt>
      <trkpt lat="47.657353" lon="7.887321">
        <ele>449.124231</ele>
        <time>2021-11-09T21:59:44.813Z</time>
      </trkpt>
      <trkpt lat="47.657514" lon="7.886581">
        <ele>451.371902</ele>
        <time>2021-11-09T21:59:59.968Z</time>
      </trkpt>
      <trkpt lat="47.657896" lon="7.885623">
        <ele>454.081573</ele>
        <time>2021-11-09T22:00:18.706Z</time>
      </trkpt>
      <trkpt lat="47.658138" lon="7.885188">
        <ele>455.282237</ele>
        <time>2021-11-09T22:00:27.848Z</time>
      </trkpt>
      <trkpt lat="47.658867" lon="7.883894">
        <ele>459.244258</ele>
        <time>2021-11-09T22:01:00.388Z</time>
      </trkpt>
      <trkpt lat="47.658990" lon="7.883421">
        <ele>461.085626</ele>
        <time>2021-11-09T22:01:11.666Z</time>
      </trkpt>
      <trkpt lat="47.659123" lon="7.883112">
        <ele>462.417382</ele>
        <time>2021-11-09T22:01:20.596Z</time>
      </trkpt>
      <trkpt lat="47.659271" lon="7.882977">
        <ele>463.353961</ele>
        <time>2021-11-09T22:01:27.406Z</time>
      </trkpt>
      <trkpt lat="47.659409" lon="7.882930">
        <ele>464.117371</ele>
        <time>2021-11-09T22:01:32.686Z</time>
      </trkpt>
      <trkpt lat="47.659545" lon="7.882864">
        <ele>464.888851</ele>
        <time>2021-11-09T22:01:38.516Z</time>
      </trkpt>
      <trkpt lat="47.659917" lon="7.882513">
        <ele>467.265418</ele>
        <time>2021-11-09T22:01:55.701Z</time>
      </trkpt>
      <trkpt lat="47.660174" lon="7.882559">
        <ele>468.780650</ele>
        <time>2021-11-09T22:02:05.999Z</time>
      </trkpt>
      <trkpt lat="47.660361" lon="7.882608">
        <ele>470.002702</ele>
        <time>2021-11-09T22:02:13.968Z</time>
      </trkpt>
      <trkpt lat="47.660641" lon="7.882661">
        <ele>471.819251</ele>
        <time>2021-11-09T22:02:25.800Z</time>
      </trkpt>
      <trkpt lat="47.661297" lon="7.882519">
        <ele>476.085625</ele>
        <time>2021-11-09T22:02:53.007Z</time>
      </trkpt>
      <trkpt lat="47.661471" lon="7.882407">
        <ele>477.306117</ele>
        <time>2021-11-09T22:03:00.736Z</time>
      </trkpt>
      <trkpt lat="47.661834" lon="7.881959">
        <ele>480.422475</ele>
        <time>2021-11-09T22:03:19.693Z</time>
      </trkpt>
      <trkpt lat="47.662066" lon="7.881800">
        <ele>482.245227</ele>
        <time>2021-11-09T22:03:29.350Z</time>
      </trkpt>
      <trkpt lat="47.662739" lon="7.881899">
        <ele>487.069535</ele>
        <time>2021-11-09T22:03:56.487Z</time>
      </trkpt>
      <trkpt lat="47.663250" lon="7.881836">
        <ele>490.727266</ele>
        <time>2021-11-09T22:04:20.028Z</time>
      </trkpt>
      <trkpt lat="47.663851" lon="7.881993">
        <ele>496.066610</ele>
        <time>2021-11-09T22:04:50.782Z</time>
      </trkpt>
      <trkpt lat="47.664043" lon="7.881923">
        <ele>498.005692</ele>
        <time>2021-11-09T22:05:01.292Z</time>
      </trkpt>
      <trkpt lat="47.664463" lon="7.880991">
        <ele>505.413072</ele>
        <time>2021-11-09T22:05:43.003Z</time>
      </trkpt>
      <trkpt lat="47.664778" lon="7.880032">
        <ele>511.634989</ele>
        <time>2021-11-09T22:06:25.937Z</time>
      </trkpt>
      <trkpt lat="47.665068" lon="7.879380">
        <ele>514.997507</ele>
        <time>2021-11-09T22:06:50.962Z</time>
      </trkpt>
      <trkpt lat="47.665372" lon="7.878993">
        <ele>517.556228</ele>
        <time>2021-11-09T22:07:06.953Z</time>
      </trkpt>
      <trkpt lat="47.665474" lon="7.878934">
        <ele>518.255709</ele>
        <time>2021-11-09T22:07:12.620Z</time>
      </trkpt>
      <trkpt lat="47.665177" lon="7.878293">
        <ele>521.577133</ele>
        <time>2021-11-09T22:07:26.377Z</time>
      </trkpt>
      <trkpt lat="47.664810" lon="7.878152">
        <ele>520.717455</ele>
        <time>2021-11-09T22:07:33.340Z</time>
      </trkpt>
      <trkpt lat="47.664394" lon="7.877271">
        <ele>519.074158</ele>
        <time>2021-11-09T22:07:41.430Z</time>
      </trkpt>
      <trkpt lat="47.664340" lon="7.876839">
        <ele>518.403106</ele>
        <time>2021-11-09T22:07:44.147Z</time>
      </trkpt>
      <trkpt lat="47.664368" lon="7.876514">
        <ele>517.902695</ele>
        <time>2021-11-09T22:07:46.201Z</time>
      </trkpt>
      <trkpt lat="47.664567" lon="7.876066">
        <ele>516.731673</ele>
        <time>2021-11-09T22:07:49.544Z</time>
      </trkpt>
      <trkpt lat="47.664636" lon="7.875782">
        <ele>515.886812</ele>
        <time>2021-11-09T22:07:51.405Z</time>
      </trkpt>
      <trkpt lat="47.664573" lon="7.875381">
        <ele>514.734551</ele>
        <time>2021-11-09T22:07:54.046Z</time>
      </trkpt>
      <trkpt lat="47.664355" lon="7.875148">
        <ele>513.618478</ele>
        <time>2021-11-09T22:07:56.659Z</time>
      </trkpt>
      <trkpt lat="47.664237" lon="7.875062">
        <ele>513.072297</ele>
        <time>2021-11-09T22:07:57.873Z</time>
      </trkpt>
      <trkpt lat="47.664191" lon="7.875019">
        <ele>512.846440</ele>
        <time>2021-11-09T22:07:58.394Z</time>
      </trkpt>
      <trkpt lat="47.664085" lon="7.874833">
        <ele>512.164601</ele>
        <time>2021-11-09T22:08:00.113Z</time>
      </trkpt>
      <trkpt lat="47.663999" lon="7.874505">
        <ele>511.179631</ele>
        <time>2021-11-09T22:08:02.423Z</time>
      </trkpt>
      <trkpt lat="47.664019" lon="7.873861">
        <ele>509.843450</ele>
        <time>2021-11-09T22:08:07.066Z</time>
      </trkpt>
      <trkpt lat="47.663924" lon="7.872838">
        <ele>509.014319</ele>
        <time>2021-11-09T22:08:15.002Z</time>
      </trkpt>
      <trkpt lat="47.664011" lon="7.872518">
        <ele>508.737248</ele>
        <time>2021-11-09T22:08:18.446Z</time>
      </trkpt>
      <trkpt lat="47.664406" lon="7.872035">
        <ele>508.127219</ele>
        <time>2021-11-09T22:08:25.557Z</time>
      </trkpt>
      <trkpt lat="47.664519" lon="7.871876">
        <ele>507.941626</ele>
        <time>2021-11-09T22:08:27.590Z</time>
      </trkpt>
      <trkpt lat="47.664596" lon="7.871769">
        <ele>507.779511</ele>
        <time>2021-11-09T22:08:28.972Z</time>
      </trkpt>
      <trkpt lat="47.664782" lon="7.871262">
        <ele>507.080165</ele>
        <time>2021-11-09T22:08:33.801Z</time>
      </trkpt>
      <trkpt lat="47.664834" lon="7.871018">
        <ele>506.770159</ele>
        <time>2021-11-09T22:08:35.847Z</time>
      </trkpt>
      <trkpt lat="47.664859" lon="7.870699">
        <ele>506.381143</ele>
        <time>2021-11-09T22:08:38.438Z</time>
      </trkpt>
      <trkpt lat="47.664866" lon="7.870622">
        <ele>506.287026</ele>
        <time>2021-11-09T22:08:39.057Z</time>
      </trkpt>
      <trkpt lat="47.664905" lon="7.870231">
        <ele>505.808236</ele>
        <time>2021-11-09T22:08:41.870Z</time>
      </trkpt>
      <trkpt lat="47.665036" lon="7.869565">
        <ele>504.967799</ele>
        <time>2021-11-09T22:08:46.850Z</time>
      </trkpt>
      <trkpt lat="47.665035" lon="7.869390">
        <ele>504.755813</ele>
        <time>2021-11-09T22:08:48.082Z</time>
      </trkpt>
      <trkpt lat="47.664961" lon="7.869182">
        <ele>504.342336</ele>
        <time>2021-11-09T22:08:49.676Z</time>
      </trkpt>
      <trkpt lat="47.664909" lon="7.869051">
        <ele>504.027693</ele>
        <time>2021-11-09T22:08:50.749Z</time>
      </trkpt>
      <trkpt lat="47.664873" lon="7.868769">
        <ele>503.433795</ele>
        <time>2021-11-09T22:08:52.682Z</time>
      </trkpt>
      <trkpt lat="47.664903" lon="7.868588">
        <ele>503.048098</ele>
        <time>2021-11-09T22:08:53.962Z</time>
      </trkpt>
      <trkpt lat="47.664934" lon="7.868452">
        <ele>502.751009</ele>
        <time>2021-11-09T22:08:54.923Z</time>
      </trkpt>
      <trkpt lat="47.664936" lon="7.868313">
        <ele>502.463328</ele>
        <time>2021-11-09T22:08:55.891Z</time>
      </trkpt>
      <trkpt lat="47.664918" lon="7.868221">
        <ele>502.265093</ele>
        <time>2021-11-09T22:08:56.494Z</time>
      </trkpt>
      <trkpt lat="47.664596" lon="7.867700">
        <ele>500.801899</ele>
        <time>2021-11-09T22:09:01.338Z</time>
      </trkpt>
      <trkpt lat="47.664003" lon="7.866254">
        <ele>497.523351</ele>
        <time>2021-11-09T22:09:13.094Z</time>
      </trkpt>
      <trkpt lat="47.663923" lon="7.866058">
        <ele>497.107400</ele>
        <time>2021-11-09T22:09:14.667Z</time>
      </trkpt>
      <trkpt lat="47.663892" lon="7.865949">
        <ele>496.892659</ele>
        <time>2021-11-09T22:09:15.510Z</time>
      </trkpt>
      <trkpt lat="47.663839" lon="7.865713">
        <ele>496.441155</ele>
        <time>2021-11-09T22:09:17.293Z</time>
      </trkpt>
      <trkpt lat="47.663827" lon="7.865633">
        <ele>496.292404</ele>
        <time>2021-11-09T22:09:17.878Z</time>
      </trkpt>
      <trkpt lat="47.663827" lon="7.865552">
        <ele>496.145396</ele>
        <time>2021-11-09T22:09:18.411Z</time>
      </trkpt>
      <trkpt lat="47.664002" lon="7.864318">
        <ele>493.887739</ele>
        <time>2021-11-09T22:09:27.455Z</time>
      </trkpt>
      <trkpt lat="47.664021" lon="7.864190">
        <ele>493.667343</ele>
        <time>2021-11-09T22:09:28.373Z</time>
      </trkpt>
      <trkpt lat="47.664000" lon="7.863904">
        <ele>493.183587</ele>
        <time>2021-11-09T22:09:30.366Z</time>
      </trkpt>
      <trkpt lat="47.663792" lon="7.863141">
        <ele>491.799488</ele>
        <time>2021-11-09T22:09:36.361Z</time>
      </trkpt>
      <trkpt lat="47.663642" lon="7.862822">
        <ele>491.145286</ele>
        <time>2021-11-09T22:09:39.107Z</time>
      </trkpt>
      <trkpt lat="47.663518" lon="7.862682">
        <ele>490.756356</ele>
        <time>2021-11-09T22:09:40.769Z</time>
      </trkpt>
      <trkpt lat="47.663351" lon="7.862622">
        <ele>490.327370</ele>
        <time>2021-11-09T22:09:42.549Z</time>
      </trkpt>
      <trkpt lat="47.662974" lon="7.862586">
        <ele>489.273160</ele>
        <time>2021-11-09T22:09:46.441Z</time>
      </trkpt>
      <trkpt lat="47.662849" lon="7.862528">
        <ele>488.856400</ele>
        <time>2021-11-09T22:09:47.903Z</time>
      </trkpt>
      <trkpt lat="47.662642" lon="7.862380">
        <ele>488.125268</ele>
        <time>2021-11-09T22:09:50.282Z</time>
      </trkpt>
      <trkpt lat="47.662548" lon="7.862218">
        <ele>487.666968</ele>
        <time>2021-11-09T22:09:51.832Z</time>
      </trkpt>
      <trkpt lat="47.662380" lon="7.861444">
        <ele>485.924049</ele>
        <time>2021-11-09T22:09:57.397Z</time>
      </trkpt>
      <trkpt lat="47.662419" lon="7.860491">
        <ele>483.863942</ele>
        <time>2021-11-09T22:10:03.777Z</time>
      </trkpt>
      <trkpt lat="47.662565" lon="7.859546">
        <ele>481.632508</ele>
        <time>2021-11-09T22:10:10.097Z</time>
      </trkpt>
      <trkpt lat="47.662575" lon="7.859180">
        <ele>480.789458</ele>
        <time>2021-11-09T22:10:12.491Z</time>
      </trkpt>
      <trkpt lat="47.662535" lon="7.858830">
        <ele>479.972409</ele>
        <time>2021-11-09T22:10:14.844Z</time>
      </trkpt>
      <trkpt lat="47.662377" lon="7.858337">
        <ele>478.715841</ele>
        <time>2021-11-09T22:10:18.569Z</time>
      </trkpt>
      <trkpt lat="47.662143" lon="7.857943">
        <ele>477.994004</ele>
        <time>2021-11-09T22:10:22.306Z</time>
      </trkpt>
      <trkpt lat="47.661786" lon="7.857663">
        <ele>478.248756</ele>
        <time>2021-11-09T22:10:26.964Z</time>
      </trkpt>
      <trkpt lat="47.660679" lon="7.857529">
        <ele>478.949555</ele>
        <time>2021-11-09T22:10:51.638Z</time>
      </trkpt>
      <trkpt lat="47.660424" lon="7.857425">
        <ele>479.062265</ele>
        <time>2021-11-09T22:10:56.832Z</time>
      </trkpt>
      <trkpt lat="47.660400" lon="7.857415">
        <ele>479.064572</ele>
        <time>2021-11-09T22:10:58.008Z</time>
      </trkpt>
      <trkpt lat="47.660191" lon="7.857136">
        <ele>479.090585</ele>
        <time>2021-11-09T22:11:05.005Z</time>
      </trkpt>
      <trkpt lat="47.660145" lon="7.856675">
        <ele>479.119636</ele>
        <time>2021-11-09T22:11:12.388Z</time>
      </trkpt>
      <trkpt lat="47.660170" lon="7.856510">
        <ele>479.130178</ele>
        <time>2021-11-09T22:11:14.799Z</time>
      </trkpt>
      <trkpt lat="47.660117" lon="7.856497">
        <ele>479.135150</ele>
        <time>2021-11-09T22:11:17.574Z</time>
      </trkpt>
      <trkpt lat="47.660013" lon="7.856561">
        <ele>479.145569</ele>
        <time>2021-11-09T22:11:19.860Z</time>
      </trkpt>
      <trkpt lat="47.660117" lon="7.856497">
        <ele>479.155989</ele>
        <time>2021-11-09T22:11:22.317Z</time>
      </trkpt>
      <trkpt lat="47.660170" lon="7.856510">
        <ele>479.160961</ele>
        <time>2021-11-09T22:11:23.025Z</time>
      </trkpt>
      <trkpt lat="47.660254" lon="7.856070">
        <ele>479.189469</ele>
        <time>2021-11-09T22:11:26.934Z</time>
      </trkpt>
      <trkpt lat="47.660340" lon="7.855600">
        <ele>479.187588</ele>
        <time>2021-11-09T22:11:30.339Z</time>
      </trkpt>
      <trkpt lat="47.660419" lon="7.854745">
        <ele>474.935648</ele>
        <time>2021-11-09T22:11:35.969Z</time>
      </trkpt>
      <trkpt lat="47.660428" lon="7.854469">
        <ele>473.574236</ele>
        <time>2021-11-09T22:11:37.663Z</time>
      </trkpt>
      <trkpt lat="47.660442" lon="7.854217">
        <ele>472.328446</ele>
        <time>2021-11-09T22:11:39.118Z</time>
      </trkpt>
      <trkpt lat="47.660433" lon="7.853291">
        <ele>467.765681</ele>
        <time>2021-11-09T22:11:44.589Z</time>
      </trkpt>
      <trkpt lat="47.660385" lon="7.852986">
        <ele>466.222505</ele>
        <time>2021-11-09T22:11:46.396Z</time>
      </trkpt>
      <trkpt lat="47.660222" lon="7.852517">
        <ele>462.438759</ele>
        <time>2021-11-09T22:11:49.422Z</time>
      </trkpt>
      <trkpt lat="47.659858" lon="7.852074">
        <ele>457.325755</ele>
        <time>2021-11-09T22:11:53.416Z</time>
      </trkpt>
      <trkpt lat="47.659772" lon="7.851936">
        <ele>455.950116</ele>
        <time>2021-11-09T22:11:54.500Z</time>
      </trkpt>
      <trkpt lat="47.659737" lon="7.851695">
        <ele>454.146224</ele>
        <time>2021-11-09T22:11:55.906Z</time>
      </trkpt>
      <trkpt lat="47.659825" lon="7.851429">
        <ele>451.977830</ele>
        <time>2021-11-09T22:11:57.620Z</time>
      </trkpt>
      <trkpt lat="47.659865" lon="7.851365">
        <ele>451.338997</ele>
        <time>2021-11-09T22:11:58.108Z</time>
      </trkpt>
      <trkpt lat="47.659889" lon="7.851325">
        <ele>450.947035</ele>
        <time>2021-11-09T22:11:58.417Z</time>
      </trkpt>
      <trkpt lat="47.659980" lon="7.851203">
        <ele>449.615078</ele>
        <time>2021-11-09T22:11:59.478Z</time>
      </trkpt>
      <trkpt lat="47.660133" lon="7.850964">
        <ele>447.202481</ele>
        <time>2021-11-09T22:12:01.361Z</time>
      </trkpt>
      <trkpt lat="47.660423" lon="7.850559">
        <ele>443.504301</ele>
        <time>2021-11-09T22:12:04.763Z</time>
      </trkpt>
      <trkpt lat="47.660630" lon="7.850158">
        <ele>440.443353</ele>
        <time>2021-11-09T22:12:07.692Z</time>
      </trkpt>
      <trkpt lat="47.660732" lon="7.849851">
        <ele>438.369401</ele>
        <time>2021-11-09T22:12:09.720Z</time>
      </trkpt>
      <trkpt lat="47.660953" lon="7.848671">
        <ele>430.949150</ele>
        <time>2021-11-09T22:12:16.938Z</time>
      </trkpt>
      <trkpt lat="47.660987" lon="7.848340">
        <ele>429.464450</ele>
        <time>2021-11-09T22:12:18.963Z</time>
      </trkpt>
      <trkpt lat="47.660945" lon="7.847588">
        <ele>426.640178</ele>
        <time>2021-11-09T22:12:23.650Z</time>
      </trkpt>
      <trkpt lat="47.660753" lon="7.846503">
        <ele>422.441366</ele>
        <time>2021-11-09T22:12:30.894Z</time>
      </trkpt>
      <trkpt lat="47.660583" lon="7.846064">
        <ele>420.546026</ele>
        <time>2021-11-09T22:12:34.154Z</time>
      </trkpt>
      <trkpt lat="47.660091" lon="7.845247">
        <ele>415.239371</ele>
        <time>2021-11-09T22:12:40.972Z</time>
      </trkpt>
      <trkpt lat="47.659916" lon="7.844774">
        <ele>412.596188</ele>
        <time>2021-11-09T22:12:44.180Z</time>
      </trkpt>
      <trkpt lat="47.659878" lon="7.844501">
        <ele>411.230825</ele>
        <time>2021-11-09T22:12:45.834Z</time>
      </trkpt>
      <trkpt lat="47.659894" lon="7.844140">
        <ele>409.458883</ele>
        <time>2021-11-09T22:12:47.969Z</time>
      </trkpt>
      <trkpt lat="47.659891" lon="7.843834">
        <ele>407.959988</ele>
        <time>2021-11-09T22:12:49.755Z</time>
      </trkpt>
      <trkpt lat="47.659785" lon="7.843448">
        <ele>405.915729</ele>
        <time>2021-11-09T22:12:52.217Z</time>
      </trkpt>
      <trkpt lat="47.659699" lon="7.843338">
        <ele>405.088693</ele>
        <time>2021-11-09T22:12:53.200Z</time>
      </trkpt>
      <trkpt lat="47.659589" lon="7.843262">
        <ele>404.204722</ele>
        <time>2021-11-09T22:12:54.264Z</time>
      </trkpt>
      <trkpt lat="47.659622" lon="7.843157">
        <ele>403.636124</ele>
        <time>2021-11-09T22:12:54.948Z</time>
      </trkpt>
      <trkpt lat="47.659669" lon="7.843010">
        <ele>402.837606</ele>
        <time>2021-11-09T22:12:55.903Z</time>
      </trkpt>
      <trkpt lat="47.659680" lon="7.842973">
        <ele>402.639136</ele>
        <time>2021-11-09T22:12:56.138Z</time>
      </trkpt>
      <trkpt lat="47.660044" lon="7.841843">
        <ele>396.492397</ele>
        <time>2021-11-09T22:13:03.631Z</time>
      </trkpt>
      <trkpt lat="47.660240" lon="7.841356">
        <ele>394.039332</ele>
        <time>2021-11-09T22:13:07.207Z</time>
      </trkpt>
      <trkpt lat="47.660342" lon="7.841019">
        <ele>393.543268</ele>
        <time>2021-11-09T22:13:09.586Z</time>
      </trkpt>
      <trkpt lat="47.660358" lon="7.840966">
        <ele>393.465286</ele>
        <time>2021-11-09T22:13:09.988Z</time>
      </trkpt>
      <trkpt lat="47.660427" lon="7.840766">
        <ele>393.163576</ele>
        <time>2021-11-09T22:13:11.654Z</time>
      </trkpt>
      <trkpt lat="47.660496" lon="7.840519">
        <ele>392.804547</ele>
        <time>2021-11-09T22:13:13.699Z</time>
      </trkpt>
      <trkpt lat="47.660645" lon="7.840066">
        <ele>392.127672</ele>
        <time>2021-11-09T22:13:17.771Z</time>
      </trkpt>
      <trkpt lat="47.660970" lon="7.839136">
        <ele>390.720938</ele>
        <time>2021-11-09T22:13:27.379Z</time>
      </trkpt>
      <trkpt lat="47.660988" lon="7.839085">
        <ele>390.643631</ele>
        <time>2021-11-09T22:13:27.895Z</time>
      </trkpt>
      <trkpt lat="47.660997" lon="7.839060">
        <ele>390.605571</ele>
        <time>2021-11-09T22:13:28.132Z</time>
      </trkpt>
      <trkpt lat="47.661006" lon="7.839036">
        <ele>390.572534</ele>
        <time>2021-11-09T22:13:28.358Z</time>
      </trkpt>
      <trkpt lat="47.661097" lon="7.838798">
        <ele>390.350346</ele>
        <time>2021-11-09T22:13:30.808Z</time>
      </trkpt>
      <trkpt lat="47.661129" lon="7.838704">
        <ele>390.264837</ele>
        <time>2021-11-09T22:13:31.689Z</time>
      </trkpt>
      <trkpt lat="47.661207" lon="7.838474">
        <ele>390.055774</ele>
        <time>2021-11-09T22:13:33.794Z</time>
      </trkpt>
      <trkpt lat="47.661309" lon="7.838191">
        <ele>389.795188</ele>
        <time>2021-11-09T22:13:36.411Z</time>
      </trkpt>
      <trkpt lat="47.661355" lon="7.838066">
        <ele>389.679546</ele>
        <time>2021-11-09T22:13:37.511Z</time>
      </trkpt>
      <trkpt lat="47.661387" lon="7.838089">
        <ele>389.636691</ele>
        <time>2021-11-09T22:13:37.930Z</time>
      </trkpt>
      <trkpt lat="47.661422" lon="7.838095">
        <ele>389.594221</ele>
        <time>2021-11-09T22:13:38.359Z</time>
      </trkpt>
      <trkpt lat="47.661457" lon="7.838084">
        <ele>389.551097</ele>
        <time>2021-11-09T22:13:38.804Z</time>
      </trkpt>
      <trkpt lat="47.661487" lon="7.838057">
        <ele>389.508810</ele>
        <time>2021-11-09T22:13:39.227Z</time>
      </trkpt>
      <trkpt lat="47.661509" lon="7.838016">
        <ele>389.466252</ele>
        <time>2021-11-09T22:13:39.648Z</time>
      </trkpt>
      <trkpt lat="47.661522" lon="7.837967">
        <ele>389.423496</ele>
        <time>2021-11-09T22:13:40.061Z</time>
      </trkpt>
      <trkpt lat="47.661523" lon="7.837917">
        <ele>389.382885</ele>
        <time>2021-11-09T22:13:40.429Z</time>
      </trkpt>
      <trkpt lat="47.661469" lon="7.837798">
        <ele>389.266392</ele>
        <time>2021-11-09T22:13:41.529Z</time>
      </trkpt>
      <trkpt lat="47.661437" lon="7.837781">
        <ele>389.225424</ele>
        <time>2021-11-09T22:13:41.901Z</time>
      </trkpt>
      <trkpt lat="47.661405" lon="7.837779">
        <ele>389.186817</ele>
        <time>2021-11-09T22:13:42.285Z</time>
      </trkpt>
      <trkpt lat="47.661347" lon="7.837817">
        <ele>389.110399</ele>
        <time>2021-11-09T22:13:43.057Z</time>
      </trkpt>
      <trkpt lat="47.661326" lon="7.837853">
        <ele>389.071734</ele>
        <time>2021-11-09T22:13:43.434Z</time>
      </trkpt>
      <trkpt lat="47.661326" lon="7.837853">
        <ele>389.071734</ele>
        <time>2021-11-09T22:13:43.435Z</time>
      </trkpt>
      <trkpt lat="47.661264" lon="7.837815">
        <ele>388.990882</ele>
        <time>2021-11-09T22:13:44.214Z</time>
      </trkpt>
      <trkpt lat="47.661051" lon="7.837680">
        <ele>388.711715</ele>
        <time>2021-11-09T22:13:46.829Z</time>
      </trkpt>
      <trkpt lat="47.660423" lon="7.837268">
        <ele>387.862752</ele>
        <time>2021-11-09T22:13:54.606Z</time>
      </trkpt>
      <trkpt lat="47.659582" lon="7.836748">
        <ele>386.720031</ele>
        <time>2021-11-09T22:14:05.371Z</time>
      </trkpt>
      <trkpt lat="47.659525" lon="7.836713">
        <ele>386.642660</ele>
        <time>2021-11-09T22:14:06.037Z</time>
      </trkpt>
      <trkpt lat="47.659497" lon="7.836695">
        <ele>386.604388</ele>
        <time>2021-11-09T22:14:06.419Z</time>
      </trkpt>
      <trkpt lat="47.659303" lon="7.836576">
        <ele>386.341095</ele>
        <time>2021-11-09T22:14:09.062Z</time>
      </trkpt>
      <trkpt lat="47.658971" lon="7.836370">
        <ele>386.040375</ele>
        <time>2021-11-09T22:14:13.617Z</time>
      </trkpt>
      <trkpt lat="47.658828" lon="7.836282">
        <ele>385.956800</ele>
        <time>2021-11-09T22:14:15.550Z</time>
      </trkpt>
      <trkpt lat="47.658780" lon="7.836252">
        <ele>385.928682</ele>
        <time>2021-11-09T22:14:16.344Z</time>
      </trkpt>
      <trkpt lat="47.658426" lon="7.836034">
        <ele>385.721767</ele>
        <time>2021-11-09T22:14:21.557Z</time>
      </trkpt>
      <trkpt lat="47.658247" lon="7.835940">
        <ele>385.619258</ele>
        <time>2021-11-09T22:14:24.213Z</time>
      </trkpt>
      <trkpt lat="47.657840" lon="7.835631">
        <ele>385.372453</ele>
        <time>2021-11-09T22:14:30.495Z</time>
      </trkpt>
      <trkpt lat="47.657554" lon="7.835432">
        <ele>385.201924</ele>
        <time>2021-11-09T22:14:34.706Z</time>
      </trkpt>
      <trkpt lat="47.657383" lon="7.835308">
        <ele>385.059383</ele>
        <time>2021-11-09T22:14:37.201Z</time>
      </trkpt>
      <trkpt lat="47.657334" lon="7.835275">
        <ele>385.016560</ele>
        <time>2021-11-09T22:14:37.892Z</time>
      </trkpt>
      <trkpt lat="47.656421" lon="7.834647">
        <ele>384.215729</ele>
        <time>2021-11-09T22:14:50.521Z</time>
      </trkpt>
      <trkpt lat="47.656161" lon="7.834468">
        <ele>383.987635</ele>
        <time>2021-11-09T22:14:54.057Z</time>
      </trkpt>
      <trkpt lat="47.655899" lon="7.834288">
        <ele>383.757871</ele>
        <time>2021-11-09T22:14:57.566Z</time>
      </trkpt>
      <trkpt lat="47.655684" lon="7.834082">
        <ele>383.515595</ele>
        <time>2021-11-09T22:15:00.670Z</time>
      </trkpt>
      <trkpt lat="47.655431" lon="7.833824">
        <ele>383.223518</ele>
        <time>2021-11-09T22:15:04.430Z</time>
      </trkpt>
      <trkpt lat="47.655190" lon="7.833566">
        <ele>382.940779</ele>
        <time>2021-11-09T22:15:08.091Z</time>
      </trkpt>
      <trkpt lat="47.654887" lon="7.833262">
        <ele>382.592778</ele>
        <time>2021-11-09T22:15:12.670Z</time>
      </trkpt>
      <trkpt lat="47.654646" lon="7.833026">
        <ele>382.318048</ele>
        <time>2021-11-09T22:15:16.281Z</time>
      </trkpt>
      <trkpt lat="47.654403" lon="7.832787">
        <ele>382.040670</ele>
        <time>2021-11-09T22:15:19.882Z</time>
      </trkpt>
      <trkpt lat="47.653726" lon="7.831856">
        <ele>381.070334</ele>
        <time>2021-11-09T22:15:31.009Z</time>
      </trkpt>
      <trkpt lat="47.653079" lon="7.830915">
        <ele>380.121398</ele>
        <time>2021-11-09T22:15:41.971Z</time>
      </trkpt>
      <trkpt lat="47.653017" lon="7.830816">
        <ele>380.036563</ele>
        <time>2021-11-09T22:15:43.090Z</time>
      </trkpt>
      <trkpt lat="47.652858" lon="7.830561">
        <ele>379.818490</ele>
        <time>2021-11-09T22:15:45.935Z</time>
      </trkpt>
      <trkpt lat="47.652783" lon="7.830460">
        <ele>379.724148</ele>
        <time>2021-11-09T22:15:47.177Z</time>
      </trkpt>
      <trkpt lat="47.652625" lon="7.830250">
        <ele>379.526565</ele>
        <time>2021-11-09T22:15:49.755Z</time>
      </trkpt>
      <trkpt lat="47.652538" lon="7.830135">
        <ele>379.418034</ele>
        <time>2021-11-09T22:15:51.164Z</time>
      </trkpt>
      <trkpt lat="47.651671" lon="7.828915">
        <ele>378.358747</ele>
        <time>2021-11-09T22:16:06.068Z</time>
      </trkpt>
      <trkpt lat="47.650663" lon="7.827340">
        <ele>377.431323</ele>
        <time>2021-11-09T22:16:24.998Z</time>
      </trkpt>
      <trkpt lat="47.650359" lon="7.826831">
        <ele>377.326717</ele>
        <time>2021-11-09T22:16:31.323Z</time>
      </trkpt>
      <trkpt lat="47.650297" lon="7.826736">
        <ele>377.324833</ele>
        <time>2021-11-09T22:16:32.583Z</time>
      </trkpt>
      <trkpt lat="47.650264" lon="7.826680">
        <ele>377.323773</ele>
        <time>2021-11-09T22:16:33.167Z</time>
      </trkpt>
      <trkpt lat="47.650007" lon="7.827033">
        <ele>377.316371</ele>
        <time>2021-11-09T22:16:38.350Z</time>
      </trkpt>
      <trkpt lat="47.649971" lon="7.827080">
        <ele>377.315357</ele>
        <time>2021-11-09T22:16:39.020Z</time>
      </trkpt>
      <trkpt lat="47.649842" lon="7.827248">
        <ele>377.311729</ele>
        <time>2021-11-09T22:16:41.789Z</time>
      </trkpt>
      <trkpt lat="47.649400" lon="7.827829">
        <ele>377.299247</ele>
        <time>2021-11-09T22:16:50.653Z</time>
      </trkpt>
      <trkpt lat="47.649366" lon="7.827875">
        <ele>377.298275</ele>
        <time>2021-11-09T22:16:51.409Z</time>
      </trkpt>
      <trkpt lat="47.649238" lon="7.827938">
        <ele>377.295424</ele>
        <time>2021-11-09T22:16:53.656Z</time>
      </trkpt>
      <trkpt lat="47.649229" lon="7.827898">
        <ele>377.298254</ele>
        <time>2021-11-09T22:16:54.099Z</time>
      </trkpt>
      <trkpt lat="47.649213" lon="7.827864">
        <ele>377.304916</ele>
        <time>2021-11-09T22:16:54.534Z</time>
      </trkpt>
      <trkpt lat="47.649165" lon="7.827822">
        <ele>377.318200</ele>
        <time>2021-11-09T22:16:55.259Z</time>
      </trkpt>
      <trkpt lat="47.649137" lon="7.827818">
        <ele>377.324906</ele>
        <time>2021-11-09T22:16:55.738Z</time>
      </trkpt>
      <trkpt lat="47.649109" lon="7.827827">
        <ele>377.331737</ele>
        <time>2021-11-09T22:16:56.238Z</time>
      </trkpt>
      <trkpt lat="47.649051" lon="7.827916">
        <ele>377.351625</ele>
        <time>2021-11-09T22:16:57.668Z</time>
      </trkpt>
      <trkpt lat="47.649046" lon="7.827958">
        <ele>377.358476</ele>
        <time>2021-11-09T22:16:58.181Z</time>
      </trkpt>
      <trkpt lat="47.648970" lon="7.827926">
        <ele>377.377310</ele>
        <time>2021-11-09T22:16:59.509Z</time>
      </trkpt>
      <trkpt lat="47.648922" lon="7.827833">
        <ele>377.396127</ele>
        <time>2021-11-09T22:17:00.790Z</time>
      </trkpt>
      <trkpt lat="47.648378" lon="7.826663">
        <ele>377.624460</ele>
        <time>2021-11-09T22:17:15.442Z</time>
      </trkpt>
      <trkpt lat="47.648325" lon="7.826549">
        <ele>377.646708</ele>
        <time>2021-11-09T22:17:16.936Z</time>
      </trkpt>
      <trkpt lat="47.647951" lon="7.825719">
        <ele>378.319384</ele>
        <time>2021-11-09T22:17:27.923Z</time>
      </trkpt>
      <trkpt lat="47.647697" lon="7.825211">
        <ele>379.046938</ele>
        <time>2021-11-09T22:17:35.357Z</time>
      </trkpt>
      <trkpt lat="47.647653" lon="7.825123">
        <ele>379.172972</ele>
        <time>2021-11-09T22:17:36.724Z</time>
      </trkpt>
      <trkpt lat="47.647670" lon="7.825092">
        <ele>379.218942</ele>
        <time>2021-11-09T22:17:37.284Z</time>
      </trkpt>
      <trkpt lat="47.647680" lon="7.825025">
        <ele>379.297864</ele>
        <time>2021-11-09T22:17:38.293Z</time>
      </trkpt>
      <trkpt lat="47.647671" lon="7.824980">
        <ele>379.351849</ele>
        <time>2021-11-09T22:17:38.850Z</time>
      </trkpt>
      <trkpt lat="47.647651" lon="7.824941">
        <ele>379.408218</ele>
        <time>2021-11-09T22:17:39.441Z</time>
      </trkpt>
      <trkpt lat="47.647592" lon="7.824914">
        <ele>379.513615</ele>
        <time>2021-11-09T22:17:40.468Z</time>
      </trkpt>
      <trkpt lat="47.647566" lon="7.824924">
        <ele>379.559466</ele>
        <time>2021-11-09T22:17:40.942Z</time>
      </trkpt>
      <trkpt lat="47.647544" lon="7.824947">
        <ele>379.605402</ele>
        <time>2021-11-09T22:17:41.441Z</time>
      </trkpt>
      <trkpt lat="47.647519" lon="7.825045">
        <ele>379.725918</ele>
        <time>2021-11-09T22:17:42.749Z</time>
      </trkpt>
      <trkpt lat="47.647530" lon="7.825095">
        <ele>379.786409</ele>
        <time>2021-11-09T22:17:43.465Z</time>
      </trkpt>
      <trkpt lat="47.647469" lon="7.825147">
        <ele>379.906493</ele>
        <time>2021-11-09T22:17:45.064Z</time>
      </trkpt>
      <trkpt lat="47.647327" lon="7.825270">
        <ele>380.187158</ele>
        <time>2021-11-09T22:17:49.310Z</time>
      </trkpt>
      <trkpt lat="47.646953" lon="7.825621">
        <ele>381.391090</ele>
        <time>2021-11-09T22:18:01.543Z</time>
      </trkpt>
      <trkpt lat="47.646634" lon="7.825927">
        <ele>384.003051</ele>
        <time>2021-11-09T22:18:14.999Z</time>
      </trkpt>
      <trkpt lat="47.646535" lon="7.826052">
        <ele>384.896861</ele>
        <time>2021-11-09T22:18:20.228Z</time>
      </trkpt>
      <trkpt lat="47.646437" lon="7.826190">
        <ele>385.825821</ele>
        <time>2021-11-09T22:18:26.584Z</time>
      </trkpt>
      <trkpt lat="47.646245" lon="7.826452">
        <ele>387.619368</ele>
        <time>2021-11-09T22:18:37.287Z</time>
      </trkpt>
      <trkpt lat="47.646215" lon="7.826493">
        <ele>387.899806</ele>
        <time>2021-11-09T22:18:40.021Z</time>
      </trkpt>
      <trkpt lat="47.645978" lon="7.826826">
        <ele>390.144041</ele>
        <time>2021-11-09T22:18:55.482Z</time>
      </trkpt>
      <trkpt lat="47.645896" lon="7.826954">
        <ele>390.962379</ele>
        <time>2021-11-09T22:19:01.786Z</time>
      </trkpt>
      <trkpt lat="47.645853" lon="7.827035">
        <ele>391.440162</ele>
        <time>2021-11-09T22:19:04.727Z</time>
      </trkpt>
      <trkpt lat="47.645800" lon="7.827164">
        <ele>392.140196</ele>
        <time>2021-11-09T22:19:10.072Z</time>
      </trkpt>
      <trkpt lat="47.645755" lon="7.827294">
        <ele>392.817345</ele>
        <time>2021-11-09T22:19:15.508Z</time>
      </trkpt>
      <trkpt lat="47.645695" lon="7.827443">
        <ele>393.634022</ele>
        <time>2021-11-09T22:19:21.058Z</time>
      </trkpt>
      <trkpt lat="47.645563" lon="7.827696">
        <ele>395.156840</ele>
        <time>2021-11-09T22:19:31.499Z</time>
      </trkpt>
      <trkpt lat="47.645462" lon="7.827823">
        <ele>396.091854</ele>
        <time>2021-11-09T22:19:38.347Z</time>
      </trkpt>
      <trkpt lat="47.645177" lon="7.828073">
        <ele>398.430264</ele>
        <time>2021-11-09T22:19:54.502Z</time>
      </trkpt>
      <trkpt lat="47.645054" lon="7.828194">
        <ele>399.472589</ele>
        <time>2021-11-09T22:20:01.097Z</time>
      </trkpt>
      <trkpt lat="47.644970" lon="7.828283">
        <ele>400.201594</ele>
        <time>2021-11-09T22:20:05.762Z</time>
      </trkpt>
      <trkpt lat="47.644824" lon="7.828467">
        <ele>401.554485</ele>
        <time>2021-11-09T22:20:13.309Z</time>
      </trkpt>
      <trkpt lat="47.644685" lon="7.828760">
        <ele>403.259858</ele>
        <time>2021-11-09T22:20:23.111Z</time>
      </trkpt>
      <trkpt lat="47.644656" lon="7.828827">
        <ele>403.638840</ele>
        <time>2021-11-09T22:20:25.081Z</time>
      </trkpt>
      <trkpt lat="47.644594" lon="7.828980">
        <ele>404.488520</ele>
        <time>2021-11-09T22:20:29.563Z</time>
      </trkpt>
      <trkpt lat="47.644216" lon="7.830050">
        <ele>409.023602</ele>
        <time>2021-11-09T22:20:56.425Z</time>
      </trkpt>
      <trkpt lat="47.643976" lon="7.830478">
        <ele>410.937042</ele>
        <time>2021-11-09T22:21:07.887Z</time>
      </trkpt>
      <trkpt lat="47.643642" lon="7.830986">
        <ele>413.376090</ele>
        <time>2021-11-09T22:21:23.984Z</time>
      </trkpt>
      <trkpt lat="47.643346" lon="7.831476">
        <ele>415.976146</ele>
        <time>2021-11-09T22:21:41.364Z</time>
      </trkpt>
      <trkpt lat="47.643091" lon="7.831957">
        <ele>419.275154</ele>
        <time>2021-11-09T22:22:00.004Z</time>
      </trkpt>
      <trkpt lat="47.642807" lon="7.832692">
        <ele>423.842145</ele>
        <time>2021-11-09T22:22:28.161Z</time>
      </trkpt>
      <trkpt lat="47.642638" lon="7.833223">
        <ele>427.007567</ele>
        <time>2021-11-09T22:22:48.157Z</time>
      </trkpt>
      <trkpt lat="47.642385" lon="7.833924">
        <ele>431.097128</ele>
        <time>2021-11-09T22:23:15.097Z</time>
      </trkpt>
      <trkpt lat="47.641891" lon="7.835107">
        <ele>437.806069</ele>
        <time>2021-11-09T22:23:58.108Z</time>
      </trkpt>
      <trkpt lat="47.641165" lon="7.836543">
        <ele>445.118377</ele>
        <time>2021-11-09T22:24:42.867Z</time>
      </trkpt>
      <trkpt lat="47.640365" lon="7.837718">
        <ele>450.573642</ele>
        <time>2021-11-09T22:25:18.978Z</time>
      </trkpt>
      <trkpt lat="47.639834" lon="7.838208">
        <ele>453.499238</ele>
        <time>2021-11-09T22:25:40.186Z</time>
      </trkpt>
      <trkpt lat="47.639139" lon="7.838922">
        <ele>457.429790</ele>
        <time>2021-11-09T22:26:09.099Z</time>
      </trkpt>
      <trkpt lat="47.638684" lon="7.839572">
        <ele>460.016871</ele>
        <time>2021-11-09T22:26:30.014Z</time>
      </trkpt>
      <trkpt lat="47.638316" lon="7.840318">
        <ele>461.885463</ele>
        <time>2021-11-09T22:26:49.862Z</time>
      </trkpt>
      <trkpt lat="47.637571" lon="7.842262">
        <ele>465.169475</ele>
        <time>2021-11-09T22:27:23.053Z</time>
      </trkpt>
      <trkpt lat="47.637236" lon="7.842912">
        <ele>465.568453</ele>
        <time>2021-11-09T22:27:32.125Z</time>
      </trkpt>
      <trkpt lat="47.636455" lon="7.843722">
        <ele>466.126762</ele>
        <time>2021-11-09T22:27:46.610Z</time>
      </trkpt>
      <trkpt lat="47.635361" lon="7.844556">
        <ele>466.368206</ele>
        <time>2021-11-09T22:28:05.586Z</time>
      </trkpt>
      <trkpt lat="47.634649" lon="7.845085">
        <ele>466.362262</ele>
        <time>2021-11-09T22:28:18.682Z</time>
      </trkpt>
      <trkpt lat="47.633838" lon="7.846138">
        <ele>466.206617</ele>
        <time>2021-11-09T22:28:35.454Z</time>
      </trkpt>
      <trkpt lat="47.632763" lon="7.847936">
        <ele>463.249025</ele>
        <time>2021-11-09T22:28:53.753Z</time>
      </trkpt>
      <trkpt lat="47.631901" lon="7.849075">
        <ele>459.607673</ele>
        <time>2021-11-09T22:29:05.135Z</time>
      </trkpt>
      <trkpt lat="47.631225" lon="7.850277">
        <ele>455.649107</ele>
        <time>2021-11-09T22:29:15.437Z</time>
      </trkpt>
      <trkpt lat="47.631016" lon="7.850620">
        <ele>454.507296</ele>
        <time>2021-11-09T22:29:18.574Z</time>
      </trkpt>
      <trkpt lat="47.630572" lon="7.851349">
        <ele>452.083582</ele>
        <time>2021-11-09T22:29:25.209Z</time>
      </trkpt>
      <trkpt lat="47.629944" lon="7.852149">
        <ele>449.054148</ele>
        <time>2021-11-09T22:29:33.430Z</time>
      </trkpt>
      <trkpt lat="47.629636" lon="7.852329">
        <ele>447.559915</ele>
        <time>2021-11-09T22:29:36.676Z</time>
      </trkpt>
      <trkpt lat="47.629450" lon="7.852437">
        <ele>446.652857</ele>
        <time>2021-11-09T22:29:38.571Z</time>
      </trkpt>
      <trkpt lat="47.629440" lon="7.852440">
        <ele>446.606525</ele>
        <time>2021-11-09T22:29:38.657Z</time>
      </trkpt>
      <trkpt lat="47.628955" lon="7.852574">
        <ele>444.366119</ele>
        <time>2021-11-09T22:29:43.430Z</time>
      </trkpt>
      <trkpt lat="47.628091" lon="7.852385">
        <ele>440.460554</ele>
        <time>2021-11-09T22:29:51.591Z</time>
      </trkpt>
      <trkpt lat="47.626333" lon="7.851866">
        <ele>433.643976</ele>
        <time>2021-11-09T22:30:09.137Z</time>
      </trkpt>
      <trkpt lat="47.625550" lon="7.851952">
        <ele>432.458560</ele>
        <time>2021-11-09T22:30:18.021Z</time>
      </trkpt>
      <trkpt lat="47.625220" lon="7.852153">
        <ele>431.919974</ele>
        <time>2021-11-09T22:30:22.367Z</time>
      </trkpt>
      <trkpt lat="47.624847" lon="7.852475">
        <ele>431.268430</ele>
        <time>2021-11-09T22:30:28.149Z</time>
      </trkpt>
      <trkpt lat="47.624607" lon="7.852636">
        <ele>430.947797</ele>
        <time>2021-11-09T22:30:31.661Z</time>
      </trkpt>
      <trkpt lat="47.624152" lon="7.852848">
        <ele>430.508927</ele>
        <time>2021-11-09T22:30:38.155Z</time>
      </trkpt>
      <trkpt lat="47.623426" lon="7.853063">
        <ele>429.827655</ele>
        <time>2021-11-09T22:30:47.406Z</time>
      </trkpt>
      <trkpt lat="47.622726" lon="7.853422">
        <ele>428.912669</ele>
        <time>2021-11-09T22:30:55.799Z</time>
      </trkpt>
      <trkpt lat="47.621917" lon="7.853881">
        <ele>427.418210</ele>
        <time>2021-11-09T22:31:05.544Z</time>
      </trkpt>
      <trkpt lat="47.620941" lon="7.854385">
        <ele>425.250180</ele>
        <time>2021-11-09T22:31:17.074Z</time>
      </trkpt>
      <trkpt lat="47.620449" lon="7.854805">
        <ele>423.711705</ele>
        <time>2021-11-09T22:31:23.292Z</time>
      </trkpt>
      <trkpt lat="47.620117" lon="7.855176">
        <ele>422.585174</ele>
        <time>2021-11-09T22:31:27.633Z</time>
      </trkpt>
      <trkpt lat="47.619797" lon="7.855449">
        <ele>421.584692</ele>
        <time>2021-11-09T22:31:31.350Z</time>
      </trkpt>
      <trkpt lat="47.619340" lon="7.855676">
        <ele>418.676605</ele>
        <time>2021-11-09T22:31:35.975Z</time>
      </trkpt>
      <trkpt lat="47.618209" lon="7.856228">
        <ele>410.977910</ele>
        <time>2021-11-09T22:31:46.743Z</time>
      </trkpt>
      <trkpt lat="47.617871" lon="7.856385">
        <ele>408.151010</ele>
        <time>2021-11-09T22:31:49.818Z</time>
      </trkpt>
      <trkpt lat="47.616788" lon="7.856842">
        <ele>397.370772</ele>
        <time>2021-11-09T22:31:59.470Z</time>
      </trkpt>
      <trkpt lat="47.616514" lon="7.856828">
        <ele>394.745869</ele>
        <time>2021-11-09T22:32:01.826Z</time>
      </trkpt>
      <trkpt lat="47.616206" lon="7.856813">
        <ele>392.037975</ele>
        <time>2021-11-09T22:32:04.514Z</time>
      </trkpt>
      <trkpt lat="47.616000" lon="7.856839">
        <ele>390.667654</ele>
        <time>2021-11-09T22:32:06.352Z</time>
      </trkpt>
      <trkpt lat="47.615844" lon="7.856900">
        <ele>389.598355</ele>
        <time>2021-11-09T22:32:07.766Z</time>
      </trkpt>
      <trkpt lat="47.615613" lon="7.857102">
        <ele>387.821052</ele>
        <time>2021-11-09T22:32:10.147Z</time>
      </trkpt>
      <trkpt lat="47.615118" lon="7.857895">
        <ele>382.992157</ele>
        <time>2021-11-09T22:32:16.730Z</time>
      </trkpt>
      <trkpt lat="47.614688" lon="7.858653">
        <ele>379.762202</ele>
        <time>2021-11-09T22:32:23.360Z</time>
      </trkpt>
      <trkpt lat="47.614583" lon="7.858866">
        <ele>379.256090</ele>
        <time>2021-11-09T22:32:25.164Z</time>
      </trkpt>
      <trkpt lat="47.614286" lon="7.859741">
        <ele>377.377099</ele>
        <time>2021-11-09T22:32:32.170Z</time>
      </trkpt>
      <trkpt lat="47.614015" lon="7.860305">
        <ele>376.048668</ele>
        <time>2021-11-09T22:32:37.106Z</time>
      </trkpt>
      <trkpt lat="47.613795" lon="7.860645">
        <ele>375.303480</ele>
        <time>2021-11-09T22:32:40.493Z</time>
      </trkpt>
      <trkpt lat="47.613709" lon="7.860779">
        <ele>375.089495</ele>
        <time>2021-11-09T22:32:41.934Z</time>
      </trkpt>
      <trkpt lat="47.613477" lon="7.861090">
        <ele>374.553011</ele>
        <time>2021-11-09T22:32:45.507Z</time>
      </trkpt>
      <trkpt lat="47.613247" lon="7.861408">
        <ele>374.013580</ele>
        <time>2021-11-09T22:32:49.117Z</time>
      </trkpt>
      <trkpt lat="47.613183" lon="7.861517">
        <ele>373.846398</ele>
        <time>2021-11-09T22:32:50.231Z</time>
      </trkpt>
      <trkpt lat="47.613099" lon="7.861661">
        <ele>373.626152</ele>
        <time>2021-11-09T22:32:51.644Z</time>
      </trkpt>
      <trkpt lat="47.611814" lon="7.864344">
        <ele>369.523120</ele>
        <time>2021-11-09T22:33:17.164Z</time>
      </trkpt>
      <trkpt lat="47.611380" lon="7.864872">
        <ele>367.846785</ele>
        <time>2021-11-09T22:33:22.900Z</time>
      </trkpt>
      <trkpt lat="47.610539" lon="7.865746">
        <ele>363.822021</ele>
        <time>2021-11-09T22:33:32.846Z</time>
      </trkpt>
      <trkpt lat="47.609971" lon="7.866486">
        <ele>360.827625</ele>
        <time>2021-11-09T22:33:40.049Z</time>
      </trkpt>
      <trkpt lat="47.608371" lon="7.868821">
        <ele>351.453856</ele>
        <time>2021-11-09T22:34:02.104Z</time>
      </trkpt>
      <trkpt lat="47.608074" lon="7.869176">
        <ele>349.745032</ele>
        <time>2021-11-09T22:34:05.773Z</time>
      </trkpt>
      <trkpt lat="47.607911" lon="7.869279">
        <ele>348.951286</ele>
        <time>2021-11-09T22:34:07.494Z</time>
      </trkpt>
      <trkpt lat="47.607848" lon="7.869319">
        <ele>348.644275</ele>
        <time>2021-11-09T22:34:08.118Z</time>
      </trkpt>
      <trkpt lat="47.607466" lon="7.869418">
        <ele>346.906992</ele>
        <time>2021-11-09T22:34:11.748Z</time>
      </trkpt>
      <trkpt lat="47.607341" lon="7.869436">
        <ele>346.342457</ele>
        <time>2021-11-09T22:34:12.912Z</time>
      </trkpt>
      <trkpt lat="47.607251" lon="7.869449">
        <ele>345.934991</ele>
        <time>2021-11-09T22:34:13.746Z</time>
      </trkpt>
      <trkpt lat="47.606761" lon="7.869665">
        <ele>343.631558</ele>
        <time>2021-11-09T22:34:18.532Z</time>
      </trkpt>
      <trkpt lat="47.606461" lon="7.869656">
        <ele>342.279457</ele>
        <time>2021-11-09T22:34:21.345Z</time>
      </trkpt>
      <trkpt lat="47.606292" lon="7.869632">
        <ele>341.514446</ele>
        <time>2021-11-09T22:34:22.900Z</time>
      </trkpt>
      <trkpt lat="47.605878" lon="7.869549">
        <ele>339.631962</ele>
        <time>2021-11-09T22:34:26.909Z</time>
      </trkpt>
      <trkpt lat="47.605451" lon="7.869487">
        <ele>338.511223</ele>
        <time>2021-11-09T22:34:31.531Z</time>
      </trkpt>
      <trkpt lat="47.605251" lon="7.869499">
        <ele>338.453989</ele>
        <time>2021-11-09T22:34:33.651Z</time>
      </trkpt>
      <trkpt lat="47.605151" lon="7.869535">
        <ele>338.424565</ele>
        <time>2021-11-09T22:34:34.940Z</time>
      </trkpt>
      <trkpt lat="47.604178" lon="7.870272">
        <ele>338.112167</ele>
        <time>2021-11-09T22:34:52.934Z</time>
      </trkpt>
      <trkpt lat="47.603441" lon="7.870715">
        <ele>338.233424</ele>
        <time>2021-11-09T22:35:09.527Z</time>
      </trkpt>
      <trkpt lat="47.603243" lon="7.870755">
        <ele>338.295431</ele>
        <time>2021-11-09T22:35:13.575Z</time>
      </trkpt>
      <trkpt lat="47.602981" lon="7.870758">
        <ele>338.376731</ele>
        <time>2021-11-09T22:35:17.906Z</time>
      </trkpt>
      <trkpt lat="47.602723" lon="7.870667">
        <ele>338.459021</ele>
        <time>2021-11-09T22:35:22.089Z</time>
      </trkpt>
      <trkpt lat="47.602649" lon="7.870651">
        <ele>338.482226</ele>
        <time>2021-11-09T22:35:23.104Z</time>
      </trkpt>
      <trkpt lat="47.602070" lon="7.870289">
        <ele>338.101752</ele>
        <time>2021-11-09T22:35:31.192Z</time>
      </trkpt>
      <trkpt lat="47.600522" lon="7.868445">
        <ele>333.822835</ele>
        <time>2021-11-09T22:35:51.785Z</time>
      </trkpt>
      <trkpt lat="47.600376" lon="7.868280">
        <ele>333.568178</ele>
        <time>2021-11-09T22:35:53.674Z</time>
      </trkpt>
      <trkpt lat="47.599705" lon="7.867526">
        <ele>332.400247</ele>
        <time>2021-11-09T22:36:03.517Z</time>
      </trkpt>
      <trkpt lat="47.598844" lon="7.866669">
        <ele>332.188561</ele>
        <time>2021-11-09T22:36:20.587Z</time>
      </trkpt>
      <trkpt lat="47.598366" lon="7.866463">
        <ele>332.413783</ele>
        <time>2021-11-09T22:36:30.291Z</time>
      </trkpt>
      <trkpt lat="47.597848" lon="7.866506">
        <ele>332.648523</ele>
        <time>2021-11-09T22:36:39.545Z</time>
      </trkpt>
      <trkpt lat="47.596934" lon="7.867028">
        <ele>331.249120</ele>
        <time>2021-11-09T22:36:52.929Z</time>
      </trkpt>
      <trkpt lat="47.596649" lon="7.867104">
        <ele>330.762784</ele>
        <time>2021-11-09T22:36:56.093Z</time>
      </trkpt>
      <trkpt lat="47.596216" lon="7.866990">
        <ele>330.024186</ele>
        <time>2021-11-09T22:37:00.395Z</time>
      </trkpt>
      <trkpt lat="47.595529" lon="7.866433">
        <ele>327.873630</ele>
        <time>2021-11-09T22:37:08.276Z</time>
      </trkpt>
      <trkpt lat="47.595188" lon="7.866380">
        <ele>326.802086</ele>
        <time>2021-11-09T22:37:11.924Z</time>
      </trkpt>
      <trkpt lat="47.594961" lon="7.866424">
        <ele>326.086622</ele>
        <time>2021-11-09T22:37:14.192Z</time>
      </trkpt>
      <trkpt lat="47.594779" lon="7.866515">
        <ele>325.486365</ele>
        <time>2021-11-09T22:37:16.539Z</time>
      </trkpt>
      <trkpt lat="47.594420" lon="7.866749">
        <ele>324.260798</ele>
        <time>2021-11-09T22:37:20.659Z</time>
      </trkpt>
      <trkpt lat="47.594096" lon="7.866777">
        <ele>322.267730</ele>
        <time>2021-11-09T22:37:23.929Z</time>
      </trkpt>
      <trkpt lat="47.593941" lon="7.866752">
        <ele>321.193202</ele>
        <time>2021-11-09T22:37:25.342Z</time>
      </trkpt>
      <trkpt lat="47.593497" lon="7.866682">
        <ele>318.115998</ele>
        <time>2021-11-09T22:37:29.428Z</time>
      </trkpt>
      <trkpt lat="47.593114" lon="7.866603">
        <ele>315.451026</ele>
        <time>2021-11-09T22:37:32.937Z</time>
      </trkpt>
      <trkpt lat="47.592687" lon="7.866538">
        <ele>312.492764</ele>
        <time>2021-11-09T22:37:36.668Z</time>
      </trkpt>
      <trkpt lat="47.592389" lon="7.866483">
        <ele>309.719120</ele>
        <time>2021-11-09T22:37:39.243Z</time>
      </trkpt>
      <trkpt lat="47.592194" lon="7.866446">
        <ele>307.594748</ele>
        <time>2021-11-09T22:37:40.889Z</time>
      </trkpt>
      <trkpt lat="47.591755" lon="7.866378">
        <ele>302.825055</ele>
        <time>2021-11-09T22:37:44.630Z</time>
      </trkpt>
      <trkpt lat="47.591538" lon="7.866361">
        <ele>300.476861</ele>
        <time>2021-11-09T22:37:46.458Z</time>
      </trkpt>
      <trkpt lat="47.591332" lon="7.866357">
        <ele>298.250613</ele>
        <time>2021-11-09T22:37:48.231Z</time>
      </trkpt>
      <trkpt lat="47.591128" lon="7.866362">
        <ele>296.045867</ele>
        <time>2021-11-09T22:37:49.938Z</time>
      </trkpt>
      <trkpt lat="47.590822" lon="7.866391">
        <ele>292.732453</ele>
        <time>2021-11-09T22:37:52.554Z</time>
      </trkpt>
      <trkpt lat="47.590997" lon="7.867574">
        <ele>288.200515</ele>
        <time>2021-11-09T22:37:59.882Z</time>
      </trkpt>
      <trkpt lat="47.591040" lon="7.867815">
        <ele>287.321447</ele>
        <time>2021-11-09T22:38:01.505Z</time>
      </trkpt>
      <trkpt lat="47.590980" lon="7.867841">
        <ele>286.994608</ele>
        <time>2021-11-09T22:38:02.063Z</time>
      </trkpt>
      <trkpt lat="47.590914" lon="7.867918">
        <ele>286.555506</ele>
        <time>2021-11-09T22:38:02.919Z</time>
      </trkpt>
      <trkpt lat="47.590772" lon="7.868063">
        <ele>285.654013</ele>
        <time>2021-11-09T22:38:04.658Z</time>
      </trkpt>
      <trkpt lat="47.590725" lon="7.868121">
        <ele>285.334294</ele>
        <time>2021-11-09T22:38:05.248Z</time>
      </trkpt>
      <trkpt lat="47.590638" lon="7.868174">
        <ele>284.842508</ele>
        <time>2021-11-09T22:38:06.274Z</time>
      </trkpt>
      <trkpt lat="47.590572" lon="7.868216">
        <ele>284.466981</ele>
        <time>2021-11-09T22:38:07.091Z</time>
      </trkpt>
      <trkpt lat="47.590365" lon="7.868441">
        <ele>283.124992</ele>
        <time>2021-11-09T22:38:09.863Z</time>
      </trkpt>
      <trkpt lat="47.590348" lon="7.868400">
        <ele>282.955275</ele>
        <time>2021-11-09T22:38:10.512Z</time>
      </trkpt>
      <trkpt lat="47.590333" lon="7.867008">
        <ele>281.954706</ele>
        <time>2021-11-09T22:38:21.130Z</time>
      </trkpt>
      <trkpt lat="47.590274" lon="7.866644">
        <ele>281.714972</ele>
        <time>2021-11-09T22:38:24.458Z</time>
      </trkpt>
      <trkpt lat="47.590266" lon="7.866595">
        <ele>281.682687</ele>
        <time>2021-11-09T22:38:24.928Z</time>
      </trkpt>
      <trkpt lat="47.590251" lon="7.866509">
        <ele>281.625803</ele>
        <time>2021-11-09T22:38:25.713Z</time>
      </trkpt>
      <trkpt lat="47.590186" lon="7.866190">
        <ele>281.412403</ele>
        <time>2021-11-09T22:38:29.231Z</time>
      </trkpt>
      <trkpt lat="47.589823" lon="7.864422">
        <ele>281.168279</ele>
        <time>2021-11-09T22:38:48.609Z</time>
      </trkpt>
      <trkpt lat="47.589471" lon="7.862994">
        <ele>281.206100</ele>
        <time>2021-11-09T22:39:03.359Z</time>
      </trkpt>
      <trkpt lat="47.587447" lon="7.853842">
        <ele>280.825984</ele>
        <time>2021-11-09T22:40:38.009Z</time>
      </trkpt>
      <trkpt lat="47.587300" lon="7.853345">
        <ele>280.834437</ele>
        <time>2021-11-09T22:40:43.579Z</time>
      </trkpt>
      <trkpt lat="47.586757" lon="7.850579">
        <ele>281.255866</ele>
        <time>2021-11-09T22:41:14.335Z</time>
      </trkpt>
      <trkpt lat="47.586522" lon="7.848600">
        <ele>281.719482</ele>
        <time>2021-11-09T22:41:36.485Z</time>
      </trkpt>
      <trkpt lat="47.586484" lon="7.848370">
        <ele>281.774489</ele>
        <time>2021-11-09T22:41:39.136Z</time>
      </trkpt>
      <trkpt lat="47.586486" lon="7.847936">
        <ele>281.875307</ele>
        <time>2021-11-09T22:41:43.846Z</time>
      </trkpt>
      <trkpt lat="47.586452" lon="7.845634">
        <ele>282.087608</ele>
        <time>2021-11-09T22:42:08.102Z</time>
      </trkpt>
      <trkpt lat="47.586790" lon="7.842637">
        <ele>281.880684</ele>
        <time>2021-11-09T22:42:37.396Z</time>
      </trkpt>
      <trkpt lat="47.586802" lon="7.842180">
        <ele>281.791102</ele>
        <time>2021-11-09T22:42:41.673Z</time>
      </trkpt>
      <trkpt lat="47.586809" lon="7.842018">
        <ele>281.758452</ele>
        <time>2021-11-09T22:42:43.176Z</time>
      </trkpt>
      <trkpt lat="47.586920" lon="7.841604">
        <ele>281.668846</ele>
        <time>2021-11-09T22:42:47.348Z</time>
      </trkpt>
      <trkpt lat="47.587628" lon="7.835942">
        <ele>280.455337</ele>
        <time>2021-11-09T22:43:40.665Z</time>
      </trkpt>
      <trkpt lat="47.587703" lon="7.835360">
        <ele>280.313843</ele>
        <time>2021-11-09T22:43:46.029Z</time>
      </trkpt>
      <trkpt lat="47.587848" lon="7.834235">
        <ele>280.151398</ele>
        <time>2021-11-09T22:43:56.523Z</time>
      </trkpt>
      <trkpt lat="47.586496" lon="7.833050">
        <ele>280.388698</ele>
        <time>2021-11-09T22:44:19.000Z</time>
      </trkpt>
      <trkpt lat="47.586276" lon="7.833601">
        <ele>281.366641</ele>
        <time>2021-11-09T22:44:27.253Z</time>
      </trkpt>
      <trkpt lat="47.585278" lon="7.832688">
        <ele>284.022125</ele>
        <time>2021-11-09T22:44:58.707Z</time>
      </trkpt>
      <trkpt lat="47.585247" lon="7.832651">
        <ele>284.112242</ele>
        <time>2021-11-09T22:45:00.007Z</time>
      </trkpt>
      <trkpt lat="47.585195" lon="7.832588">
        <ele>284.357860</ele>
        <time>2021-11-09T22:45:02.203Z</time>
      </trkpt>
      <trkpt lat="47.585027" lon="7.832425">
        <ele>285.199452</ele>
        <time>2021-11-09T22:45:07.611Z</time>
      </trkpt>
      <trkpt lat="47.584717" lon="7.832264">
        <ele>286.576293</ele>
        <time>2021-11-09T22:45:17.276Z</time>
      </trkpt>
      <trkpt lat="47.584367" lon="7.832247">
        <ele>288.044166</ele>
        <time>2021-11-09T22:45:28.377Z</time>
      </trkpt>
      <trkpt lat="47.584156" lon="7.832334">
        <ele>288.962177</ele>
        <time>2021-11-09T22:45:36.084Z</time>
      </trkpt>
      <trkpt lat="47.584029" lon="7.832543">
        <ele>289.757515</ele>
        <time>2021-11-09T22:45:42.819Z</time>
      </trkpt>
      <trkpt lat="47.583849" lon="7.832883">
        <ele>290.979543</ele>
        <time>2021-11-09T22:45:53.209Z</time>
      </trkpt>
      <trkpt lat="47.583696" lon="7.833171">
        <ele>291.908431</ele>
        <time>2021-11-09T22:46:01.915Z</time>
      </trkpt>
      <trkpt lat="47.583523" lon="7.833509">
        <ele>292.707541</ele>
        <time>2021-11-09T22:46:10.374Z</time>
      </trkpt>
      <trkpt lat="47.583401" lon="7.833658">
        <ele>293.148894</ele>
        <time>2021-11-09T22:46:14.247Z</time>
      </trkpt>
      <trkpt lat="47.583327" lon="7.833750">
        <ele>293.418554</ele>
        <time>2021-11-09T22:46:17.373Z</time>
      </trkpt>
      <trkpt lat="47.583163" lon="7.833942">
        <ele>294.002040</ele>
        <time>2021-11-09T22:46:22.866Z</time>
      </trkpt>
      <trkpt lat="47.582828" lon="7.834117">
        <ele>294.993800</ele>
        <time>2021-11-09T22:46:31.313Z</time>
      </trkpt>
      <trkpt lat="47.580816" lon="7.834599">
        <ele>298.500019</ele>
        <time>2021-11-09T22:47:15.193Z</time>
      </trkpt>
      <trkpt lat="47.580667" lon="7.834627">
        <ele>298.688545</ele>
        <time>2021-11-09T22:47:17.574Z</time>
      </trkpt>
      <trkpt lat="47.579073" lon="7.834987">
        <ele>298.560118</ele>
        <time>2021-11-09T22:47:41.535Z</time>
      </trkpt>
      <trkpt lat="47.576219" lon="7.835650">
        <ele>295.469121</ele>
        <time>2021-11-09T22:48:15.195Z</time>
      </trkpt>
      <trkpt lat="47.575959" lon="7.835718">
        <ele>295.246210</ele>
        <time>2021-11-09T22:48:18.350Z</time>
      </trkpt>
      <trkpt lat="47.575033" lon="7.835907">
        <ele>294.540034</ele>
        <time>2021-11-09T22:48:30.804Z</time>
      </trkpt>
      <trkpt lat="47.574568" lon="7.836025">
        <ele>294.650807</ele>
        <time>2021-11-09T22:48:37.791Z</time>
      </trkpt>
      <trkpt lat="47.574158" lon="7.836106">
        <ele>294.747928</ele>
        <time>2021-11-09T22:48:44.464Z</time>
      </trkpt>
      <trkpt lat="47.573815" lon="7.836215">
        <ele>294.830296</ele>
        <time>2021-11-09T22:48:52.143Z</time>
      </trkpt>
      <trkpt lat="47.573348" lon="7.836386">
        <ele>294.943246</ele>
        <time>2021-11-09T22:49:02.995Z</time>
      </trkpt>
      <trkpt lat="47.572760" lon="7.836606">
        <ele>295.268013</ele>
        <time>2021-11-09T22:49:16.606Z</time>
      </trkpt>
      <trkpt lat="47.572296" lon="7.836777">
        <ele>295.525133</ele>
        <time>2021-11-09T22:49:27.031Z</time>
      </trkpt>
      <trkpt lat="47.572139" lon="7.836834">
        <ele>295.612058</ele>
        <time>2021-11-09T22:49:30.517Z</time>
      </trkpt>
      <trkpt lat="47.571871" lon="7.836932">
        <ele>295.760500</ele>
        <time>2021-11-09T22:49:36.554Z</time>
      </trkpt>
      <trkpt lat="47.571771" lon="7.836971">
        <ele>295.816107</ele>
        <time>2021-11-09T22:49:38.791Z</time>
      </trkpt>
      <trkpt lat="47.571254" lon="7.837161">
        <ele>296.340848</ele>
        <time>2021-11-09T22:49:51.241Z</time>
      </trkpt>
      <trkpt lat="47.570985" lon="7.837265">
        <ele>296.676861</ele>
        <time>2021-11-09T22:49:58.195Z</time>
      </trkpt>
      <trkpt lat="47.570872" lon="7.837307">
        <ele>296.817670</ele>
        <time>2021-11-09T22:50:01.211Z</time>
      </trkpt>
      <trkpt lat="47.570298" lon="7.837528">
        <ele>297.534477</ele>
        <time>2021-11-09T22:50:16.533Z</time>
      </trkpt>
      <trkpt lat="47.570038" lon="7.837643">
        <ele>297.862427</ele>
        <time>2021-11-09T22:50:23.656Z</time>
      </trkpt>
      <trkpt lat="47.569907" lon="7.837696">
        <ele>298.026557</ele>
        <time>2021-11-09T22:50:27.177Z</time>
      </trkpt>
      <trkpt lat="47.569814" lon="7.837733">
        <ele>298.146846</ele>
        <time>2021-11-09T22:50:29.739Z</time>
      </trkpt>
      <trkpt lat="47.569665" lon="7.837789">
        <ele>298.345266</ele>
        <time>2021-11-09T22:50:33.703Z</time>
      </trkpt>
      <trkpt lat="47.569522" lon="7.837844">
        <ele>298.535969</ele>
        <time>2021-11-09T22:50:37.557Z</time>
      </trkpt>
      <trkpt lat="47.569310" lon="7.837922">
        <ele>298.817930</ele>
        <time>2021-11-09T22:50:43.305Z</time>
      </trkpt>
      <trkpt lat="47.568988" lon="7.838054">
        <ele>299.249182</ele>
        <time>2021-11-09T22:50:52.082Z</time>
      </trkpt>
      <trkpt lat="47.568420" lon="7.838300">
        <ele>300.013034</ele>
        <time>2021-11-09T22:51:07.340Z</time>
      </trkpt>
      <trkpt lat="47.568160" lon="7.838415">
        <ele>300.363275</ele>
        <time>2021-11-09T22:51:13.753Z</time>
      </trkpt>
      <trkpt lat="47.568042" lon="7.838436">
        <ele>300.469998</ele>
        <time>2021-11-09T22:51:16.487Z</time>
      </trkpt>
      <trkpt lat="47.567936" lon="7.838380">
        <ele>300.553279</ele>
        <time>2021-11-09T22:51:19.020Z</time>
      </trkpt>
      <trkpt lat="47.567846" lon="7.838609">
        <ele>300.685610</ele>
        <time>2021-11-09T22:51:22.049Z</time>
      </trkpt>
      <trkpt lat="47.567823" lon="7.838648">
        <ele>300.711474</ele>
        <time>2021-11-09T22:51:22.705Z</time>
      </trkpt>
      <trkpt lat="47.567634" lon="7.839037">
        <ele>300.950834</ele>
        <time>2021-11-09T22:51:28.120Z</time>
      </trkpt>
      <trkpt lat="47.567626" lon="7.839064">
        <ele>300.965558</ele>
        <time>2021-11-09T22:51:28.534Z</time>
      </trkpt>
      <trkpt lat="47.567564" lon="7.839283">
        <ele>301.084148</ele>
        <time>2021-11-09T22:51:31.251Z</time>
      </trkpt>
      <trkpt lat="47.567530" lon="7.839459">
        <ele>301.175562</ele>
        <time>2021-11-09T22:51:33.441Z</time>
      </trkpt>
      <trkpt lat="47.567510" lon="7.839548">
        <ele>301.222402</ele>
        <time>2021-11-09T22:51:34.563Z</time>
      </trkpt>
      <trkpt lat="47.567481" lon="7.839664">
        <ele>301.284173</ele>
        <time>2021-11-09T22:51:35.903Z</time>
      </trkpt>
      <trkpt lat="47.567406" lon="7.839778">
        <ele>301.363678</ele>
        <time>2021-11-09T22:51:37.954Z</time>
      </trkpt>
      <trkpt lat="47.567111" lon="7.839998">
        <ele>301.608076</ele>
        <time>2021-11-09T22:51:43.935Z</time>
      </trkpt>
      <trkpt lat="47.566826" lon="7.840179">
        <ele>301.881571</ele>
        <time>2021-11-09T22:51:49.456Z</time>
      </trkpt>
      <trkpt lat="47.566592" lon="7.840279">
        <ele>302.141811</ele>
        <time>2021-11-09T22:51:54.085Z</time>
      </trkpt>
      <trkpt lat="47.566515" lon="7.840312">
        <ele>302.227465</ele>
        <time>2021-11-09T22:51:55.375Z</time>
      </trkpt>
      <trkpt lat="47.566450" lon="7.840326">
        <ele>302.297654</ele>
        <time>2021-11-09T22:51:56.613Z</time>
      </trkpt>
      <trkpt lat="47.566350" lon="7.840350">
        <ele>302.405906</ele>
        <time>2021-11-09T22:51:58.521Z</time>
      </trkpt>
      <trkpt lat="47.566221" lon="7.840340">
        <ele>302.543944</ele>
        <time>2021-11-09T22:52:00.854Z</time>
      </trkpt>
      <trkpt lat="47.566142" lon="7.840322">
        <ele>302.629356</ele>
        <time>2021-11-09T22:52:02.087Z</time>
      </trkpt>
      <trkpt lat="47.566081" lon="7.840309">
        <ele>302.695211</ele>
        <time>2021-11-09T22:52:03.299Z</time>
      </trkpt>
      <trkpt lat="47.565906" lon="7.840272">
        <ele>302.884110</ele>
        <time>2021-11-09T22:52:06.750Z</time>
      </trkpt>
      <trkpt lat="47.565343" lon="7.840185">
        <ele>303.488995</ele>
        <time>2021-11-09T22:52:18.071Z</time>
      </trkpt>
      <trkpt lat="47.565233" lon="7.840176">
        <ele>303.606720</ele>
        <time>2021-11-09T22:52:20.408Z</time>
      </trkpt>
      <trkpt lat="47.565168" lon="7.840179">
        <ele>303.676992</ele>
        <time>2021-11-09T22:52:21.784Z</time>
      </trkpt>
      <trkpt lat="47.565057" lon="7.840213">
        <ele>303.804075</ele>
        <time>2021-11-09T22:52:24.027Z</time>
      </trkpt>
      <trkpt lat="47.564936" lon="7.840261">
        <ele>303.944516</ele>
        <time>2021-11-09T22:52:26.743Z</time>
      </trkpt>
      <trkpt lat="47.564558" lon="7.840516">
        <ele>304.410172</ele>
        <time>2021-11-09T22:52:35.025Z</time>
      </trkpt>
      <trkpt lat="47.564534" lon="7.840532">
        <ele>304.439678</ele>
        <time>2021-11-09T22:52:35.523Z</time>
      </trkpt>
      <trkpt lat="47.564463" lon="7.840580">
        <ele>304.527174</ele>
        <time>2021-11-09T22:52:37.137Z</time>
      </trkpt>
      <trkpt lat="47.564094" lon="7.840838">
        <ele>304.984629</ele>
        <time>2021-11-09T22:52:44.797Z</time>
      </trkpt>
      <trkpt lat="47.563986" lon="7.840916">
        <ele>305.119332</ele>
        <time>2021-11-09T22:52:47.085Z</time>
      </trkpt>
      <trkpt lat="47.563941" lon="7.840948">
        <ele>305.175294</ele>
        <time>2021-11-09T22:52:48.010Z</time>
      </trkpt>
      <trkpt lat="47.563805" lon="7.841046">
        <ele>305.344847</ele>
        <time>2021-11-09T22:52:50.817Z</time>
      </trkpt>
      <trkpt lat="47.563659" lon="7.841150">
        <ele>305.526470</ele>
        <time>2021-11-09T22:52:53.708Z</time>
      </trkpt>
      <trkpt lat="47.563483" lon="7.841269">
        <ele>305.743102</ele>
        <time>2021-11-09T22:52:57.437Z</time>
      </trkpt>
      <trkpt lat="47.563300" lon="7.841391">
        <ele>305.967185</ele>
        <time>2021-11-09T22:53:00.997Z</time>
      </trkpt>
      <trkpt lat="47.563016" lon="7.841568">
        <ele>306.311234</ele>
        <time>2021-11-09T22:53:06.854Z</time>
      </trkpt>
      <trkpt lat="47.562965" lon="7.841597">
        <ele>306.372234</ele>
        <time>2021-11-09T22:53:07.832Z</time>
      </trkpt>
      <trkpt lat="47.562904" lon="7.841632">
        <ele>306.445281</ele>
        <time>2021-11-09T22:53:09.061Z</time>
      </trkpt>
      <trkpt lat="47.562574" lon="7.841873">
        <ele>306.856110</ele>
        <time>2021-11-09T22:53:16.027Z</time>
      </trkpt>
      <trkpt lat="47.562440" lon="7.842083">
        <ele>307.073900</ele>
        <time>2021-11-09T22:53:19.567Z</time>
      </trkpt>
      <trkpt lat="47.562385" lon="7.842183">
        <ele>307.171114</ele>
        <time>2021-11-09T22:53:21.094Z</time>
      </trkpt>
      <trkpt lat="47.562300" lon="7.842326">
        <ele>307.314715</ele>
        <time>2021-11-09T22:53:24.018Z</time>
      </trkpt>
      <trkpt lat="47.562179" lon="7.842500">
        <ele>307.502995</ele>
        <time>2021-11-09T22:53:27.501Z</time>
      </trkpt>
      <trkpt lat="47.561498" lon="7.843130">
        <ele>308.429035</ele>
        <time>2021-11-09T22:53:44.175Z</time>
      </trkpt>
      <trkpt lat="47.561434" lon="7.843181">
        <ele>308.513541</ele>
        <time>2021-11-09T22:53:45.980Z</time>
      </trkpt>
      <trkpt lat="47.561134" lon="7.843424">
        <ele>308.911134</ele>
        <time>2021-11-09T22:53:52.654Z</time>
      </trkpt>
      <trkpt lat="47.561038" lon="7.843502">
        <ele>309.038454</ele>
        <time>2021-11-09T22:53:54.768Z</time>
      </trkpt>
      <trkpt lat="47.560934" lon="7.843550">
        <ele>309.165128</ele>
        <time>2021-11-09T22:53:56.874Z</time>
      </trkpt>
      <trkpt lat="47.560812" lon="7.843560">
        <ele>309.307223</ele>
        <time>2021-11-09T22:53:59.063Z</time>
      </trkpt>
      <trkpt lat="47.560515" lon="7.843379">
        <ele>309.680679</ele>
        <time>2021-11-09T22:54:04.817Z</time>
      </trkpt>
      <trkpt lat="47.560430" lon="7.843341">
        <ele>309.777777</ele>
        <time>2021-11-09T22:54:06.630Z</time>
      </trkpt>
      <trkpt lat="47.560338" lon="7.843341">
        <ele>309.785664</ele>
        <time>2021-11-09T22:54:07.900Z</time>
      </trkpt>
      <trkpt lat="47.560209" lon="7.843393">
        <ele>309.797125</ele>
        <time>2021-11-09T22:54:10.316Z</time>
      </trkpt>
      <trkpt lat="47.560139" lon="7.843433">
        <ele>309.803556</ele>
        <time>2021-11-09T22:54:11.602Z</time>
      </trkpt>
      <trkpt lat="47.559847" lon="7.843604">
        <ele>309.830472</ele>
        <time>2021-11-09T22:54:16.790Z</time>
      </trkpt>
      <trkpt lat="47.559583" lon="7.843813">
        <ele>309.856132</ele>
        <time>2021-11-09T22:54:21.400Z</time>
      </trkpt>
      <trkpt lat="47.559158" lon="7.844233">
        <ele>309.899924</ele>
        <time>2021-11-09T22:54:28.610Z</time>
      </trkpt>
      <trkpt lat="47.559109" lon="7.844229">
        <ele>309.904131</ele>
        <time>2021-11-09T22:54:29.200Z</time>
      </trkpt>
      <trkpt lat="47.559060" lon="7.844197">
        <ele>309.908722</ele>
        <time>2021-11-09T22:54:29.831Z</time>
      </trkpt>
      <trkpt lat="47.558884" lon="7.843836">
        <ele>309.930783</ele>
        <time>2021-11-09T22:54:33.983Z</time>
      </trkpt>
      <trkpt lat="47.558555" lon="7.843392">
        <ele>309.921927</ele>
        <time>2021-11-09T22:54:40.019Z</time>
      </trkpt>
      <trkpt lat="47.558471" lon="7.843365">
        <ele>309.920216</ele>
        <time>2021-11-09T22:54:41.276Z</time>
      </trkpt>
      <trkpt lat="47.558405" lon="7.843371">
        <ele>309.918901</ele>
        <time>2021-11-09T22:54:42.445Z</time>
      </trkpt>
      <trkpt lat="47.558136" lon="7.843582">
        <ele>309.912843</ele>
        <time>2021-11-09T22:54:46.652Z</time>
      </trkpt>
      <trkpt lat="47.557967" lon="7.843683">
        <ele>309.909217</ele>
        <time>2021-11-09T22:54:49.371Z</time>
      </trkpt>
      <trkpt lat="47.557846" lon="7.843756">
        <ele>309.906617</ele>
        <time>2021-11-09T22:54:51.215Z</time>
      </trkpt>
      <trkpt lat="47.557759" lon="7.843839">
        <ele>309.904558</ele>
        <time>2021-11-09T22:54:52.991Z</time>
      </trkpt>
      <trkpt lat="47.557715" lon="7.843940">
        <ele>309.902943</ele>
        <time>2021-11-09T22:54:54.220Z</time>
      </trkpt>
      <trkpt lat="47.557560" lon="7.844433">
        <ele>309.897178</ele>
        <time>2021-11-09T22:55:00.179Z</time>
      </trkpt>
      <trkpt lat="47.557282" lon="7.844832">
        <ele>310.142267</ele>
        <time>2021-11-09T22:55:06.611Z</time>
      </trkpt>
      <trkpt lat="47.557134" lon="7.845095">
        <ele>310.288612</ele>
        <time>2021-11-09T22:55:10.387Z</time>
      </trkpt>
      <trkpt lat="47.556636" lon="7.845928">
        <ele>310.764204</ele>
        <time>2021-11-09T22:55:23.237Z</time>
      </trkpt>
      <trkpt lat="47.556060" lon="7.846859">
        <ele>311.531099</ele>
        <time>2021-11-09T22:55:39.364Z</time>
      </trkpt>
      <trkpt lat="47.555990" lon="7.846965">
        <ele>311.647939</ele>
        <time>2021-11-09T22:55:41.348Z</time>
      </trkpt>
      <trkpt lat="47.555966" lon="7.846932">
        <ele>311.686161</ele>
        <time>2021-11-09T22:55:41.936Z</time>
      </trkpt>
      <trkpt lat="47.555892" lon="7.846856">
        <ele>311.791269</ele>
        <time>2021-11-09T22:55:43.492Z</time>
      </trkpt>
      <trkpt lat="47.555855" lon="7.846815">
        <ele>311.845204</ele>
        <time>2021-11-09T22:55:44.402Z</time>
      </trkpt>
      <trkpt lat="47.555727" lon="7.846715">
        <ele>312.014126</ele>
        <time>2021-11-09T22:55:47.405Z</time>
      </trkpt>
      <trkpt lat="47.555199" lon="7.846687">
        <ele>312.630900</ele>
        <time>2021-11-09T22:55:57.372Z</time>
      </trkpt>
      <trkpt lat="47.555068" lon="7.846672">
        <ele>312.784283</ele>
        <time>2021-11-09T22:56:00.234Z</time>
      </trkpt>
      <trkpt lat="47.554995" lon="7.846915">
        <ele>312.993840</ele>
        <time>2021-11-09T22:56:03.958Z</time>
      </trkpt>
      <trkpt lat="47.554962" lon="7.846989">
        <ele>313.063719</ele>
        <time>2021-11-09T22:56:05.109Z</time>
      </trkpt>
      <trkpt lat="47.554892" lon="7.847148">
        <ele>313.230644</ele>
        <time>2021-11-09T22:56:07.928Z</time>
      </trkpt>
      <trkpt lat="47.554759" lon="7.847388">
        <ele>313.529154</ele>
        <time>2021-11-09T22:56:12.249Z</time>
      </trkpt>
      <trkpt lat="47.554618" lon="7.847626">
        <ele>313.833576</ele>
        <time>2021-11-09T22:56:16.808Z</time>
      </trkpt>
      <trkpt lat="47.554465" lon="7.847858">
        <ele>314.145384</ele>
        <time>2021-11-09T22:56:21.444Z</time>
      </trkpt>
      <trkpt lat="47.554351" lon="7.848049">
        <ele>314.390485</ele>
        <time>2021-11-09T22:56:24.904Z</time>
      </trkpt>
      <trkpt lat="47.554269" lon="7.848188">
        <ele>314.567950</ele>
        <time>2021-11-09T22:56:27.437Z</time>
      </trkpt>
      <trkpt lat="47.554209" lon="7.848300">
        <ele>314.705407</ele>
        <time>2021-11-09T22:56:29.518Z</time>
      </trkpt>
      <trkpt lat="47.554055" lon="7.848586">
        <ele>315.057110</ele>
        <time>2021-11-09T22:56:34.386Z</time>
      </trkpt>
      <trkpt lat="47.553725" lon="7.849291">
        <ele>315.940737</ele>
        <time>2021-11-09T22:56:45.753Z</time>
      </trkpt>
      <trkpt lat="47.553605" lon="7.849629">
        <ele>316.424347</ele>
        <time>2021-11-09T22:56:51.207Z</time>
      </trkpt>
      <trkpt lat="47.553537" lon="7.849904">
        <ele>316.795212</ele>
        <time>2021-11-09T22:56:55.398Z</time>
      </trkpt>
      <trkpt lat="47.553380" lon="7.850453">
        <ele>317.550237</ele>
        <time>2021-11-09T22:57:04.250Z</time>
      </trkpt>
      <trkpt lat="47.553344" lon="7.850525">
        <ele>317.663704</ele>
        <time>2021-11-09T22:57:05.516Z</time>
      </trkpt>
      <trkpt lat="47.553283" lon="7.850634">
        <ele>317.843008</ele>
        <time>2021-11-09T22:57:07.570Z</time>
      </trkpt>
      <trkpt lat="47.552876" lon="7.851300">
        <ele>318.980717</ele>
        <time>2021-11-09T22:57:21.403Z</time>
      </trkpt>
      <trkpt lat="47.552678" lon="7.851709">
        <ele>320.085272</ele>
        <time>2021-11-09T22:57:30.084Z</time>
      </trkpt>
      <trkpt lat="47.552449" lon="7.852231">
        <ele>321.546838</ele>
        <time>2021-11-09T22:57:42.370Z</time>
      </trkpt>
      <trkpt lat="47.552272" lon="7.852167">
        <ele>322.180573</ele>
        <time>2021-11-09T22:57:48.754Z</time>
      </trkpt>
      <trkpt lat="47.552097" lon="7.852063">
        <ele>322.836423</ele>
        <time>2021-11-09T22:57:53.763Z</time>
      </trkpt>
      <trkpt lat="47.552042" lon="7.852007">
        <ele>323.068549</ele>
        <time>2021-11-09T22:57:56.078Z</time>
      </trkpt>
      <trkpt lat="47.551925" lon="7.851845">
        <ele>323.625558</ele>
        <time>2021-11-09T22:58:01.204Z</time>
      </trkpt>
      <trkpt lat="47.551830" lon="7.851603">
        <ele>324.282791</ele>
        <time>2021-11-09T22:58:06.668Z</time>
      </trkpt>
      <trkpt lat="47.551660" lon="7.851725">
        <ele>324.939822</ele>
        <time>2021-11-09T22:58:12.594Z</time>
      </trkpt>
      <trkpt lat="47.551516" lon="7.851950">
        <ele>325.592272</ele>
        <time>2021-11-09T22:58:18.623Z</time>
      </trkpt>
      <trkpt lat="47.551468" lon="7.852020">
        <ele>325.774601</ele>
        <time>2021-11-09T22:58:21.411Z</time>
      </trkpt>
      <trkpt lat="47.550221" lon="7.853833">
        <ele>330.256468</ele>
        <time>2021-11-09T22:59:05.877Z</time>
      </trkpt>
      <trkpt lat="47.549883" lon="7.854434">
        <ele>330.534933</ele>
        <time>2021-11-09T22:59:14.769Z</time>
      </trkpt>
      <trkpt lat="47.549566" lon="7.855225">
        <ele>330.862392</ele>
        <time>2021-11-09T22:59:27.768Z</time>
      </trkpt>
      <trkpt lat="47.549362" lon="7.855774">
        <ele>331.085474</ele>
        <time>2021-11-09T22:59:36.086Z</time>
      </trkpt>
      <trkpt lat="47.548887" lon="7.857308">
        <ele>331.168634</ele>
        <time>2021-11-09T22:59:58.194Z</time>
      </trkpt>
      <trkpt lat="47.548743" lon="7.857692">
        <ele>331.175436</ele>
        <time>2021-11-09T23:00:04.166Z</time>
      </trkpt>
      <trkpt lat="47.548701" lon="7.857893">
        <ele>331.178694</ele>
        <time>2021-11-09T23:00:07.137Z</time>
      </trkpt>
      <trkpt lat="47.548686" lon="7.857973">
        <ele>331.179979</ele>
        <time>2021-11-09T23:00:08.260Z</time>
      </trkpt>
      <trkpt lat="47.548611" lon="7.858381">
        <ele>331.193786</ele>
        <time>2021-11-09T23:00:14.474Z</time>
      </trkpt>
      <trkpt lat="47.548334" lon="7.859801">
        <ele>332.191377</ele>
        <time>2021-11-09T23:00:37.512Z</time>
      </trkpt>
      <trkpt lat="47.548049" lon="7.860929">
        <ele>333.017681</ele>
        <time>2021-11-09T23:00:58.530Z</time>
      </trkpt>
      <trkpt lat="47.547930" lon="7.861711">
        <ele>333.932403</ele>
        <time>2021-11-09T23:01:13.294Z</time>
      </trkpt>
      <trkpt lat="47.547568" lon="7.863151">
        <ele>335.685833</ele>
        <time>2021-11-09T23:01:42.422Z</time>
      </trkpt>
      <trkpt lat="47.547320" lon="7.863864">
        <ele>336.118146</ele>
        <time>2021-11-09T23:01:56.362Z</time>
      </trkpt>
      <trkpt lat="47.546974" lon="7.864423">
        <ele>336.257371</ele>
        <time>2021-11-09T23:02:07.185Z</time>
      </trkpt>
      <trkpt lat="47.546885" lon="7.864500">
        <ele>336.285399</ele>
        <time>2021-11-09T23:02:10.270Z</time>
      </trkpt>
      <trkpt lat="47.546894" lon="7.864837">
        <ele>336.347310</ele>
        <time>2021-11-09T23:02:14.154Z</time>
      </trkpt>
      <trkpt lat="47.546889" lon="7.865225">
        <ele>336.418546</ele>
        <time>2021-11-09T23:02:19.579Z</time>
      </trkpt>
      <trkpt lat="47.546819" lon="7.865489">
        <ele>336.470612</ele>
        <time>2021-11-09T23:02:23.523Z</time>
      </trkpt>
      <trkpt lat="47.546510" lon="7.865766">
        <ele>336.347172</ele>
        <time>2021-11-09T23:02:30.157Z</time>
      </trkpt>
      <trkpt lat="47.546327" lon="7.865959">
        <ele>336.158069</ele>
        <time>2021-11-09T23:02:33.672Z</time>
      </trkpt>
      <trkpt lat="47.546096" lon="7.866147">
        <ele>335.936195</ele>
        <time>2021-11-09T23:02:38.228Z</time>
      </trkpt>
      <trkpt lat="47.545240" lon="7.866887">
        <ele>335.101875</ele>
        <time>2021-11-09T23:02:54.902Z</time>
      </trkpt>
      <trkpt lat="47.545160" lon="7.866985">
        <ele>335.014488</ele>
        <time>2021-11-09T23:02:56.858Z</time>
      </trkpt>
      <trkpt lat="47.545003" lon="7.867278">
        <ele>335.000558</ele>
        <time>2021-11-09T23:03:02.526Z</time>
      </trkpt>
      <trkpt lat="47.544568" lon="7.867693">
        <ele>335.000558</ele>
        <time>2021-11-09T23:03:15.129Z</time>
      </trkpt>
      <trkpt lat="47.544469" lon="7.867776">
        <ele>335.000558</ele>
        <time>2021-11-09T23:03:17.773Z</time>
      </trkpt>
      <trkpt lat="47.544410" lon="7.867825">
        <ele>335.000558</ele>
        <time>2021-11-09T23:03:19.527Z</time>
      </trkpt>
      <trkpt lat="47.544246" lon="7.867967">
        <ele>335.000558</ele>
        <time>2021-11-09T23:03:24.154Z</time>
      </trkpt>
      <trkpt lat="47.544214" lon="7.867988">
        <ele>335.000558</ele>
        <time>2021-11-09T23:03:24.975Z</time>
      </trkpt>
      <trkpt lat="47.543801" lon="7.868269">
        <ele>335.000558</ele>
        <time>2021-11-09T23:03:36.050Z</time>
      </trkpt>
      <trkpt lat="47.543657" lon="7.868359">
        <ele>335.000558</ele>
        <time>2021-11-09T23:03:40.220Z</time>
      </trkpt>
      <trkpt lat="47.543478" lon="7.868476">
        <ele>335.000558</ele>
        <time>2021-11-09T23:03:44.182Z</time>
      </trkpt>
    </trkseg>
  </trk>
</gpx>